<?xml version='1.0' encoding='UTF-8'?><gpx version="1.1" creator="JPX - https://github.com/jenetics/jpx" xmlns="http://www.topografix.com/GPX/1/1"><trk><trkseg><trkpt lat="45.7141323" lon="9.1825567"><ele>291.0</ele><time>2026-05-01T13:11:02.331Z</time></trkpt><trkpt lat="45.7142425" lon="9.1824774"><ele>291.0</ele><time>2026-05-01T13:11:04.333Z</time></trkpt><trkpt lat="45.7142984" lon="9.1824011"><ele>291.0</ele><time>2026-05-01T13:11:05.326Z</time></trkpt><trkpt lat="45.7143536" lon="9.1823549"><ele>291.0</ele><time>2026-05-01T13:11:06.333Z</time></trkpt><trkpt lat="45.7144584" lon="9.182273"><ele>291.0</ele><time>2026-05-01T13:11:08.342Z</time></trkpt><trkpt lat="45.7145663" lon="9.1821694"><ele>292.0</ele><time>2026-05-01T13:11:10.328Z</time></trkpt><trkpt lat="45.7146214" lon="9.1821104"><ele>293.0</ele><time>2026-05-01T13:11:11.329Z</time></trkpt><trkpt lat="45.7146818" lon="9.1820538"><ele>294.0</ele><time>2026-05-01T13:11:12.329Z</time></trkpt><trkpt lat="45.7147496" lon="9.1819998"><ele>295.0</ele><time>2026-05-01T13:11:13.34Z</time></trkpt><trkpt lat="45.7148232" lon="9.1819372"><ele>296.0</ele><time>2026-05-01T13:11:14.324Z</time></trkpt><trkpt lat="45.7148887" lon="9.1818763"><ele>297.0</ele><time>2026-05-01T13:11:15.329Z</time></trkpt><trkpt lat="45.7149752" lon="9.1817761"><ele>297.0</ele><time>2026-05-01T13:11:17.339Z</time></trkpt><trkpt lat="45.7150534" lon="9.1816636"><ele>297.0</ele><time>2026-05-01T13:11:19.337Z</time></trkpt><trkpt lat="45.7151182" lon="9.1815902"><ele>297.0</ele><time>2026-05-01T13:11:22.334Z</time></trkpt><trkpt lat="45.7152069" lon="9.1815376"><ele>297.0</ele><time>2026-05-01T13:11:45.336Z</time></trkpt><trkpt lat="45.7152875" lon="9.1815176"><ele>297.0</ele><time>2026-05-01T13:11:48.34Z</time></trkpt><trkpt lat="45.7153827" lon="9.1815107"><ele>298.0</ele><time>2026-05-01T13:11:52.336Z</time></trkpt><trkpt lat="45.7154501" lon="9.1815102"><ele>299.0</ele><time>2026-05-01T13:11:54.338Z</time></trkpt><trkpt lat="45.7155193" lon="9.1815243"><ele>300.0</ele><time>2026-05-01T13:11:56.332Z</time></trkpt><trkpt lat="45.7155885" lon="9.181535"><ele>301.0</ele><time>2026-05-01T13:11:59.338Z</time></trkpt><trkpt lat="45.7156642" lon="9.1814974"><ele>302.0</ele><time>2026-05-01T13:12:13.337Z</time></trkpt><trkpt lat="45.7157285" lon="9.181479"><ele>303.0</ele><time>2026-05-01T13:12:15.33Z</time></trkpt><trkpt lat="45.7157927" lon="9.1814814"><ele>304.0</ele><time>2026-05-01T13:12:22.333Z</time></trkpt><trkpt lat="45.7158066" lon="9.1813723"><ele>304.0</ele><time>2026-05-01T13:17:52.329Z</time></trkpt><trkpt lat="45.7158307" lon="9.1812523"><ele>304.0</ele><time>2026-05-01T13:17:55.327Z</time></trkpt><trkpt lat="45.7158464" lon="9.1811462"><ele>304.0</ele><time>2026-05-01T13:17:57.341Z</time></trkpt><trkpt lat="45.7158952" lon="9.1810457"><ele>304.0</ele><time>2026-05-01T13:17:59.337Z</time></trkpt><trkpt lat="45.7159391" lon="9.1809791"><ele>304.0</ele><time>2026-05-01T13:18:01.328Z</time></trkpt><trkpt lat="45.7160098" lon="9.1809133"><ele>304.0</ele><time>2026-05-01T13:18:05.335Z</time></trkpt><trkpt lat="45.7160756" lon="9.180865"><ele>305.66666666666663</ele><time>2026-05-01T13:18:07.329Z</time></trkpt><trkpt lat="45.7161461" lon="9.1808323"><ele>307.3333333333333</ele><time>2026-05-01T13:18:09.344Z</time></trkpt><trkpt lat="45.7162132" lon="9.180803"><ele>309.0</ele><time>2026-05-01T13:18:13.342Z</time></trkpt><trkpt lat="45.7162869" lon="9.1807969"><ele>310.6666666666667</ele><time>2026-05-01T13:18:25.344Z</time></trkpt><trkpt lat="45.7163724" lon="9.1807657"><ele>312.33333333333337</ele><time>2026-05-01T13:18:27.335Z</time></trkpt><trkpt lat="45.7164351" lon="9.180783"><ele>314.0</ele><time>2026-05-01T13:18:29.325Z</time></trkpt><trkpt lat="45.7165216" lon="9.1808517"><ele>314.0</ele><time>2026-05-01T13:18:31.326Z</time></trkpt><trkpt lat="45.7166231" lon="9.1808976"><ele>314.0</ele><time>2026-05-01T13:18:33.338Z</time></trkpt><trkpt lat="45.716738" lon="9.1808704"><ele>314.0</ele><time>2026-05-01T13:18:35.329Z</time></trkpt><trkpt lat="45.7167999" lon="9.1808479"><ele>314.0</ele><time>2026-05-01T13:18:36.338Z</time></trkpt><trkpt lat="45.7168703" lon="9.1808366"><ele>314.0</ele><time>2026-05-01T13:18:37.324Z</time></trkpt><trkpt lat="45.7169544" lon="9.180837"><ele>314.0</ele><time>2026-05-01T13:18:39.327Z</time></trkpt><trkpt lat="45.7171001" lon="9.1808259"><ele>316.1666666666667</ele><time>2026-05-01T13:20:45.339Z</time></trkpt><trkpt lat="45.7171721" lon="9.1807693"><ele>318.33333333333337</ele><time>2026-05-01T13:21:32.335Z</time></trkpt><trkpt lat="45.7172511" lon="9.1808159"><ele>320.5</ele><time>2026-05-01T13:21:35.342Z</time></trkpt><trkpt lat="45.7172852" lon="9.1809304"><ele>322.6666666666667</ele><time>2026-05-01T13:21:37.34Z</time></trkpt><trkpt lat="45.7173255" lon="9.181045"><ele>324.8333333333333</ele><time>2026-05-01T13:21:39.339Z</time></trkpt><trkpt lat="45.7173412" lon="9.1811439"><ele>327.0</ele><time>2026-05-01T13:21:40.34Z</time></trkpt><trkpt lat="45.7173981" lon="9.1812558"><ele>327.0</ele><time>2026-05-01T13:21:42.333Z</time></trkpt><trkpt lat="45.7175528" lon="9.181286"><ele>327.0</ele><time>2026-05-01T13:21:45.334Z</time></trkpt><trkpt lat="45.717647" lon="9.1812756"><ele>327.0</ele><time>2026-05-01T13:21:46.336Z</time></trkpt><trkpt lat="45.7177633" lon="9.1812252"><ele>327.0</ele><time>2026-05-01T13:21:47.34Z</time></trkpt><trkpt lat="45.7178611" lon="9.1811995"><ele>327.8333333333333</ele><time>2026-05-01T13:21:48.338Z</time></trkpt><trkpt lat="45.7179391" lon="9.181187"><ele>328.6666666666667</ele><time>2026-05-01T13:21:49.337Z</time></trkpt><trkpt lat="45.7180064" lon="9.1811842"><ele>329.5</ele><time>2026-05-01T13:21:50.338Z</time></trkpt><trkpt lat="45.718109" lon="9.1811437"><ele>330.33333333333337</ele><time>2026-05-01T13:21:52.336Z</time></trkpt><trkpt lat="45.7181864" lon="9.1811278"><ele>331.1666666666667</ele><time>2026-05-01T13:21:53.336Z</time></trkpt><trkpt lat="45.7182851" lon="9.1810912"><ele>332.0</ele><time>2026-05-01T13:21:54.335Z</time></trkpt><trkpt lat="45.7183849" lon="9.1810419"><ele>332.0</ele><time>2026-05-01T13:21:55.339Z</time></trkpt><trkpt lat="45.7185007" lon="9.1809916"><ele>332.0</ele><time>2026-05-01T13:21:56.334Z</time></trkpt><trkpt lat="45.7186127" lon="9.1809442"><ele>332.0</ele><time>2026-05-01T13:21:57.334Z</time></trkpt><trkpt lat="45.7186967" lon="9.1808947"><ele>332.0</ele><time>2026-05-01T13:21:58.339Z</time></trkpt><trkpt lat="45.7187896" lon="9.180839"><ele>332.0</ele><time>2026-05-01T13:21:59.327Z</time></trkpt><trkpt lat="45.7188859" lon="9.1808188"><ele>331.83333333333337</ele><time>2026-05-01T13:22:00.327Z</time></trkpt><trkpt lat="45.7189641" lon="9.1808202"><ele>331.6666666666667</ele><time>2026-05-01T13:22:01.337Z</time></trkpt><trkpt lat="45.7190448" lon="9.18085"><ele>331.5</ele><time>2026-05-01T13:22:03.344Z</time></trkpt><trkpt lat="45.7190932" lon="9.1809718"><ele>331.3333333333333</ele><time>2026-05-01T13:22:06.346Z</time></trkpt><trkpt lat="45.7191296" lon="9.1810791"><ele>331.16666666666663</ele><time>2026-05-01T13:22:08.334Z</time></trkpt><trkpt lat="45.719215" lon="9.1810987"><ele>331.0</ele><time>2026-05-01T13:22:10.343Z</time></trkpt><trkpt lat="45.7192846" lon="9.1810856"><ele>331.0</ele><time>2026-05-01T13:22:11.338Z</time></trkpt><trkpt lat="45.7193664" lon="9.1810751"><ele>331.0</ele><time>2026-05-01T13:22:12.346Z</time></trkpt><trkpt lat="45.7194456" lon="9.181072"><ele>331.0</ele><time>2026-05-01T13:22:13.346Z</time></trkpt><trkpt lat="45.7195087" lon="9.181073"><ele>331.0</ele><time>2026-05-01T13:22:14.347Z</time></trkpt><trkpt lat="45.7196108" lon="9.1810742"><ele>331.0</ele><time>2026-05-01T13:22:16.342Z</time></trkpt><trkpt lat="45.7196993" lon="9.181062"><ele>331.0</ele><time>2026-05-01T13:22:18.339Z</time></trkpt><trkpt lat="45.7197726" lon="9.1811123"><ele>330.14285714285717</ele><time>2026-05-01T13:22:38.335Z</time></trkpt><trkpt lat="45.7197863" lon="9.1812007"><ele>329.2857142857143</ele><time>2026-05-01T13:22:43.342Z</time></trkpt><trkpt lat="45.7198584" lon="9.1812206"><ele>328.42857142857144</ele><time>2026-05-01T13:22:47.346Z</time></trkpt><trkpt lat="45.7198605" lon="9.1813389"><ele>327.57142857142856</ele><time>2026-05-01T13:22:50.338Z</time></trkpt><trkpt lat="45.7199175" lon="9.1814176"><ele>326.7142857142857</ele><time>2026-05-01T13:23:15.337Z</time></trkpt><trkpt lat="45.7199908" lon="9.1814169"><ele>325.85714285714283</ele><time>2026-05-01T13:23:17.339Z</time></trkpt><trkpt lat="45.7200593" lon="9.1814158"><ele>325.0</ele><time>2026-05-01T13:23:19.338Z</time></trkpt><trkpt lat="45.7201428" lon="9.1813857"><ele>325.0</ele><time>2026-05-01T13:23:22.331Z</time></trkpt><trkpt lat="45.7202066" lon="9.1813778"><ele>325.0</ele><time>2026-05-01T13:23:25.352Z</time></trkpt><trkpt lat="45.7202722" lon="9.1813934"><ele>325.0</ele><time>2026-05-01T13:23:29.341Z</time></trkpt><trkpt lat="45.7202916" lon="9.1814832"><ele>325.0</ele><time>2026-05-01T13:23:41.334Z</time></trkpt><trkpt lat="45.7203172" lon="9.1816138"><ele>325.0</ele><time>2026-05-01T13:23:44.341Z</time></trkpt><trkpt lat="45.7203514" lon="9.1816977"><ele>325.0</ele><time>2026-05-01T13:23:47.333Z</time></trkpt><trkpt lat="45.7204178" lon="9.1816814"><ele>325.0</ele><time>2026-05-01T13:23:50.335Z</time></trkpt><trkpt lat="45.7204903" lon="9.1816517"><ele>325.0</ele><time>2026-05-01T13:24:12.334Z</time></trkpt><trkpt lat="45.7205844" lon="9.1816586"><ele>325.0</ele><time>2026-05-01T13:24:14.335Z</time></trkpt><trkpt lat="45.7206993" lon="9.181684"><ele>325.0</ele><time>2026-05-01T13:24:16.342Z</time></trkpt><trkpt lat="45.7207656" lon="9.1816772"><ele>325.0</ele><time>2026-05-01T13:24:17.343Z</time></trkpt><trkpt lat="45.7208331" lon="9.1816601"><ele>325.0</ele><time>2026-05-01T13:24:18.343Z</time></trkpt><trkpt lat="45.7209031" lon="9.181645"><ele>325.0</ele><time>2026-05-01T13:24:19.332Z</time></trkpt><trkpt lat="45.7209637" lon="9.1816184"><ele>325.0</ele><time>2026-05-01T13:24:20.332Z</time></trkpt><trkpt lat="45.7210258" lon="9.181585"><ele>325.0</ele><time>2026-05-01T13:24:21.329Z</time></trkpt><trkpt lat="45.7210816" lon="9.1815382"><ele>325.0</ele><time>2026-05-01T13:24:22.324Z</time></trkpt><trkpt lat="45.7211333" lon="9.1814838"><ele>325.0</ele><time>2026-05-01T13:24:23.331Z</time></trkpt><trkpt lat="45.7211926" lon="9.181448"><ele>325.0</ele><time>2026-05-01T13:24:24.338Z</time></trkpt><trkpt lat="45.7212574" lon="9.181402"><ele>325.0</ele><time>2026-05-01T13:24:25.341Z</time></trkpt><trkpt lat="45.7213337" lon="9.1813379"><ele>325.0</ele><time>2026-05-01T13:24:26.328Z</time></trkpt><trkpt lat="45.7214133" lon="9.1812682"><ele>324.5</ele><time>2026-05-01T13:24:27.336Z</time></trkpt><trkpt lat="45.721505" lon="9.1812004"><ele>324.0</ele><time>2026-05-01T13:24:28.334Z</time></trkpt><trkpt lat="45.7216909" lon="9.1810927"><ele>323.5</ele><time>2026-05-01T13:24:30.334Z</time></trkpt><trkpt lat="45.72178" lon="9.1810374"><ele>323.0</ele><time>2026-05-01T13:24:31.336Z</time></trkpt><trkpt lat="45.7218621" lon="9.1809648"><ele>323.79999999999995</ele><time>2026-05-01T13:24:32.333Z</time></trkpt><trkpt lat="45.7219267" lon="9.1808928"><ele>324.6</ele><time>2026-05-01T13:24:33.328Z</time></trkpt><trkpt lat="45.7219863" lon="9.1808548"><ele>325.4</ele><time>2026-05-01T13:24:34.328Z</time></trkpt><trkpt lat="45.7220927" lon="9.1808164"><ele>326.20000000000005</ele><time>2026-05-01T13:24:36.332Z</time></trkpt><trkpt lat="45.7221932" lon="9.1808225"><ele>327.0</ele><time>2026-05-01T13:24:38.338Z</time></trkpt><trkpt lat="45.7222806" lon="9.180737"><ele>327.0</ele><time>2026-05-01T13:24:40.331Z</time></trkpt><trkpt lat="45.7223827" lon="9.1806511"><ele>327.0</ele><time>2026-05-01T13:24:42.337Z</time></trkpt><trkpt lat="45.7224482" lon="9.1806247"><ele>327.0</ele><time>2026-05-01T13:24:43.336Z</time></trkpt><trkpt lat="45.7225092" lon="9.1805976"><ele>327.0</ele><time>2026-05-01T13:24:44.335Z</time></trkpt><trkpt lat="45.7225741" lon="9.1805528"><ele>327.0</ele><time>2026-05-01T13:24:45.33Z</time></trkpt><trkpt lat="45.7226433" lon="9.1804993"><ele>327.0</ele><time>2026-05-01T13:24:46.335Z</time></trkpt><trkpt lat="45.722714" lon="9.1804659"><ele>327.8333333333333</ele><time>2026-05-01T13:24:47.339Z</time></trkpt><trkpt lat="45.7227881" lon="9.1804494"><ele>328.6666666666667</ele><time>2026-05-01T13:24:48.343Z</time></trkpt><trkpt lat="45.7228512" lon="9.1804593"><ele>329.5</ele><time>2026-05-01T13:24:49.338Z</time></trkpt><trkpt lat="45.7229433" lon="9.1805652"><ele>330.33333333333337</ele><time>2026-05-01T13:24:51.346Z</time></trkpt><trkpt lat="45.7229948" lon="9.1806306"><ele>331.1666666666667</ele><time>2026-05-01T13:24:52.335Z</time></trkpt><trkpt lat="45.7230555" lon="9.1806558"><ele>332.0</ele><time>2026-05-01T13:24:53.344Z</time></trkpt><trkpt lat="45.7231557" lon="9.1806434"><ele>332.0</ele><time>2026-05-01T13:24:55.336Z</time></trkpt><trkpt lat="45.7232213" lon="9.1806022"><ele>332.0</ele><time>2026-05-01T13:24:58.34Z</time></trkpt><trkpt lat="45.7232672" lon="9.180532"><ele>332.0</ele><time>2026-05-01T13:25:13.33Z</time></trkpt><trkpt lat="45.7233552" lon="9.180443"><ele>332.0</ele><time>2026-05-01T13:25:15.331Z</time></trkpt><trkpt lat="45.7234184" lon="9.1803938"><ele>332.0</ele><time>2026-05-01T13:25:16.324Z</time></trkpt><trkpt lat="45.7234884" lon="9.1803448"><ele>332.0</ele><time>2026-05-01T13:25:17.345Z</time></trkpt><trkpt lat="45.7235503" lon="9.1803028"><ele>331.6666666666667</ele><time>2026-05-01T13:25:18.326Z</time></trkpt><trkpt lat="45.7236089" lon="9.1802687"><ele>331.33333333333337</ele><time>2026-05-01T13:25:19.341Z</time></trkpt><trkpt lat="45.723724" lon="9.180216"><ele>331.0</ele><time>2026-05-01T13:25:21.345Z</time></trkpt><trkpt lat="45.7237774" lon="9.1801632"><ele>330.6666666666667</ele><time>2026-05-01T13:25:22.328Z</time></trkpt><trkpt lat="45.7238722" lon="9.180055"><ele>330.3333333333333</ele><time>2026-05-01T13:25:24.334Z</time></trkpt><trkpt lat="45.7239307" lon="9.1799849"><ele>330.0</ele><time>2026-05-01T13:25:26.339Z</time></trkpt><trkpt lat="45.7239746" lon="9.1799193"><ele>330.6</ele><time>2026-05-01T13:25:36.342Z</time></trkpt><trkpt lat="45.723962" lon="9.1798014"><ele>331.2</ele><time>2026-05-01T13:25:39.33Z</time></trkpt><trkpt lat="45.7240277" lon="9.1797025"><ele>331.79999999999995</ele><time>2026-05-01T13:25:41.337Z</time></trkpt><trkpt lat="45.72414" lon="9.1796019"><ele>332.4</ele><time>2026-05-01T13:25:43.33Z</time></trkpt><trkpt lat="45.7241945" lon="9.1795466"><ele>333.0</ele><time>2026-05-01T13:25:44.341Z</time></trkpt><trkpt lat="45.7242994" lon="9.1794855"><ele>333.0</ele><time>2026-05-01T13:25:46.332Z</time></trkpt><trkpt lat="45.7243533" lon="9.1793782"><ele>333.0</ele><time>2026-05-01T13:25:48.34Z</time></trkpt><trkpt lat="45.7243913" lon="9.1792678"><ele>333.0</ele><time>2026-05-01T13:25:50.331Z</time></trkpt><trkpt lat="45.7244613" lon="9.1791453"><ele>333.0</ele><time>2026-05-01T13:25:52.341Z</time></trkpt><trkpt lat="45.7244388" lon="9.1792659"><ele>333.0</ele><time>2026-05-01T13:26:09.336Z</time></trkpt><trkpt lat="45.7243853" lon="9.1793886"><ele>333.0</ele><time>2026-05-01T13:26:11.331Z</time></trkpt><trkpt lat="45.7243271" lon="9.179437"><ele>333.0</ele><time>2026-05-01T13:26:12.338Z</time></trkpt><trkpt lat="45.7242634" lon="9.179472"><ele>333.0</ele><time>2026-05-01T13:26:13.33Z</time></trkpt><trkpt lat="45.7242034" lon="9.1795168"><ele>333.0</ele><time>2026-05-01T13:26:14.328Z</time></trkpt><trkpt lat="45.7241567" lon="9.1795797"><ele>333.0</ele><time>2026-05-01T13:26:15.333Z</time></trkpt><trkpt lat="45.7240836" lon="9.1796538"><ele>333.0</ele><time>2026-05-01T13:26:17.342Z</time></trkpt><trkpt lat="45.7240121" lon="9.179728"><ele>333.0</ele><time>2026-05-01T13:26:19.331Z</time></trkpt><trkpt lat="45.7239973" lon="9.1798308"><ele>332.5</ele><time>2026-05-01T13:26:21.341Z</time></trkpt><trkpt lat="45.7239747" lon="9.179955"><ele>332.0</ele><time>2026-05-01T13:27:44.34Z</time></trkpt><trkpt lat="45.7240499" lon="9.1799875"><ele>331.5</ele><time>2026-05-01T13:27:47.338Z</time></trkpt><trkpt lat="45.7241157" lon="9.1800017"><ele>331.0</ele><time>2026-05-01T13:27:49.335Z</time></trkpt><trkpt lat="45.724193" lon="9.1800327"><ele>330.5</ele><time>2026-05-01T13:27:51.331Z</time></trkpt><trkpt lat="45.7242759" lon="9.1800997"><ele>330.0</ele><time>2026-05-01T13:27:54.349Z</time></trkpt><trkpt lat="45.7243509" lon="9.1801771"><ele>329.8333333333333</ele><time>2026-05-01T13:27:56.333Z</time></trkpt><trkpt lat="45.724442" lon="9.1802517"><ele>329.6666666666667</ele><time>2026-05-01T13:27:58.328Z</time></trkpt><trkpt lat="45.7245273" lon="9.1803386"><ele>329.5</ele><time>2026-05-01T13:28:00.339Z</time></trkpt><trkpt lat="45.7246137" lon="9.1803857"><ele>329.33333333333337</ele><time>2026-05-01T13:28:02.329Z</time></trkpt><trkpt lat="45.7246746" lon="9.1804187"><ele>329.1666666666667</ele><time>2026-05-01T13:28:04.339Z</time></trkpt><trkpt lat="45.7247371" lon="9.1804729"><ele>329.0</ele><time>2026-05-01T13:28:12.336Z</time></trkpt><trkpt lat="45.7248039" lon="9.1804719"><ele>329.0</ele><time>2026-05-01T13:28:20.335Z</time></trkpt><trkpt lat="45.7249003" lon="9.1805075"><ele>329.0</ele><time>2026-05-01T13:28:29.334Z</time></trkpt><trkpt lat="45.7249981" lon="9.180477"><ele>329.0</ele><time>2026-05-01T13:29:36.34Z</time></trkpt><trkpt lat="45.7250727" lon="9.180471"><ele>329.0</ele><time>2026-05-01T13:29:37.343Z</time></trkpt><trkpt lat="45.7250923" lon="9.1805584"><ele>329.0</ele><time>2026-05-01T13:30:16.334Z</time></trkpt><trkpt lat="45.7251508" lon="9.1806318"><ele>329.0</ele><time>2026-05-01T13:31:41.338Z</time></trkpt><trkpt lat="45.7251829" lon="9.1807101"><ele>329.0</ele><time>2026-05-01T13:31:45.344Z</time></trkpt><trkpt lat="45.725194" lon="9.1808081"><ele>329.0</ele><time>2026-05-01T13:31:50.343Z</time></trkpt><trkpt lat="45.7252085" lon="9.180703"><ele>329.0</ele><time>2026-05-01T13:34:17.34Z</time></trkpt><trkpt lat="45.7251416" lon="9.1806891"><ele>329.0</ele><time>2026-05-01T13:34:38.336Z</time></trkpt><trkpt lat="45.7250779" lon="9.180686"><ele>329.0</ele><time>2026-05-01T13:34:44.336Z</time></trkpt><trkpt lat="45.7250737" lon="9.1805938"><ele>329.0</ele><time>2026-05-01T13:34:57.344Z</time></trkpt><trkpt lat="45.7250475" lon="9.1804701"><ele>329.0</ele><time>2026-05-01T13:36:11.344Z</time></trkpt><trkpt lat="45.7249789" lon="9.1804753"><ele>333.0</ele><time>2026-05-01T13:36:18.344Z</time></trkpt><trkpt lat="45.7240548" lon="9.1797316"><ele>333.0</ele><time>2026-05-01T13:45:25.336Z</time></trkpt><trkpt lat="45.724097" lon="9.179657"><ele>333.0</ele><time>2026-05-01T13:45:28.343Z</time></trkpt><trkpt lat="45.7241628" lon="9.1795759"><ele>333.0</ele><time>2026-05-01T13:45:30.329Z</time></trkpt><trkpt lat="45.7242796" lon="9.1794822"><ele>333.0</ele><time>2026-05-01T13:45:32.331Z</time></trkpt><trkpt lat="45.7243338" lon="9.1794193"><ele>333.0</ele><time>2026-05-01T13:45:33.332Z</time></trkpt><trkpt lat="45.7243876" lon="9.1793148"><ele>333.0</ele><time>2026-05-01T13:45:34.326Z</time></trkpt><trkpt lat="45.7244402" lon="9.1792127"><ele>333.4</ele><time>2026-05-01T13:45:35.33Z</time></trkpt><trkpt lat="45.7245121" lon="9.1790696"><ele>333.79999999999995</ele><time>2026-05-01T13:45:36.34Z</time></trkpt><trkpt lat="45.7245838" lon="9.1789503"><ele>334.2</ele><time>2026-05-01T13:45:37.331Z</time></trkpt><trkpt lat="45.7246481" lon="9.1788431"><ele>334.6</ele><time>2026-05-01T13:45:38.328Z</time></trkpt><trkpt lat="45.7247057" lon="9.1787506"><ele>335.0</ele><time>2026-05-01T13:45:39.338Z</time></trkpt><trkpt lat="45.7247655" lon="9.1786447"><ele>335.5</ele><time>2026-05-01T13:45:40.33Z</time></trkpt><trkpt lat="45.7248297" lon="9.1785609"><ele>336.0</ele><time>2026-05-01T13:45:41.332Z</time></trkpt><trkpt lat="45.724893" lon="9.1784792"><ele>336.5</ele><time>2026-05-01T13:45:42.341Z</time></trkpt><trkpt lat="45.7249514" lon="9.1784142"><ele>337.0</ele><time>2026-05-01T13:45:43.336Z</time></trkpt><trkpt lat="45.7250048" lon="9.1783347"><ele>337.5</ele><time>2026-05-01T13:45:44.326Z</time></trkpt><trkpt lat="45.7250531" lon="9.1782256"><ele>338.0</ele><time>2026-05-01T13:45:45.33Z</time></trkpt><trkpt lat="45.7250977" lon="9.1780945"><ele>338.25</ele><time>2026-05-01T13:45:46.321Z</time></trkpt><trkpt lat="45.7251249" lon="9.1779476"><ele>338.5</ele><time>2026-05-01T13:45:47.33Z</time></trkpt><trkpt lat="45.7251524" lon="9.177657"><ele>338.75</ele><time>2026-05-01T13:45:49.332Z</time></trkpt><trkpt lat="45.7251652" lon="9.1775596"><ele>339.0</ele><time>2026-05-01T13:45:50.337Z</time></trkpt><trkpt lat="45.7252572" lon="9.17743"><ele>338.79999999999995</ele><time>2026-05-01T13:45:52.322Z</time></trkpt><trkpt lat="45.7252963" lon="9.1773237"><ele>338.59999999999997</ele><time>2026-05-01T13:45:54.326Z</time></trkpt><trkpt lat="45.7253129" lon="9.1771821"><ele>338.4</ele><time>2026-05-01T13:46:07.343Z</time></trkpt><trkpt lat="45.7253756" lon="9.1770555"><ele>338.2</ele><time>2026-05-01T13:46:09.329Z</time></trkpt><trkpt lat="45.7253763" lon="9.1769342"><ele>338.0</ele><time>2026-05-01T13:46:11.327Z</time></trkpt><trkpt lat="45.7253079" lon="9.176871"><ele>337.59999999999997</ele><time>2026-05-01T13:46:13.333Z</time></trkpt><trkpt lat="45.7252191" lon="9.1768632"><ele>337.2</ele><time>2026-05-01T13:46:15.33Z</time></trkpt><trkpt lat="45.7251419" lon="9.1768373"><ele>336.8</ele><time>2026-05-01T13:46:17.335Z</time></trkpt><trkpt lat="45.7251034" lon="9.1767453"><ele>336.4</ele><time>2026-05-01T13:46:19.33Z</time></trkpt><trkpt lat="45.7250937" lon="9.1765322"><ele>336.0</ele><time>2026-05-01T13:46:43.328Z</time></trkpt><trkpt lat="45.7251481" lon="9.1764622"><ele>335.7142857142857</ele><time>2026-05-01T13:48:01.321Z</time></trkpt><trkpt lat="45.7252335" lon="9.1764554"><ele>335.42857142857144</ele><time>2026-05-01T13:48:04.337Z</time></trkpt><trkpt lat="45.7253051" lon="9.1764479"><ele>335.1428571428571</ele><time>2026-05-01T13:48:08.337Z</time></trkpt><trkpt lat="45.7253685" lon="9.1764453"><ele>334.8571428571429</ele><time>2026-05-01T13:48:12.326Z</time></trkpt><trkpt lat="45.7254422" lon="9.1764606"><ele>334.57142857142856</ele><time>2026-05-01T13:48:15.336Z</time></trkpt><trkpt lat="45.7255098" lon="9.1765129"><ele>334.2857142857143</ele><time>2026-05-01T13:48:18.337Z</time></trkpt><trkpt lat="45.7255672" lon="9.1765586"><ele>334.0</ele><time>2026-05-01T13:48:21.341Z</time></trkpt><trkpt lat="45.7256276" lon="9.1765875"><ele>334.3333333333333</ele><time>2026-05-01T13:48:25.344Z</time></trkpt><trkpt lat="45.7256976" lon="9.1765811"><ele>334.66666666666663</ele><time>2026-05-01T13:48:29.337Z</time></trkpt><trkpt lat="45.7257635" lon="9.1765419"><ele>335.0</ele><time>2026-05-01T13:48:32.344Z</time></trkpt><trkpt lat="45.7258573" lon="9.1765335"><ele>335.3333333333333</ele><time>2026-05-01T13:48:35.334Z</time></trkpt><trkpt lat="45.7259388" lon="9.1765419"><ele>335.6666666666667</ele><time>2026-05-01T13:48:37.33Z</time></trkpt><trkpt lat="45.7260148" lon="9.1765616"><ele>336.0</ele><time>2026-05-01T13:48:39.336Z</time></trkpt><trkpt lat="45.7261093" lon="9.1765627"><ele>336.0</ele><time>2026-05-01T13:48:41.342Z</time></trkpt><trkpt lat="45.7262254" lon="9.1765488"><ele>336.0</ele><time>2026-05-01T13:48:43.338Z</time></trkpt><trkpt lat="45.726355" lon="9.1765117"><ele>336.0</ele><time>2026-05-01T13:48:45.331Z</time></trkpt><trkpt lat="45.7264448" lon="9.1765076"><ele>336.0</ele><time>2026-05-01T13:48:46.332Z</time></trkpt><trkpt lat="45.7265314" lon="9.1765079"><ele>336.0</ele><time>2026-05-01T13:48:47.332Z</time></trkpt><trkpt lat="45.7266287" lon="9.1764851"><ele>336.0</ele><time>2026-05-01T13:48:48.332Z</time></trkpt><trkpt lat="45.7266958" lon="9.1764696"><ele>336.0</ele><time>2026-05-01T13:48:49.342Z</time></trkpt><trkpt lat="45.7267974" lon="9.1764886"><ele>336.0</ele><time>2026-05-01T13:48:51.332Z</time></trkpt><trkpt lat="45.7268619" lon="9.1765284"><ele>336.0</ele><time>2026-05-01T13:48:54.332Z</time></trkpt><trkpt lat="45.7269482" lon="9.1765156"><ele>336.0</ele><time>2026-05-01T13:48:56.346Z</time></trkpt><trkpt lat="45.7270253" lon="9.1765098"><ele>336.0</ele><time>2026-05-01T13:48:58.325Z</time></trkpt><trkpt lat="45.7271038" lon="9.1765175"><ele>335.8</ele><time>2026-05-01T13:49:00.328Z</time></trkpt><trkpt lat="45.727202" lon="9.1765418"><ele>335.6</ele><time>2026-05-01T13:49:02.336Z</time></trkpt><trkpt lat="45.7272652" lon="9.1765428"><ele>335.4</ele><time>2026-05-01T13:49:03.33Z</time></trkpt><trkpt lat="45.7273977" lon="9.1764993"><ele>335.2</ele><time>2026-05-01T13:49:05.347Z</time></trkpt><trkpt lat="45.7274624" lon="9.1764839"><ele>335.0</ele><time>2026-05-01T13:49:06.337Z</time></trkpt><trkpt lat="45.7275953" lon="9.1764831"><ele>335.0</ele><time>2026-05-01T13:49:08.339Z</time></trkpt><trkpt lat="45.7276979" lon="9.1764717"><ele>335.0</ele><time>2026-05-01T13:49:10.338Z</time></trkpt><trkpt lat="45.727784" lon="9.1764581"><ele>335.0</ele><time>2026-05-01T13:49:12.333Z</time></trkpt><trkpt lat="45.7278417" lon="9.1764106"><ele>335.0</ele><time>2026-05-01T13:49:16.343Z</time></trkpt><trkpt lat="45.7279018" lon="9.1764606"><ele>335.0</ele><time>2026-05-01T13:49:56.344Z</time></trkpt><trkpt lat="45.7278422" lon="9.1764066"><ele>335.0</ele><time>2026-05-01T13:50:03.339Z</time></trkpt><trkpt lat="45.7277704" lon="9.176405"><ele>335.0</ele><time>2026-05-01T13:50:05.325Z</time></trkpt><trkpt lat="45.7276818" lon="9.1764172"><ele>335.0</ele><time>2026-05-01T13:50:08.331Z</time></trkpt><trkpt lat="45.7276361" lon="9.1765207"><ele>335.0</ele><time>2026-05-01T13:50:11.341Z</time></trkpt><trkpt lat="45.7276407" lon="9.1766338"><ele>335.0</ele><time>2026-05-01T13:50:13.335Z</time></trkpt><trkpt lat="45.7276637" lon="9.1767642"><ele>335.0</ele><time>2026-05-01T13:50:15.334Z</time></trkpt><trkpt lat="45.7276888" lon="9.1768951"><ele>335.0</ele><time>2026-05-01T13:50:17.338Z</time></trkpt><trkpt lat="45.7277138" lon="9.1770196"><ele>335.83333333333337</ele><time>2026-05-01T13:50:19.328Z</time></trkpt><trkpt lat="45.7277324" lon="9.1771567"><ele>336.6666666666667</ele><time>2026-05-01T13:50:22.336Z</time></trkpt><trkpt lat="45.7277702" lon="9.1772608"><ele>337.5</ele><time>2026-05-01T13:50:25.34Z</time></trkpt><trkpt lat="45.7278159" lon="9.1773499"><ele>338.3333333333333</ele><time>2026-05-01T13:50:27.339Z</time></trkpt><trkpt lat="45.7278367" lon="9.1774498"><ele>339.16666666666663</ele><time>2026-05-01T13:50:29.335Z</time></trkpt><trkpt lat="45.7278695" lon="9.1775574"><ele>340.0</ele><time>2026-05-01T13:50:31.333Z</time></trkpt><trkpt lat="45.7278942" lon="9.1776751"><ele>340.0</ele><time>2026-05-01T13:50:33.336Z</time></trkpt><trkpt lat="45.7279292" lon="9.1777606"><ele>340.0</ele><time>2026-05-01T13:50:36.33Z</time></trkpt><trkpt lat="45.7279458" lon="9.1778825"><ele>340.0</ele><time>2026-05-01T13:50:39.341Z</time></trkpt><trkpt lat="45.7279667" lon="9.1779944"><ele>340.0</ele><time>2026-05-01T13:50:41.336Z</time></trkpt><trkpt lat="45.7279714" lon="9.1781132"><ele>340.0</ele><time>2026-05-01T13:50:43.329Z</time></trkpt><trkpt lat="45.7279688" lon="9.1782121"><ele>340.0</ele><time>2026-05-01T13:50:44.319Z</time></trkpt><trkpt lat="45.727967" lon="9.1783123"><ele>339.8</ele><time>2026-05-01T13:50:45.335Z</time></trkpt><trkpt lat="45.7279787" lon="9.1784536"><ele>339.6</ele><time>2026-05-01T13:50:47.331Z</time></trkpt><trkpt lat="45.7279945" lon="9.1785849"><ele>339.4</ele><time>2026-05-01T13:50:49.334Z</time></trkpt><trkpt lat="45.7280058" lon="9.1787143"><ele>339.2</ele><time>2026-05-01T13:50:51.333Z</time></trkpt><trkpt lat="45.7280455" lon="9.1788178"><ele>339.0</ele><time>2026-05-01T13:50:53.332Z</time></trkpt><trkpt lat="45.7280657" lon="9.1789514"><ele>338.6666666666667</ele><time>2026-05-01T13:50:56.341Z</time></trkpt><trkpt lat="45.7280703" lon="9.1790741"><ele>338.3333333333333</ele><time>2026-05-01T13:50:59.336Z</time></trkpt><trkpt lat="45.7280467" lon="9.1791739"><ele>338.0</ele><time>2026-05-01T13:51:05.338Z</time></trkpt><trkpt lat="45.7279389" lon="9.1792606"><ele>337.66666666666663</ele><time>2026-05-01T13:51:32.329Z</time></trkpt><trkpt lat="45.7278959" lon="9.1793453"><ele>337.3333333333333</ele><time>2026-05-01T13:51:34.344Z</time></trkpt><trkpt lat="45.7278397" lon="9.1794291"><ele>337.0</ele><time>2026-05-01T13:51:36.331Z</time></trkpt><trkpt lat="45.7277682" lon="9.1794671"><ele>337.0</ele><time>2026-05-01T13:51:39.323Z</time></trkpt><trkpt lat="45.7276704" lon="9.1794627"><ele>337.0</ele><time>2026-05-01T13:52:47.338Z</time></trkpt><trkpt lat="45.7277312" lon="9.1793943"><ele>337.0</ele><time>2026-05-01T13:52:51.336Z</time></trkpt><trkpt lat="45.727796" lon="9.1793242"><ele>337.0</ele><time>2026-05-01T13:52:55.345Z</time></trkpt><trkpt lat="45.7278721" lon="9.1792526"><ele>337.0</ele><time>2026-05-01T13:52:58.332Z</time></trkpt><trkpt lat="45.7279493" lon="9.1791876"><ele>337.0</ele><time>2026-05-01T13:53:00.331Z</time></trkpt><trkpt lat="45.728026" lon="9.1791493"><ele>337.0</ele><time>2026-05-01T13:53:02.327Z</time></trkpt><trkpt lat="45.728113" lon="9.1790889"><ele>337.0</ele><time>2026-05-01T13:53:04.328Z</time></trkpt><trkpt lat="45.72819" lon="9.1791454"><ele>337.0</ele><time>2026-05-01T13:53:06.334Z</time></trkpt><trkpt lat="45.7282496" lon="9.1792529"><ele>337.0</ele><time>2026-05-01T13:53:08.338Z</time></trkpt><trkpt lat="45.7283034" lon="9.179339"><ele>337.0</ele><time>2026-05-01T13:53:10.327Z</time></trkpt><trkpt lat="45.7283587" lon="9.1793991"><ele>337.0</ele><time>2026-05-01T13:53:12.334Z</time></trkpt><trkpt lat="45.7284306" lon="9.1794037"><ele>337.0</ele><time>2026-05-01T13:53:15.352Z</time></trkpt><trkpt lat="45.7285001" lon="9.1794199"><ele>337.0</ele><time>2026-05-01T13:53:19.335Z</time></trkpt><trkpt lat="45.7285595" lon="9.1793888"><ele>337.0</ele><time>2026-05-01T13:53:25.347Z</time></trkpt><trkpt lat="45.7286372" lon="9.1793754"><ele>337.0</ele><time>2026-05-01T13:53:28.329Z</time></trkpt><trkpt lat="45.7286967" lon="9.1793379"><ele>337.0</ele><time>2026-05-01T13:53:30.334Z</time></trkpt><trkpt lat="45.7287759" lon="9.1793206"><ele>337.0</ele><time>2026-05-01T13:53:33.328Z</time></trkpt><trkpt lat="45.7288803" lon="9.17937"><ele>338.0</ele><time>2026-05-01T13:53:41.339Z</time></trkpt><trkpt lat="45.7289662" lon="9.1793905"><ele>339.0</ele><time>2026-05-01T13:53:44.33Z</time></trkpt><trkpt lat="45.7290292" lon="9.1793982"><ele>340.0</ele><time>2026-05-01T13:53:46.337Z</time></trkpt><trkpt lat="45.7291098" lon="9.1793562"><ele>341.0</ele><time>2026-05-01T13:53:48.338Z</time></trkpt><trkpt lat="45.7291876" lon="9.1793058"><ele>342.0</ele><time>2026-05-01T13:53:50.347Z</time></trkpt><trkpt lat="45.7292705" lon="9.1792525"><ele>343.0</ele><time>2026-05-01T13:53:52.35Z</time></trkpt><trkpt lat="45.7293436" lon="9.1791909"><ele>343.3333333333333</ele><time>2026-05-01T13:53:54.337Z</time></trkpt><trkpt lat="45.7294156" lon="9.1791245"><ele>343.66666666666663</ele><time>2026-05-01T13:53:58.327Z</time></trkpt><trkpt lat="45.7294453" lon="9.1790145"><ele>344.0</ele><time>2026-05-01T13:54:06.331Z</time></trkpt><trkpt lat="45.7294782" lon="9.178934"><ele>344.3333333333333</ele><time>2026-05-01T13:54:10.33Z</time></trkpt><trkpt lat="45.7295394" lon="9.1788594"><ele>344.6666666666667</ele><time>2026-05-01T13:54:17.334Z</time></trkpt><trkpt lat="45.7295894" lon="9.178794"><ele>345.0</ele><time>2026-05-01T13:54:20.347Z</time></trkpt><trkpt lat="45.7296668" lon="9.1787366"><ele>345.5</ele><time>2026-05-01T13:54:22.327Z</time></trkpt><trkpt lat="45.7297562" lon="9.1787171"><ele>346.0</ele><time>2026-05-01T13:54:24.345Z</time></trkpt><trkpt lat="45.7298162" lon="9.1786616"><ele>346.5</ele><time>2026-05-01T13:54:26.338Z</time></trkpt><trkpt lat="45.7298861" lon="9.1786516"><ele>347.0</ele><time>2026-05-01T13:54:28.335Z</time></trkpt><trkpt lat="45.729977" lon="9.1787112"><ele>347.5</ele><time>2026-05-01T13:54:34.336Z</time></trkpt><trkpt lat="45.7300429" lon="9.1787328"><ele>348.0</ele><time>2026-05-01T13:54:36.334Z</time></trkpt><trkpt lat="45.730119" lon="9.1788202"><ele>348.0</ele><time>2026-05-01T13:54:41.335Z</time></trkpt><trkpt lat="45.7301669" lon="9.1788834"><ele>348.0</ele><time>2026-05-01T13:54:44.34Z</time></trkpt><trkpt lat="45.73024" lon="9.1790043"><ele>348.0</ele><time>2026-05-01T13:54:46.339Z</time></trkpt><trkpt lat="45.7302774" lon="9.1790979"><ele>348.0</ele><time>2026-05-01T13:54:48.332Z</time></trkpt><trkpt lat="45.7303404" lon="9.1792109"><ele>348.0</ele><time>2026-05-01T13:54:56.332Z</time></trkpt><trkpt lat="45.7304132" lon="9.1792768"><ele>348.0</ele><time>2026-05-01T13:55:01.335Z</time></trkpt><trkpt lat="45.7304696" lon="9.1793578"><ele>347.6666666666667</ele><time>2026-05-01T13:55:08.331Z</time></trkpt><trkpt lat="45.7305525" lon="9.1793651"><ele>347.3333333333333</ele><time>2026-05-01T13:55:11.332Z</time></trkpt><trkpt lat="45.7306532" lon="9.1792918"><ele>347.0</ele><time>2026-05-01T13:57:39.349Z</time></trkpt><trkpt lat="45.730736" lon="9.1793236"><ele>346.66666666666663</ele><time>2026-05-01T13:57:43.328Z</time></trkpt><trkpt lat="45.7307888" lon="9.1793962"><ele>346.3333333333333</ele><time>2026-05-01T13:57:49.334Z</time></trkpt><trkpt lat="45.7308503" lon="9.179423"><ele>346.0</ele><time>2026-05-01T13:57:53.327Z</time></trkpt><trkpt lat="45.7309135" lon="9.1794296"><ele>346.0</ele><time>2026-05-01T13:57:56.335Z</time></trkpt><trkpt lat="45.7309821" lon="9.1794334"><ele>346.0</ele><time>2026-05-01T13:57:59.348Z</time></trkpt><trkpt lat="45.7310757" lon="9.1794291"><ele>346.0</ele><time>2026-05-01T13:58:02.344Z</time></trkpt><trkpt lat="45.7311437" lon="9.1793913"><ele>346.0</ele><time>2026-05-01T13:58:08.33Z</time></trkpt><trkpt lat="45.7311669" lon="9.1793074"><ele>346.0</ele><time>2026-05-01T13:58:11.328Z</time></trkpt><trkpt lat="45.731218" lon="9.1791756"><ele>346.0</ele><time>2026-05-01T13:58:13.345Z</time></trkpt><trkpt lat="45.7312448" lon="9.1790656"><ele>346.16666666666663</ele><time>2026-05-01T13:58:15.333Z</time></trkpt><trkpt lat="45.7312641" lon="9.1789421"><ele>346.3333333333333</ele><time>2026-05-01T13:58:18.337Z</time></trkpt><trkpt lat="45.7313006" lon="9.1788665"><ele>346.5</ele><time>2026-05-01T13:58:20.332Z</time></trkpt><trkpt lat="45.7313309" lon="9.1787733"><ele>346.6666666666667</ele><time>2026-05-01T13:58:23.335Z</time></trkpt><trkpt lat="45.7313566" lon="9.1786777"><ele>346.83333333333337</ele><time>2026-05-01T13:58:26.329Z</time></trkpt><trkpt lat="45.7313677" lon="9.1785645"><ele>347.0</ele><time>2026-05-01T13:58:28.342Z</time></trkpt><trkpt lat="45.731408" lon="9.1784734"><ele>347.0</ele><time>2026-05-01T13:58:30.346Z</time></trkpt><trkpt lat="45.7314538" lon="9.1783757"><ele>347.0</ele><time>2026-05-01T13:58:32.338Z</time></trkpt><trkpt lat="45.7314932" lon="9.1782622"><ele>347.0</ele><time>2026-05-01T13:58:34.341Z</time></trkpt><trkpt lat="45.7315436" lon="9.1782019"><ele>347.0</ele><time>2026-05-01T13:58:38.337Z</time></trkpt><trkpt lat="45.7315881" lon="9.1780981"><ele>347.0</ele><time>2026-05-01T13:58:40.336Z</time></trkpt><trkpt lat="45.7316489" lon="9.177949"><ele>347.0</ele><time>2026-05-01T13:58:42.338Z</time></trkpt><trkpt lat="45.7316926" lon="9.1778463"><ele>347.6</ele><time>2026-05-01T13:58:43.348Z</time></trkpt><trkpt lat="45.7317337" lon="9.1777504"><ele>348.20000000000005</ele><time>2026-05-01T13:58:44.344Z</time></trkpt><trkpt lat="45.7317997" lon="9.1776123"><ele>348.8</ele><time>2026-05-01T13:58:46.345Z</time></trkpt><trkpt lat="45.7318483" lon="9.1775347"><ele>349.4</ele><time>2026-05-01T13:58:48.331Z</time></trkpt><trkpt lat="45.7319243" lon="9.1774641"><ele>350.0</ele><time>2026-05-01T13:58:51.328Z</time></trkpt><trkpt lat="45.7320068" lon="9.1774038"><ele>349.6666666666667</ele><time>2026-05-01T13:58:54.339Z</time></trkpt><trkpt lat="45.7320852" lon="9.1773234"><ele>349.33333333333337</ele><time>2026-05-01T13:58:56.332Z</time></trkpt><trkpt lat="45.7321584" lon="9.1772794"><ele>349.0</ele><time>2026-05-01T13:58:58.334Z</time></trkpt><trkpt lat="45.7322166" lon="9.1772374"><ele>348.6666666666667</ele><time>2026-05-01T13:59:01.325Z</time></trkpt><trkpt lat="45.7322878" lon="9.1772109"><ele>348.3333333333333</ele><time>2026-05-01T13:59:05.343Z</time></trkpt><trkpt lat="45.7323589" lon="9.1771825"><ele>348.0</ele><time>2026-05-01T13:59:08.335Z</time></trkpt><trkpt lat="45.7324436" lon="9.1771629"><ele>348.0</ele><time>2026-05-01T13:59:11.33Z</time></trkpt><trkpt lat="45.7325178" lon="9.1771217"><ele>348.0</ele><time>2026-05-01T13:59:14.326Z</time></trkpt><trkpt lat="45.7325455" lon="9.177009"><ele>348.0</ele><time>2026-05-01T13:59:18.324Z</time></trkpt><trkpt lat="45.7325559" lon="9.1768866"><ele>348.0</ele><time>2026-05-01T13:59:20.324Z</time></trkpt><trkpt lat="45.7325729" lon="9.1767438"><ele>348.0</ele><time>2026-05-01T13:59:22.329Z</time></trkpt><trkpt lat="45.7325579" lon="9.1766421"><ele>348.0</ele><time>2026-05-01T13:59:24.338Z</time></trkpt><trkpt lat="45.7325029" lon="9.17652"><ele>348.1428571428571</ele><time>2026-05-01T13:59:27.337Z</time></trkpt><trkpt lat="45.7324689" lon="9.1764127"><ele>348.2857142857143</ele><time>2026-05-01T13:59:30.337Z</time></trkpt><trkpt lat="45.7324621" lon="9.1763158"><ele>348.42857142857144</ele><time>2026-05-01T13:59:32.326Z</time></trkpt><trkpt lat="45.7324529" lon="9.1762205"><ele>348.57142857142856</ele><time>2026-05-01T13:59:34.333Z</time></trkpt><trkpt lat="45.7324644" lon="9.1761169"><ele>348.7142857142857</ele><time>2026-05-01T13:59:37.327Z</time></trkpt><trkpt lat="45.7324681" lon="9.1760157"><ele>348.85714285714283</ele><time>2026-05-01T13:59:39.345Z</time></trkpt><trkpt lat="45.7325131" lon="9.1759292"><ele>349.0</ele><time>2026-05-01T13:59:43.339Z</time></trkpt><trkpt lat="45.7325409" lon="9.1758359"><ele>348.99999999999994</ele><time>2026-05-01T13:59:46.331Z</time></trkpt><trkpt lat="45.7325799" lon="9.1757219"><ele>349.0</ele><time>2026-05-01T13:59:48.333Z</time></trkpt><trkpt lat="45.7326326" lon="9.1756615"><ele>349.0</ele><time>2026-05-01T13:59:50.331Z</time></trkpt><trkpt lat="45.7326918" lon="9.1756147"><ele>349.0</ele><time>2026-05-01T13:59:52.332Z</time></trkpt><trkpt lat="45.7327396" lon="9.1755536"><ele>349.0</ele><time>2026-05-01T13:59:54.332Z</time></trkpt><trkpt lat="45.732775" lon="9.1754733"><ele>348.99999999999994</ele><time>2026-05-01T13:59:56.234Z</time></trkpt><trkpt lat="45.7328068" lon="9.1753616"><ele>349.0</ele><time>2026-05-01T13:59:58.334Z</time></trkpt><trkpt lat="45.7328984" lon="9.1753109"><ele>349.5</ele><time>2026-05-01T14:00:00.347Z</time></trkpt><trkpt lat="45.7329689" lon="9.1752995"><ele>350.0</ele><time>2026-05-01T14:00:02.326Z</time></trkpt><trkpt lat="45.7330401" lon="9.1752754"><ele>350.5</ele><time>2026-05-01T14:00:04.273Z</time></trkpt><trkpt lat="45.7331111" lon="9.1752342"><ele>351.0</ele><time>2026-05-01T14:00:05.341Z</time></trkpt><trkpt lat="45.733205" lon="9.1751858"><ele>351.5</ele><time>2026-05-01T14:00:07.348Z</time></trkpt><trkpt lat="45.7332907" lon="9.1751626"><ele>352.0</ele><time>2026-05-01T14:00:09.331Z</time></trkpt><trkpt lat="45.7333763" lon="9.1751209"><ele>352.0</ele><time>2026-05-01T14:00:11.342Z</time></trkpt><trkpt lat="45.7334164" lon="9.1750137"><ele>352.0</ele><time>2026-05-01T14:00:14.175Z</time></trkpt><trkpt lat="45.7334601" lon="9.1749317"><ele>352.0</ele><time>2026-05-01T14:00:18.329Z</time></trkpt><trkpt lat="45.7334959" lon="9.1748466"><ele>352.0</ele><time>2026-05-01T14:00:23.339Z</time></trkpt><trkpt lat="45.7335612" lon="9.1748202"><ele>352.0</ele><time>2026-05-01T14:00:28.335Z</time></trkpt><trkpt lat="45.7336214" lon="9.1746808"><ele>352.0</ele><time>2026-05-01T14:02:05.336Z</time></trkpt><trkpt lat="45.7336501" lon="9.174764"><ele>351.8571428571429</ele><time>2026-05-01T14:02:08.347Z</time></trkpt><trkpt lat="45.7336248" lon="9.1748697"><ele>351.7142857142857</ele><time>2026-05-01T14:02:11.335Z</time></trkpt><trkpt lat="45.7335918" lon="9.1749468"><ele>351.57142857142856</ele><time>2026-05-01T14:02:14.328Z</time></trkpt><trkpt lat="45.7335966" lon="9.1750607"><ele>351.42857142857144</ele><time>2026-05-01T14:02:17.337Z</time></trkpt><trkpt lat="45.7336013" lon="9.175159"><ele>351.2857142857143</ele><time>2026-05-01T14:02:42.334Z</time></trkpt><trkpt lat="45.7336643" lon="9.1751632"><ele>351.14285714285717</ele><time>2026-05-01T14:02:49.334Z</time></trkpt><trkpt lat="45.7336922" lon="9.175068"><ele>351.0</ele><time>2026-05-01T14:02:53.33Z</time></trkpt><trkpt lat="45.733731" lon="9.1749865"><ele>351.00000000000006</ele><time>2026-05-01T14:02:56.354Z</time></trkpt><trkpt lat="45.7337756" lon="9.1749094"><ele>351.0</ele><time>2026-05-01T14:03:00.346Z</time></trkpt><trkpt lat="45.7338467" lon="9.1748425"><ele>351.0</ele><time>2026-05-01T14:03:04.34Z</time></trkpt><trkpt lat="45.7339041" lon="9.1747874"><ele>351.0</ele><time>2026-05-01T14:03:08.335Z</time></trkpt><trkpt lat="45.7339538" lon="9.1747165"><ele>351.0</ele><time>2026-05-01T14:03:11.327Z</time></trkpt><trkpt lat="45.7339762" lon="9.1746299"><ele>351.00000000000006</ele><time>2026-05-01T14:03:22.334Z</time></trkpt><trkpt lat="45.7339707" lon="9.174534"><ele>351.0</ele><time>2026-05-01T14:03:29.335Z</time></trkpt><trkpt lat="45.7339676" lon="9.1744393"><ele>351.14285714285717</ele><time>2026-05-01T14:03:32.34Z</time></trkpt><trkpt lat="45.7339587" lon="9.1743466"><ele>351.2857142857143</ele><time>2026-05-01T14:03:34.347Z</time></trkpt><trkpt lat="45.7339549" lon="9.1742561"><ele>351.42857142857144</ele><time>2026-05-01T14:03:36.324Z</time></trkpt><trkpt lat="45.7339588" lon="9.1741595"><ele>351.57142857142856</ele><time>2026-05-01T14:03:38.341Z</time></trkpt><trkpt lat="45.7339778" lon="9.1740503"><ele>351.7142857142857</ele><time>2026-05-01T14:03:41.344Z</time></trkpt><trkpt lat="45.7339572" lon="9.1739375"><ele>351.8571428571429</ele><time>2026-05-01T14:03:44.341Z</time></trkpt><trkpt lat="45.7339509" lon="9.1738357"><ele>352.0</ele><time>2026-05-01T14:03:46.343Z</time></trkpt><trkpt lat="45.73394" lon="9.1737228"><ele>351.66666666666663</ele><time>2026-05-01T14:03:49.345Z</time></trkpt><trkpt lat="45.7339591" lon="9.1735953"><ele>351.3333333333333</ele><time>2026-05-01T14:03:52.345Z</time></trkpt><trkpt lat="45.7340046" lon="9.1734945"><ele>351.0</ele><time>2026-05-01T14:03:55.354Z</time></trkpt><trkpt lat="45.7340856" lon="9.1734593"><ele>350.6666666666667</ele><time>2026-05-01T14:03:57.338Z</time></trkpt><trkpt lat="45.7341547" lon="9.1734637"><ele>350.33333333333337</ele><time>2026-05-01T14:03:59.348Z</time></trkpt><trkpt lat="45.7342307" lon="9.1734726"><ele>350.0</ele><time>2026-05-01T14:04:01.339Z</time></trkpt><trkpt lat="45.7343525" lon="9.1734674"><ele>350.85714285714283</ele><time>2026-05-01T14:04:03.325Z</time></trkpt><trkpt lat="45.7344255" lon="9.1734733"><ele>351.7142857142857</ele><time>2026-05-01T14:04:04.342Z</time></trkpt><trkpt lat="45.7344989" lon="9.1734729"><ele>352.57142857142856</ele><time>2026-05-01T14:04:05.347Z</time></trkpt><trkpt lat="45.7345768" lon="9.1734661"><ele>353.42857142857144</ele><time>2026-05-01T14:04:06.345Z</time></trkpt><trkpt lat="45.7346482" lon="9.1734557"><ele>354.2857142857143</ele><time>2026-05-01T14:04:07.345Z</time></trkpt><trkpt lat="45.7347142" lon="9.1734385"><ele>355.1428571428571</ele><time>2026-05-01T14:04:08.329Z</time></trkpt><trkpt lat="45.7347776" lon="9.1734189"><ele>356.0</ele><time>2026-05-01T14:04:09.332Z</time></trkpt><trkpt lat="45.7348539" lon="9.1733899"><ele>356.0</ele><time>2026-05-01T14:04:10.337Z</time></trkpt><trkpt lat="45.7349251" lon="9.173373"><ele>356.0</ele><time>2026-05-01T14:04:11.338Z</time></trkpt><trkpt lat="45.73499" lon="9.1733701"><ele>356.0</ele><time>2026-05-01T14:04:12.326Z</time></trkpt><trkpt lat="45.7350935" lon="9.1733248"><ele>356.0</ele><time>2026-05-01T14:04:14.334Z</time></trkpt><trkpt lat="45.7352042" lon="9.1732678"><ele>356.0</ele><time>2026-05-01T14:04:16.33Z</time></trkpt><trkpt lat="45.7352753" lon="9.17323"><ele>356.0</ele><time>2026-05-01T14:04:17.334Z</time></trkpt><trkpt lat="45.7353561" lon="9.1731965"><ele>356.1666666666667</ele><time>2026-05-01T14:04:18.331Z</time></trkpt><trkpt lat="45.7354397" lon="9.173172"><ele>356.33333333333337</ele><time>2026-05-01T14:04:19.344Z</time></trkpt><trkpt lat="45.7355319" lon="9.1731562"><ele>356.5</ele><time>2026-05-01T14:04:20.345Z</time></trkpt><trkpt lat="45.7356061" lon="9.17316"><ele>356.6666666666667</ele><time>2026-05-01T14:04:21.352Z</time></trkpt><trkpt lat="45.735662" lon="9.1732029"><ele>356.8333333333333</ele><time>2026-05-01T14:04:22.339Z</time></trkpt><trkpt lat="45.73573" lon="9.1732751"><ele>357.0</ele><time>2026-05-01T14:04:23.34Z</time></trkpt><trkpt lat="45.7358214" lon="9.1733137"><ele>357.0</ele><time>2026-05-01T14:04:25.333Z</time></trkpt><trkpt lat="45.7359164" lon="9.1733392"><ele>357.0</ele><time>2026-05-01T14:04:34.344Z</time></trkpt><trkpt lat="45.7360043" lon="9.1733027"><ele>357.0</ele><time>2026-05-01T14:04:40.329Z</time></trkpt><trkpt lat="45.7360937" lon="9.1733987"><ele>357.0</ele><time>2026-05-01T14:05:06.333Z</time></trkpt><trkpt lat="45.7361606" lon="9.1733939"><ele>357.0</ele><time>2026-05-01T14:05:10.349Z</time></trkpt><trkpt lat="45.7362454" lon="9.1734142"><ele>357.0</ele><time>2026-05-01T14:05:12.339Z</time></trkpt><trkpt lat="45.7363488" lon="9.1734326"><ele>357.0</ele><time>2026-05-01T14:05:14.336Z</time></trkpt><trkpt lat="45.7364262" lon="9.1734471"><ele>357.0</ele><time>2026-05-01T14:05:16.34Z</time></trkpt><trkpt lat="45.7364987" lon="9.1734622"><ele>357.0</ele><time>2026-05-01T14:05:19.341Z</time></trkpt><trkpt lat="45.7364337" lon="9.1735019"><ele>357.0</ele><time>2026-05-01T14:06:14.33Z</time></trkpt><trkpt lat="45.7363638" lon="9.1734891"><ele>357.0</ele><time>2026-05-01T14:06:16.339Z</time></trkpt><trkpt lat="45.736283" lon="9.1734707"><ele>357.0</ele><time>2026-05-01T14:06:18.338Z</time></trkpt><trkpt lat="45.7362223" lon="9.1734361"><ele>357.0</ele><time>2026-05-01T14:06:21.342Z</time></trkpt><trkpt lat="45.7362112" lon="9.1733329"><ele>357.0</ele><time>2026-05-01T14:06:23.348Z</time></trkpt><trkpt lat="45.7362048" lon="9.1731882"><ele>357.0</ele><time>2026-05-01T14:06:25.341Z</time></trkpt><trkpt lat="45.7362019" lon="9.1730329"><ele>357.0</ele><time>2026-05-01T14:06:27.345Z</time></trkpt><trkpt lat="45.7361951" lon="9.172846"><ele>356.8333333333333</ele><time>2026-05-01T14:06:29.332Z</time></trkpt><trkpt lat="45.7361943" lon="9.1727391"><ele>356.6666666666667</ele><time>2026-05-01T14:06:30.346Z</time></trkpt><trkpt lat="45.7361927" lon="9.1726265"><ele>356.5</ele><time>2026-05-01T14:06:31.332Z</time></trkpt><trkpt lat="45.7361918" lon="9.1725238"><ele>356.33333333333337</ele><time>2026-05-01T14:06:32.334Z</time></trkpt><trkpt lat="45.7361921" lon="9.1724138"><ele>356.1666666666667</ele><time>2026-05-01T14:06:33.344Z</time></trkpt><trkpt lat="45.7361913" lon="9.1723031"><ele>356.0</ele><time>2026-05-01T14:06:34.344Z</time></trkpt><trkpt lat="45.7361892" lon="9.1721944"><ele>356.0</ele><time>2026-05-01T14:06:35.333Z</time></trkpt><trkpt lat="45.7361863" lon="9.1720879"><ele>356.0</ele><time>2026-05-01T14:06:36.331Z</time></trkpt><trkpt lat="45.7361817" lon="9.1719825"><ele>356.0</ele><time>2026-05-01T14:06:37.345Z</time></trkpt><trkpt lat="45.7361815" lon="9.1718782"><ele>356.0</ele><time>2026-05-01T14:06:38.342Z</time></trkpt><trkpt lat="45.7361831" lon="9.1717679"><ele>356.0</ele><time>2026-05-01T14:06:39.329Z</time></trkpt><trkpt lat="45.7361827" lon="9.1716591"><ele>356.0</ele><time>2026-05-01T14:06:40.334Z</time></trkpt><trkpt lat="45.7361791" lon="9.1715427"><ele>355.6666666666667</ele><time>2026-05-01T14:06:41.344Z</time></trkpt><trkpt lat="45.7361771" lon="9.171429"><ele>355.33333333333337</ele><time>2026-05-01T14:06:42.338Z</time></trkpt><trkpt lat="45.7361734" lon="9.1713105"><ele>355.0</ele><time>2026-05-01T14:06:43.334Z</time></trkpt><trkpt lat="45.7361703" lon="9.1711907"><ele>354.6666666666667</ele><time>2026-05-01T14:06:44.34Z</time></trkpt><trkpt lat="45.7361699" lon="9.1710726"><ele>354.3333333333333</ele><time>2026-05-01T14:06:45.331Z</time></trkpt><trkpt lat="45.7361686" lon="9.1709545"><ele>354.0</ele><time>2026-05-01T14:06:46.336Z</time></trkpt><trkpt lat="45.7361687" lon="9.1708365"><ele>354.0</ele><time>2026-05-01T14:06:47.348Z</time></trkpt><trkpt lat="45.7361683" lon="9.1707174"><ele>354.0</ele><time>2026-05-01T14:06:48.346Z</time></trkpt><trkpt lat="45.7361671" lon="9.1705982"><ele>354.0</ele><time>2026-05-01T14:06:49.34Z</time></trkpt><trkpt lat="45.7361665" lon="9.1704833"><ele>354.0</ele><time>2026-05-01T14:06:50.338Z</time></trkpt><trkpt lat="45.7361665" lon="9.1703716"><ele>354.0</ele><time>2026-05-01T14:06:51.343Z</time></trkpt><trkpt lat="45.736167" lon="9.1702649"><ele>354.0</ele><time>2026-05-01T14:06:52.328Z</time></trkpt><trkpt lat="45.7361671" lon="9.17016"><ele>352.5</ele><time>2026-05-01T14:06:53.347Z</time></trkpt><trkpt lat="45.7361665" lon="9.1700572"><ele>351.0</ele><time>2026-05-01T14:06:54.333Z</time></trkpt><trkpt lat="45.7361686" lon="9.1699615"><ele>349.5</ele><time>2026-05-01T14:06:55.338Z</time></trkpt><trkpt lat="45.736169" lon="9.1698675"><ele>348.0</ele><time>2026-05-01T14:06:56.338Z</time></trkpt><trkpt lat="45.7361708" lon="9.1697752"><ele>346.5</ele><time>2026-05-01T14:06:57.329Z</time></trkpt><trkpt lat="45.7361773" lon="9.1696154"><ele>345.0</ele><time>2026-05-01T14:06:59.328Z</time></trkpt><trkpt lat="45.7361281" lon="9.1696984"><ele>344.5</ele><time>2026-05-01T14:07:06.347Z</time></trkpt><trkpt lat="45.7361722" lon="9.1697714"><ele>344.0</ele><time>2026-05-01T14:07:08.34Z</time></trkpt><trkpt lat="45.7362569" lon="9.1697793"><ele>343.5</ele><time>2026-05-01T14:07:10.35Z</time></trkpt><trkpt lat="45.7363428" lon="9.1697588"><ele>343.0</ele><time>2026-05-01T14:07:12.337Z</time></trkpt><trkpt lat="45.7364354" lon="9.1697344"><ele>342.5</ele><time>2026-05-01T14:07:14.345Z</time></trkpt><trkpt lat="45.7365277" lon="9.16974"><ele>342.0</ele><time>2026-05-01T14:07:16.332Z</time></trkpt><trkpt lat="45.7366109" lon="9.1697425"><ele>342.0</ele><time>2026-05-01T14:07:18.341Z</time></trkpt><trkpt lat="45.7366817" lon="9.1697527"><ele>342.0</ele><time>2026-05-01T14:07:20.345Z</time></trkpt><trkpt lat="45.7367537" lon="9.1697518"><ele>342.0</ele><time>2026-05-01T14:07:23.347Z</time></trkpt><trkpt lat="45.7368369" lon="9.1697504"><ele>342.0</ele><time>2026-05-01T14:07:27.339Z</time></trkpt><trkpt lat="45.7369418" lon="9.1697405"><ele>342.0</ele><time>2026-05-01T14:07:30.331Z</time></trkpt><trkpt lat="45.737037" lon="9.169738"><ele>342.0</ele><time>2026-05-01T14:07:32.336Z</time></trkpt><trkpt lat="45.7371086" lon="9.1697222"><ele>343.1428571428571</ele><time>2026-05-01T14:07:34.332Z</time></trkpt><trkpt lat="45.737143" lon="9.1696269"><ele>344.2857142857143</ele><time>2026-05-01T14:07:37.333Z</time></trkpt><trkpt lat="45.7371707" lon="9.1695457"><ele>345.42857142857144</ele><time>2026-05-01T14:07:39.347Z</time></trkpt><trkpt lat="45.7371977" lon="9.1694491"><ele>346.57142857142856</ele><time>2026-05-01T14:07:41.351Z</time></trkpt><trkpt lat="45.7372287" lon="9.1693571"><ele>347.7142857142857</ele><time>2026-05-01T14:07:43.344Z</time></trkpt><trkpt lat="45.7372587" lon="9.1692377"><ele>348.85714285714283</ele><time>2026-05-01T14:07:46.333Z</time></trkpt><trkpt lat="45.7372574" lon="9.1691453"><ele>350.0</ele><time>2026-05-01T14:07:49.349Z</time></trkpt><trkpt lat="45.7373338" lon="9.1691109"><ele>350.0</ele><time>2026-05-01T14:07:53.34Z</time></trkpt><trkpt lat="45.7373917" lon="9.1691555"><ele>350.0</ele><time>2026-05-01T14:07:56.343Z</time></trkpt><trkpt lat="45.7374472" lon="9.1690978"><ele>350.0</ele><time>2026-05-01T14:08:01.34Z</time></trkpt><trkpt lat="45.7374632" lon="9.1689944"><ele>350.0</ele><time>2026-05-01T14:08:05.332Z</time></trkpt><trkpt lat="45.7374758" lon="9.1689055"><ele>350.0</ele><time>2026-05-01T14:08:08.339Z</time></trkpt><trkpt lat="45.7374847" lon="9.1687702"><ele>350.0</ele><time>2026-05-01T14:08:12.34Z</time></trkpt><trkpt lat="45.7374852" lon="9.1686578"><ele>350.0</ele><time>2026-05-01T14:08:15.343Z</time></trkpt><trkpt lat="45.7375053" lon="9.1685438"><ele>350.0</ele><time>2026-05-01T14:08:18.328Z</time></trkpt><trkpt lat="45.73752" lon="9.1684084"><ele>350.0</ele><time>2026-05-01T14:08:21.33Z</time></trkpt></trkseg><trkseg><trkpt lat="45.7373944" lon="9.1661544"><ele>335.0</ele><time>2026-05-01T14:25:17.356Z</time></trkpt><trkpt lat="45.7374551" lon="9.1660445"><ele>335.0</ele><time>2026-05-01T14:25:27.337Z</time></trkpt><trkpt lat="45.7375382" lon="9.1660884"><ele>335.0</ele><time>2026-05-01T14:25:29.333Z</time></trkpt><trkpt lat="45.7376238" lon="9.16615"><ele>335.0</ele><time>2026-05-01T14:25:31.333Z</time></trkpt><trkpt lat="45.7376941" lon="9.1661962"><ele>335.0</ele><time>2026-05-01T14:25:33.339Z</time></trkpt><trkpt lat="45.7377324" lon="9.1661035"><ele>335.0</ele><time>2026-05-01T14:25:37.35Z</time></trkpt><trkpt lat="45.737751" lon="9.1660025"><ele>335.0</ele><time>2026-05-01T14:25:39.34Z</time></trkpt><trkpt lat="45.7376997" lon="9.1658606"><ele>335.0</ele><time>2026-05-01T14:25:42.351Z</time></trkpt><trkpt lat="45.7376446" lon="9.165765"><ele>335.0</ele><time>2026-05-01T14:25:43.34Z</time></trkpt><trkpt lat="45.7375867" lon="9.165698"><ele>335.0</ele><time>2026-05-01T14:25:44.327Z</time></trkpt><trkpt lat="45.7375306" lon="9.1656294"><ele>335.0</ele><time>2026-05-01T14:25:45.33Z</time></trkpt><trkpt lat="45.7374216" lon="9.1655445"><ele>334.6</ele><time>2026-05-01T14:25:47.341Z</time></trkpt><trkpt lat="45.7373556" lon="9.1654991"><ele>334.2</ele><time>2026-05-01T14:25:48.329Z</time></trkpt><trkpt lat="45.7372734" lon="9.1654524"><ele>333.79999999999995</ele><time>2026-05-01T14:25:49.338Z</time></trkpt><trkpt lat="45.7371713" lon="9.1653948"><ele>333.4</ele><time>2026-05-01T14:25:50.339Z</time></trkpt><trkpt lat="45.7370781" lon="9.1653416"><ele>333.0</ele><time>2026-05-01T14:25:51.34Z</time></trkpt><trkpt lat="45.7369954" lon="9.1653212"><ele>333.0</ele><time>2026-05-01T14:25:52.346Z</time></trkpt><trkpt lat="45.7369137" lon="9.1652834"><ele>333.0</ele><time>2026-05-01T14:25:53.338Z</time></trkpt><trkpt lat="45.7368257" lon="9.165238"><ele>333.0</ele><time>2026-05-01T14:25:54.334Z</time></trkpt><trkpt lat="45.7367558" lon="9.16519"><ele>333.0</ele><time>2026-05-01T14:25:55.333Z</time></trkpt><trkpt lat="45.7366874" lon="9.165151"><ele>333.0</ele><time>2026-05-01T14:25:56.343Z</time></trkpt><trkpt lat="45.7366216" lon="9.1651067"><ele>333.0</ele><time>2026-05-01T14:25:57.335Z</time></trkpt><trkpt lat="45.7365756" lon="9.1650201"><ele>332.8333333333333</ele><time>2026-05-01T14:25:58.333Z</time></trkpt><trkpt lat="45.7365269" lon="9.1648985"><ele>332.6666666666667</ele><time>2026-05-01T14:25:59.335Z</time></trkpt><trkpt lat="45.7364921" lon="9.1647822"><ele>332.5</ele><time>2026-05-01T14:26:00.345Z</time></trkpt><trkpt lat="45.736466" lon="9.1646854"><ele>332.33333333333337</ele><time>2026-05-01T14:26:01.341Z</time></trkpt><trkpt lat="45.7364188" lon="9.1645842"><ele>332.1666666666667</ele><time>2026-05-01T14:26:02.33Z</time></trkpt><trkpt lat="45.7363883" lon="9.1644538"><ele>332.0</ele><time>2026-05-01T14:26:03.339Z</time></trkpt><trkpt lat="45.7363547" lon="9.1643448"><ele>331.83333333333337</ele><time>2026-05-01T14:26:04.348Z</time></trkpt><trkpt lat="45.7363101" lon="9.1642365"><ele>331.6666666666667</ele><time>2026-05-01T14:26:05.33Z</time></trkpt><trkpt lat="45.7362629" lon="9.1641373"><ele>331.5</ele><time>2026-05-01T14:26:06.329Z</time></trkpt><trkpt lat="45.7362148" lon="9.1640488"><ele>331.3333333333333</ele><time>2026-05-01T14:26:07.348Z</time></trkpt><trkpt lat="45.7361631" lon="9.1639852"><ele>331.16666666666663</ele><time>2026-05-01T14:26:08.348Z</time></trkpt><trkpt lat="45.7361072" lon="9.1639061"><ele>331.0</ele><time>2026-05-01T14:26:09.327Z</time></trkpt><trkpt lat="45.7360408" lon="9.1637817"><ele>331.0</ele><time>2026-05-01T14:26:11.343Z</time></trkpt><trkpt lat="45.7359708" lon="9.1636696"><ele>331.0</ele><time>2026-05-01T14:26:13.338Z</time></trkpt><trkpt lat="45.7359302" lon="9.1635893"><ele>331.0</ele><time>2026-05-01T14:26:15.342Z</time></trkpt><trkpt lat="45.7359976" lon="9.1635812"><ele>331.0</ele><time>2026-05-01T14:26:19.336Z</time></trkpt><trkpt lat="45.736084" lon="9.1636243"><ele>331.0</ele><time>2026-05-01T14:26:21.336Z</time></trkpt><trkpt lat="45.7362046" lon="9.1636594"><ele>331.0</ele><time>2026-05-01T14:26:23.342Z</time></trkpt><trkpt lat="45.73627" lon="9.1636763"><ele>331.0</ele><time>2026-05-01T14:26:24.33Z</time></trkpt><trkpt lat="45.7363429" lon="9.1636985"><ele>331.0</ele><time>2026-05-01T14:26:25.332Z</time></trkpt><trkpt lat="45.7364207" lon="9.1637229"><ele>331.0</ele><time>2026-05-01T14:26:26.339Z</time></trkpt><trkpt lat="45.7365035" lon="9.1637531"><ele>331.0</ele><time>2026-05-01T14:26:27.327Z</time></trkpt><trkpt lat="45.7365889" lon="9.163781"><ele>331.0</ele><time>2026-05-01T14:26:28.334Z</time></trkpt><trkpt lat="45.7366752" lon="9.1638068"><ele>331.0</ele><time>2026-05-01T14:26:29.35Z</time></trkpt><trkpt lat="45.7367658" lon="9.1638326"><ele>331.0</ele><time>2026-05-01T14:26:30.343Z</time></trkpt><trkpt lat="45.7368582" lon="9.1638566"><ele>331.0</ele><time>2026-05-01T14:26:31.347Z</time></trkpt><trkpt lat="45.7369507" lon="9.1638788"><ele>331.0</ele><time>2026-05-01T14:26:32.339Z</time></trkpt><trkpt lat="45.7370448" lon="9.1639003"><ele>331.0</ele><time>2026-05-01T14:26:33.342Z</time></trkpt><trkpt lat="45.7371423" lon="9.1639109"><ele>332.0</ele><time>2026-05-01T14:26:34.33Z</time></trkpt><trkpt lat="45.7372425" lon="9.1639137"><ele>333.0</ele><time>2026-05-01T14:26:35.337Z</time></trkpt><trkpt lat="45.737344" lon="9.1639082"><ele>334.0</ele><time>2026-05-01T14:26:36.34Z</time></trkpt><trkpt lat="45.7374468" lon="9.1639028"><ele>335.0</ele><time>2026-05-01T14:26:37.334Z</time></trkpt><trkpt lat="45.7375506" lon="9.1638965"><ele>336.0</ele><time>2026-05-01T14:26:38.339Z</time></trkpt><trkpt lat="45.7376637" lon="9.1638926"><ele>335.75</ele><time>2026-05-01T14:26:39.333Z</time></trkpt><trkpt lat="45.7377824" lon="9.1638877"><ele>335.5</ele><time>2026-05-01T14:26:40.35Z</time></trkpt><trkpt lat="45.7379021" lon="9.1638809"><ele>335.25</ele><time>2026-05-01T14:26:41.328Z</time></trkpt><trkpt lat="45.7380205" lon="9.1638748"><ele>335.0</ele><time>2026-05-01T14:26:42.346Z</time></trkpt><trkpt lat="45.7381391" lon="9.1638695"><ele>335.0</ele><time>2026-05-01T14:26:43.343Z</time></trkpt><trkpt lat="45.7382542" lon="9.1638645"><ele>335.0</ele><time>2026-05-01T14:26:44.342Z</time></trkpt><trkpt lat="45.7383668" lon="9.16386"><ele>335.0</ele><time>2026-05-01T14:26:45.34Z</time></trkpt><trkpt lat="45.7384773" lon="9.1638631"><ele>335.0</ele><time>2026-05-01T14:26:46.343Z</time></trkpt><trkpt lat="45.7385864" lon="9.1638773"><ele>335.0</ele><time>2026-05-01T14:26:47.33Z</time></trkpt><trkpt lat="45.7386929" lon="9.1638962"><ele>335.8</ele><time>2026-05-01T14:26:48.345Z</time></trkpt><trkpt lat="45.738792" lon="9.1639172"><ele>336.6</ele><time>2026-05-01T14:26:49.332Z</time></trkpt><trkpt lat="45.7388763" lon="9.163937"><ele>337.4</ele><time>2026-05-01T14:26:50.342Z</time></trkpt><trkpt lat="45.7389424" lon="9.1639325"><ele>338.2</ele><time>2026-05-01T14:26:51.337Z</time></trkpt><trkpt lat="45.7390304" lon="9.1638827"><ele>339.0</ele><time>2026-05-01T14:26:53.344Z</time></trkpt><trkpt lat="45.7391389" lon="9.1638238"><ele>339.0</ele><time>2026-05-01T14:26:55.331Z</time></trkpt><trkpt lat="45.7392658" lon="9.1637968"><ele>339.0</ele><time>2026-05-01T14:26:57.336Z</time></trkpt><trkpt lat="45.7393362" lon="9.1637674"><ele>339.0</ele><time>2026-05-01T14:26:58.329Z</time></trkpt><trkpt lat="45.7394173" lon="9.1637349"><ele>339.0</ele><time>2026-05-01T14:26:59.336Z</time></trkpt><trkpt lat="45.7394786" lon="9.163713"><ele>339.0</ele><time>2026-05-01T14:27:00.333Z</time></trkpt><trkpt lat="45.739544" lon="9.1637016"><ele>339.0</ele><time>2026-05-01T14:27:10.344Z</time></trkpt><trkpt lat="45.7396495" lon="9.1637154"><ele>340.6</ele><time>2026-05-01T14:27:13.346Z</time></trkpt><trkpt lat="45.739771" lon="9.1637101"><ele>342.2</ele><time>2026-05-01T14:27:15.342Z</time></trkpt><trkpt lat="45.7398605" lon="9.1636872"><ele>343.8</ele><time>2026-05-01T14:27:17.343Z</time></trkpt><trkpt lat="45.7399243" lon="9.163637"><ele>345.40000000000003</ele><time>2026-05-01T14:27:19.339Z</time></trkpt><trkpt lat="45.73999" lon="9.1635743"><ele>347.0</ele><time>2026-05-01T14:27:21.339Z</time></trkpt><trkpt lat="45.7400844" lon="9.1634979"><ele>347.0</ele><time>2026-05-01T14:27:23.34Z</time></trkpt><trkpt lat="45.7402161" lon="9.1633902"><ele>347.0</ele><time>2026-05-01T14:27:25.334Z</time></trkpt><trkpt lat="45.7402888" lon="9.1633299"><ele>347.0</ele><time>2026-05-01T14:27:26.334Z</time></trkpt><trkpt lat="45.740399" lon="9.1632631"><ele>347.0</ele><time>2026-05-01T14:27:27.344Z</time></trkpt><trkpt lat="45.7404827" lon="9.1632286"><ele>347.0</ele><time>2026-05-01T14:27:28.341Z</time></trkpt><trkpt lat="45.7405646" lon="9.1632002"><ele>347.20000000000005</ele><time>2026-05-01T14:27:29.331Z</time></trkpt><trkpt lat="45.7406964" lon="9.1631666"><ele>347.4</ele><time>2026-05-01T14:27:30.331Z</time></trkpt><trkpt lat="45.740789" lon="9.1631681"><ele>347.6</ele><time>2026-05-01T14:27:31.332Z</time></trkpt><trkpt lat="45.7408568" lon="9.1632105"><ele>347.79999999999995</ele><time>2026-05-01T14:27:32.332Z</time></trkpt><trkpt lat="45.7409763" lon="9.1633266"><ele>348.0</ele><time>2026-05-01T14:27:34.329Z</time></trkpt><trkpt lat="45.7410749" lon="9.1633442"><ele>348.8333333333333</ele><time>2026-05-01T14:27:45.357Z</time></trkpt><trkpt lat="45.7411546" lon="9.1632995"><ele>349.6666666666667</ele><time>2026-05-01T14:27:48.336Z</time></trkpt><trkpt lat="45.7412678" lon="9.1632814"><ele>350.5</ele><time>2026-05-01T14:27:50.33Z</time></trkpt><trkpt lat="45.7413457" lon="9.163281"><ele>351.33333333333337</ele><time>2026-05-01T14:27:51.339Z</time></trkpt><trkpt lat="45.7414157" lon="9.1632877"><ele>352.1666666666667</ele><time>2026-05-01T14:27:52.339Z</time></trkpt><trkpt lat="45.7414822" lon="9.1632925"><ele>353.0</ele><time>2026-05-01T14:27:53.331Z</time></trkpt><trkpt lat="45.7415529" lon="9.1633"><ele>353.0</ele><time>2026-05-01T14:27:54.348Z</time></trkpt><trkpt lat="45.7416333" lon="9.1632902"><ele>353.0</ele><time>2026-05-01T14:27:55.34Z</time></trkpt><trkpt lat="45.7417171" lon="9.1632761"><ele>353.0</ele><time>2026-05-01T14:27:56.332Z</time></trkpt><trkpt lat="45.7418073" lon="9.1632793"><ele>353.0</ele><time>2026-05-01T14:27:57.334Z</time></trkpt><trkpt lat="45.7418902" lon="9.1632865"><ele>353.0</ele><time>2026-05-01T14:27:58.332Z</time></trkpt><trkpt lat="45.7419619" lon="9.1632931"><ele>353.0</ele><time>2026-05-01T14:27:59.337Z</time></trkpt><trkpt lat="45.7420315" lon="9.1633017"><ele>354.33333333333337</ele><time>2026-05-01T14:28:00.333Z</time></trkpt><trkpt lat="45.742099" lon="9.1633125"><ele>355.6666666666667</ele><time>2026-05-01T14:28:01.35Z</time></trkpt><trkpt lat="45.742174" lon="9.1632939"><ele>357.0</ele><time>2026-05-01T14:28:02.331Z</time></trkpt><trkpt lat="45.7422556" lon="9.1632734"><ele>358.3333333333333</ele><time>2026-05-01T14:28:03.333Z</time></trkpt><trkpt lat="45.7423489" lon="9.1632828"><ele>359.66666666666663</ele><time>2026-05-01T14:28:04.339Z</time></trkpt><trkpt lat="45.742419" lon="9.1632786"><ele>361.0</ele><time>2026-05-01T14:28:05.335Z</time></trkpt><trkpt lat="45.7424842" lon="9.163283"><ele>361.0</ele><time>2026-05-01T14:28:06.334Z</time></trkpt><trkpt lat="45.7425645" lon="9.1632123"><ele>361.0</ele><time>2026-05-01T14:28:08.349Z</time></trkpt><trkpt lat="45.742627" lon="9.1630779"><ele>361.0</ele><time>2026-05-01T14:28:10.335Z</time></trkpt><trkpt lat="45.7426948" lon="9.1629581"><ele>361.0</ele><time>2026-05-01T14:28:12.335Z</time></trkpt><trkpt lat="45.7427649" lon="9.1628072"><ele>361.0</ele><time>2026-05-01T14:28:14.329Z</time></trkpt><trkpt lat="45.7428258" lon="9.1626999"><ele>360.8</ele><time>2026-05-01T14:28:15.336Z</time></trkpt><trkpt lat="45.742942" lon="9.1625573"><ele>360.6</ele><time>2026-05-01T14:28:17.344Z</time></trkpt><trkpt lat="45.7429956" lon="9.1624914"><ele>360.4</ele><time>2026-05-01T14:28:18.333Z</time></trkpt><trkpt lat="45.7430683" lon="9.162401"><ele>360.2</ele><time>2026-05-01T14:28:19.326Z</time></trkpt><trkpt lat="45.7431411" lon="9.1623436"><ele>360.0</ele><time>2026-05-01T14:28:20.329Z</time></trkpt><trkpt lat="45.7431976" lon="9.1622996"><ele>360.0</ele><time>2026-05-01T14:28:21.334Z</time></trkpt><trkpt lat="45.7432999" lon="9.1622447"><ele>360.0</ele><time>2026-05-01T14:28:23.333Z</time></trkpt><trkpt lat="45.7433698" lon="9.162179"><ele>360.0</ele><time>2026-05-01T14:28:24.33Z</time></trkpt><trkpt lat="45.7434523" lon="9.1621397"><ele>360.0</ele><time>2026-05-01T14:28:26.346Z</time></trkpt><trkpt lat="45.7435832" lon="9.1620779"><ele>360.0</ele><time>2026-05-01T14:28:40.339Z</time></trkpt><trkpt lat="45.7436583" lon="9.1620048"><ele>360.6</ele><time>2026-05-01T14:28:43.341Z</time></trkpt><trkpt lat="45.7437591" lon="9.161979"><ele>361.2</ele><time>2026-05-01T14:28:45.341Z</time></trkpt><trkpt lat="45.7438563" lon="9.1618927"><ele>361.79999999999995</ele><time>2026-05-01T14:28:47.346Z</time></trkpt><trkpt lat="45.7439743" lon="9.1618252"><ele>362.4</ele><time>2026-05-01T14:28:49.334Z</time></trkpt><trkpt lat="45.7440361" lon="9.1617945"><ele>363.0</ele><time>2026-05-01T14:28:50.334Z</time></trkpt><trkpt lat="45.7441536" lon="9.1618286"><ele>363.0</ele><time>2026-05-01T14:28:52.343Z</time></trkpt><trkpt lat="45.7442203" lon="9.1618709"><ele>363.0</ele><time>2026-05-01T14:28:53.335Z</time></trkpt><trkpt lat="45.7442844" lon="9.1619056"><ele>363.0</ele><time>2026-05-01T14:28:54.338Z</time></trkpt><trkpt lat="45.7443524" lon="9.1619313"><ele>363.0</ele><time>2026-05-01T14:28:55.341Z</time></trkpt><trkpt lat="45.7444922" lon="9.1620078"><ele>363.0</ele><time>2026-05-01T14:28:57.345Z</time></trkpt><trkpt lat="45.7445443" lon="9.1620658"><ele>363.0</ele><time>2026-05-01T14:28:58.338Z</time></trkpt><trkpt lat="45.7445952" lon="9.1621296"><ele>363.79999999999995</ele><time>2026-05-01T14:28:59.333Z</time></trkpt><trkpt lat="45.7446741" lon="9.1621303"><ele>364.6</ele><time>2026-05-01T14:29:02.342Z</time></trkpt><trkpt lat="45.7447608" lon="9.162045"><ele>365.4</ele><time>2026-05-01T14:29:13.331Z</time></trkpt><trkpt lat="45.7448137" lon="9.1619934"><ele>366.20000000000005</ele><time>2026-05-01T14:29:15.346Z</time></trkpt><trkpt lat="45.7448934" lon="9.1619071"><ele>367.0</ele><time>2026-05-01T14:29:17.338Z</time></trkpt><trkpt lat="45.745007" lon="9.1617862"><ele>367.0</ele><time>2026-05-01T14:29:19.343Z</time></trkpt><trkpt lat="45.7450901" lon="9.161738"><ele>367.0</ele><time>2026-05-01T14:29:20.336Z</time></trkpt><trkpt lat="45.745183" lon="9.1616885"><ele>367.0</ele><time>2026-05-01T14:29:21.34Z</time></trkpt><trkpt lat="45.74528" lon="9.16164"><ele>367.0</ele><time>2026-05-01T14:29:22.354Z</time></trkpt><trkpt lat="45.7453682" lon="9.1615929"><ele>367.0</ele><time>2026-05-01T14:29:23.342Z</time></trkpt><trkpt lat="45.7454523" lon="9.1615522"><ele>366.85714285714283</ele><time>2026-05-01T14:29:24.335Z</time></trkpt><trkpt lat="45.7455285" lon="9.161517"><ele>366.7142857142857</ele><time>2026-05-01T14:29:25.342Z</time></trkpt><trkpt lat="45.7455958" lon="9.1614848"><ele>366.57142857142856</ele><time>2026-05-01T14:29:26.342Z</time></trkpt><trkpt lat="45.7456597" lon="9.1614366"><ele>366.42857142857144</ele><time>2026-05-01T14:29:27.342Z</time></trkpt><trkpt lat="45.7457197" lon="9.1613923"><ele>366.28571428571433</ele><time>2026-05-01T14:29:28.344Z</time></trkpt><trkpt lat="45.745785" lon="9.1613648"><ele>366.14285714285717</ele><time>2026-05-01T14:29:29.341Z</time></trkpt><trkpt lat="45.7458547" lon="9.1613673"><ele>366.0</ele><time>2026-05-01T14:29:30.348Z</time></trkpt><trkpt lat="45.7459269" lon="9.1613772"><ele>366.0</ele><time>2026-05-01T14:29:31.335Z</time></trkpt><trkpt lat="45.7459959" lon="9.1613702"><ele>366.0</ele><time>2026-05-01T14:29:32.328Z</time></trkpt><trkpt lat="45.746095" lon="9.1612997"><ele>366.0</ele><time>2026-05-01T14:29:34.34Z</time></trkpt><trkpt lat="45.7461611" lon="9.1612827"><ele>366.0</ele><time>2026-05-01T14:29:35.33Z</time></trkpt><trkpt lat="45.7462534" lon="9.1612497"><ele>366.0</ele><time>2026-05-01T14:29:37.337Z</time></trkpt><trkpt lat="45.7463317" lon="9.1612351"><ele>366.0</ele><time>2026-05-01T14:29:39.339Z</time></trkpt><trkpt lat="45.7464046" lon="9.1612168"><ele>366.8333333333333</ele><time>2026-05-01T14:29:42.347Z</time></trkpt><trkpt lat="45.7464716" lon="9.1611237"><ele>367.6666666666667</ele><time>2026-05-01T14:29:45.346Z</time></trkpt><trkpt lat="45.7465496" lon="9.1610047"><ele>368.5</ele><time>2026-05-01T14:31:32.341Z</time></trkpt><trkpt lat="45.7465034" lon="9.1610817"><ele>369.33333333333337</ele><time>2026-05-01T14:31:56.338Z</time></trkpt><trkpt lat="45.7464695" lon="9.1612099"><ele>370.1666666666667</ele><time>2026-05-01T14:32:08.331Z</time></trkpt><trkpt lat="45.7464892" lon="9.161298"><ele>371.0</ele><time>2026-05-01T14:32:16.338Z</time></trkpt><trkpt lat="45.7464355" lon="9.1612451"><ele>371.0</ele><time>2026-05-01T14:33:24.335Z</time></trkpt><trkpt lat="45.7463725" lon="9.1612283"><ele>371.0</ele><time>2026-05-01T14:33:30.341Z</time></trkpt><trkpt lat="45.7463558" lon="9.1610493"><ele>371.0</ele><time>2026-05-01T14:35:00.347Z</time></trkpt><trkpt lat="45.7464048" lon="9.1609582"><ele>371.0</ele><time>2026-05-01T14:35:02.338Z</time></trkpt><trkpt lat="45.7464925" lon="9.1609202"><ele>371.0</ele><time>2026-05-01T14:35:04.339Z</time></trkpt><trkpt lat="45.7465765" lon="9.160862"><ele>371.0</ele><time>2026-05-01T14:35:07.335Z</time></trkpt><trkpt lat="45.7466199" lon="9.1607732"><ele>371.0</ele><time>2026-05-01T14:35:09.34Z</time></trkpt><trkpt lat="45.7466874" lon="9.1607011"><ele>371.0</ele><time>2026-05-01T14:35:12.326Z</time></trkpt><trkpt lat="45.7467588" lon="9.1606891"><ele>371.0</ele><time>2026-05-01T14:35:21.343Z</time></trkpt><trkpt lat="45.7468428" lon="9.160616"><ele>371.0</ele><time>2026-05-01T14:35:23.348Z</time></trkpt><trkpt lat="45.7469352" lon="9.1605244"><ele>371.0</ele><time>2026-05-01T14:35:25.338Z</time></trkpt><trkpt lat="45.7469928" lon="9.1604686"><ele>372.4</ele><time>2026-05-01T14:35:26.334Z</time></trkpt><trkpt lat="45.7470463" lon="9.1604144"><ele>373.8</ele><time>2026-05-01T14:35:27.337Z</time></trkpt><trkpt lat="45.7471342" lon="9.1603084"><ele>375.2</ele><time>2026-05-01T14:35:29.337Z</time></trkpt><trkpt lat="45.7472113" lon="9.160201"><ele>376.59999999999997</ele><time>2026-05-01T14:35:31.336Z</time></trkpt><trkpt lat="45.7472784" lon="9.1600969"><ele>378.0</ele><time>2026-05-01T14:35:33.333Z</time></trkpt><trkpt lat="45.7473505" lon="9.1599987"><ele>378.0</ele><time>2026-05-01T14:35:35.331Z</time></trkpt><trkpt lat="45.7474186" lon="9.159895"><ele>378.0</ele><time>2026-05-01T14:35:37.335Z</time></trkpt><trkpt lat="45.747491" lon="9.159774"><ele>378.0</ele><time>2026-05-01T14:35:39.343Z</time></trkpt><trkpt lat="45.7475565" lon="9.1596712"><ele>378.0</ele><time>2026-05-01T14:35:41.34Z</time></trkpt><trkpt lat="45.7476075" lon="9.1595536"><ele>378.0</ele><time>2026-05-01T14:35:43.34Z</time></trkpt><trkpt lat="45.74767" lon="9.1594292"><ele>378.2</ele><time>2026-05-01T14:35:45.338Z</time></trkpt><trkpt lat="45.7477445" lon="9.1593341"><ele>378.4</ele><time>2026-05-01T14:35:47.335Z</time></trkpt><trkpt lat="45.7478012" lon="9.1592482"><ele>378.59999999999997</ele><time>2026-05-01T14:35:49.34Z</time></trkpt><trkpt lat="45.7478769" lon="9.1591273"><ele>378.79999999999995</ele><time>2026-05-01T14:35:51.34Z</time></trkpt><trkpt lat="45.7479569" lon="9.1590456"><ele>379.0</ele><time>2026-05-01T14:35:53.33Z</time></trkpt><trkpt lat="45.7480412" lon="9.158958"><ele>379.0</ele><time>2026-05-01T14:35:55.337Z</time></trkpt><trkpt lat="45.7481234" lon="9.158878"><ele>379.0</ele><time>2026-05-01T14:35:57.342Z</time></trkpt><trkpt lat="45.7481996" lon="9.1587973"><ele>379.0</ele><time>2026-05-01T14:35:59.343Z</time></trkpt><trkpt lat="45.7482798" lon="9.1587083"><ele>379.0</ele><time>2026-05-01T14:36:01.343Z</time></trkpt><trkpt lat="45.7483417" lon="9.1586269"><ele>379.0</ele><time>2026-05-01T14:36:03.33Z</time></trkpt><trkpt lat="45.7483768" lon="9.1585218"><ele>379.0</ele><time>2026-05-01T14:36:05.335Z</time></trkpt><trkpt lat="45.7484088" lon="9.158415"><ele>379.0</ele><time>2026-05-01T14:36:07.343Z</time></trkpt><trkpt lat="45.7484418" lon="9.1583023"><ele>379.0</ele><time>2026-05-01T14:36:09.333Z</time></trkpt><trkpt lat="45.7484835" lon="9.1582086"><ele>379.0</ele><time>2026-05-01T14:36:11.335Z</time></trkpt><trkpt lat="45.7485372" lon="9.1581601"><ele>379.0</ele><time>2026-05-01T14:36:13.336Z</time></trkpt><trkpt lat="45.7486015" lon="9.1582023"><ele>379.0</ele><time>2026-05-01T14:36:16.328Z</time></trkpt><trkpt lat="45.7486489" lon="9.1582917"><ele>378.0</ele><time>2026-05-01T14:36:19.33Z</time></trkpt><trkpt lat="45.7487193" lon="9.1583785"><ele>377.0</ele><time>2026-05-01T14:36:21.351Z</time></trkpt><trkpt lat="45.7488114" lon="9.1584563"><ele>376.0</ele><time>2026-05-01T14:36:23.343Z</time></trkpt><trkpt lat="45.7489176" lon="9.1585104"><ele>375.0</ele><time>2026-05-01T14:36:25.334Z</time></trkpt><trkpt lat="45.7490185" lon="9.1584864"><ele>374.0</ele><time>2026-05-01T14:36:27.339Z</time></trkpt><trkpt lat="45.7491002" lon="9.1584095"><ele>374.0</ele><time>2026-05-01T14:36:29.334Z</time></trkpt><trkpt lat="45.7491852" lon="9.1583339"><ele>374.0</ele><time>2026-05-01T14:36:31.347Z</time></trkpt><trkpt lat="45.7492792" lon="9.1582423"><ele>374.0</ele><time>2026-05-01T14:36:33.354Z</time></trkpt><trkpt lat="45.7493674" lon="9.1581572"><ele>374.0</ele><time>2026-05-01T14:36:35.34Z</time></trkpt><trkpt lat="45.7494502" lon="9.1580764"><ele>374.0</ele><time>2026-05-01T14:36:37.335Z</time></trkpt><trkpt lat="45.7495231" lon="9.1579931"><ele>374.4</ele><time>2026-05-01T14:36:39.343Z</time></trkpt><trkpt lat="45.7496082" lon="9.1579059"><ele>374.79999999999995</ele><time>2026-05-01T14:36:41.336Z</time></trkpt><trkpt lat="45.7496972" lon="9.1578166"><ele>375.20000000000005</ele><time>2026-05-01T14:36:43.341Z</time></trkpt><trkpt lat="45.7497689" lon="9.1577319"><ele>375.6</ele><time>2026-05-01T14:36:45.336Z</time></trkpt><trkpt lat="45.7498207" lon="9.1576145"><ele>376.0</ele><time>2026-05-01T14:36:47.345Z</time></trkpt><trkpt lat="45.7498541" lon="9.1574711"><ele>376.3333333333333</ele><time>2026-05-01T14:36:49.348Z</time></trkpt><trkpt lat="45.7498961" lon="9.1573312"><ele>376.66666666666663</ele><time>2026-05-01T14:36:51.344Z</time></trkpt><trkpt lat="45.7499319" lon="9.1572168"><ele>377.0</ele><time>2026-05-01T14:36:53.34Z</time></trkpt><trkpt lat="45.7499668" lon="9.1571261"><ele>377.3333333333333</ele><time>2026-05-01T14:36:56.34Z</time></trkpt><trkpt lat="45.7500396" lon="9.1570764"><ele>377.6666666666667</ele><time>2026-05-01T14:37:24.333Z</time></trkpt><trkpt lat="45.7500841" lon="9.1570048"><ele>378.0</ele><time>2026-05-01T14:37:26.344Z</time></trkpt><trkpt lat="45.7501145" lon="9.1569248"><ele>378.0</ele><time>2026-05-01T14:37:28.339Z</time></trkpt><trkpt lat="45.7501313" lon="9.1568183"><ele>378.0</ele><time>2026-05-01T14:37:30.342Z</time></trkpt><trkpt lat="45.750124" lon="9.1567142"><ele>378.0</ele><time>2026-05-01T14:37:32.331Z</time></trkpt><trkpt lat="45.7501213" lon="9.1566146"><ele>378.0</ele><time>2026-05-01T14:37:34.341Z</time></trkpt><trkpt lat="45.750122" lon="9.1565179"><ele>378.0</ele><time>2026-05-01T14:37:36.332Z</time></trkpt><trkpt lat="45.7501554" lon="9.1564389"><ele>378.0</ele><time>2026-05-01T14:37:38.338Z</time></trkpt><trkpt lat="45.7502191" lon="9.1563646"><ele>378.0</ele><time>2026-05-01T14:37:41.33Z</time></trkpt><trkpt lat="45.7502411" lon="9.1562697"><ele>377.0</ele><time>2026-05-01T14:37:44.344Z</time></trkpt><trkpt lat="45.7501955" lon="9.1561537"><ele>376.0</ele><time>2026-05-01T14:37:47.344Z</time></trkpt><trkpt lat="45.7501674" lon="9.156069"><ele>375.0</ele><time>2026-05-01T14:37:49.338Z</time></trkpt><trkpt lat="45.7501311" lon="9.1559439"><ele>374.0</ele><time>2026-05-01T14:37:52.333Z</time></trkpt><trkpt lat="45.7501016" lon="9.1558134"><ele>373.0</ele><time>2026-05-01T14:37:55.334Z</time></trkpt><trkpt lat="45.7500721" lon="9.1557305"><ele>372.0</ele><time>2026-05-01T14:37:57.345Z</time></trkpt><trkpt lat="45.7500251" lon="9.155633"><ele>370.5</ele><time>2026-05-01T14:38:00.336Z</time></trkpt><trkpt lat="45.7499636" lon="9.1555856"><ele>369.0</ele><time>2026-05-01T14:38:03.347Z</time></trkpt><trkpt lat="45.7500442" lon="9.1556168"><ele>367.5</ele><time>2026-05-01T14:39:23.332Z</time></trkpt><trkpt lat="45.7501177" lon="9.1556419"><ele>366.0</ele><time>2026-05-01T14:39:25.34Z</time></trkpt><trkpt lat="45.7501267" lon="9.1555368"><ele>364.5</ele><time>2026-05-01T14:39:34.338Z</time></trkpt><trkpt lat="45.7500689" lon="9.1554085"><ele>363.0</ele><time>2026-05-01T14:39:55.359Z</time></trkpt><trkpt lat="45.7501236" lon="9.1553502"><ele>362.99999999999994</ele><time>2026-05-01T14:40:07.343Z</time></trkpt><trkpt lat="45.7501881" lon="9.1552955"><ele>363.0</ele><time>2026-05-01T14:40:13.341Z</time></trkpt><trkpt lat="45.7502613" lon="9.1552706"><ele>363.0</ele><time>2026-05-01T14:40:41.329Z</time></trkpt><trkpt lat="45.7501924" lon="9.1552837"><ele>363.0</ele><time>2026-05-01T14:40:45.337Z</time></trkpt><trkpt lat="45.7502389" lon="9.1552066"><ele>363.0</ele><time>2026-05-01T14:40:49.338Z</time></trkpt><trkpt lat="45.7502637" lon="9.1551138"><ele>362.99999999999994</ele><time>2026-05-01T14:42:47.352Z</time></trkpt><trkpt lat="45.7503261" lon="9.1550833"><ele>363.0</ele><time>2026-05-01T14:42:55.343Z</time></trkpt><trkpt lat="45.7503903" lon="9.1550375"><ele>364.2</ele><time>2026-05-01T14:42:58.346Z</time></trkpt><trkpt lat="45.7504089" lon="9.1551268"><ele>365.4</ele><time>2026-05-01T14:53:05.333Z</time></trkpt><trkpt lat="45.7504659" lon="9.1552396"><ele>366.59999999999997</ele><time>2026-05-01T14:53:08.339Z</time></trkpt><trkpt lat="45.7505477" lon="9.155345"><ele>367.79999999999995</ele><time>2026-05-01T14:53:10.345Z</time></trkpt><trkpt lat="45.7506182" lon="9.1554586"><ele>369.0</ele><time>2026-05-01T14:53:12.351Z</time></trkpt><trkpt lat="45.7506967" lon="9.1555879"><ele>368.79999999999995</ele><time>2026-05-01T14:53:14.331Z</time></trkpt><trkpt lat="45.7507728" lon="9.1557145"><ele>368.59999999999997</ele><time>2026-05-01T14:53:16.349Z</time></trkpt><trkpt lat="45.750839" lon="9.1558307"><ele>368.4</ele><time>2026-05-01T14:53:18.34Z</time></trkpt><trkpt lat="45.7509146" lon="9.1559471"><ele>368.2</ele><time>2026-05-01T14:53:20.337Z</time></trkpt><trkpt lat="45.7509934" lon="9.1560218"><ele>368.0</ele><time>2026-05-01T14:53:22.341Z</time></trkpt><trkpt lat="45.7510711" lon="9.1560547"><ele>368.0</ele><time>2026-05-01T14:53:24.336Z</time></trkpt><trkpt lat="45.7511845" lon="9.1560875"><ele>368.0</ele><time>2026-05-01T14:53:26.338Z</time></trkpt><trkpt lat="45.7512573" lon="9.1561043"><ele>368.0</ele><time>2026-05-01T14:53:27.353Z</time></trkpt><trkpt lat="45.7513246" lon="9.1561128"><ele>368.0</ele><time>2026-05-01T14:53:28.322Z</time></trkpt><trkpt lat="45.7514129" lon="9.1560919"><ele>368.0</ele><time>2026-05-01T14:53:30.343Z</time></trkpt><trkpt lat="45.7514794" lon="9.1560416"><ele>368.0</ele><time>2026-05-01T14:53:32.332Z</time></trkpt><trkpt lat="45.7515519" lon="9.156002"><ele>368.0</ele><time>2026-05-01T14:53:35.34Z</time></trkpt><trkpt lat="45.7517884" lon="9.1559911"><ele>368.0</ele><time>2026-05-01T14:53:46.344Z</time></trkpt><trkpt lat="45.7518646" lon="9.1560192"><ele>368.0</ele><time>2026-05-01T14:53:49.356Z</time></trkpt><trkpt lat="45.7519437" lon="9.1560519"><ele>368.0</ele><time>2026-05-01T14:54:09.341Z</time></trkpt><trkpt lat="45.7519981" lon="9.1561398"><ele>368.1666666666667</ele><time>2026-05-01T14:54:12.337Z</time></trkpt><trkpt lat="45.7520466" lon="9.1562416"><ele>368.33333333333337</ele><time>2026-05-01T14:54:14.344Z</time></trkpt><trkpt lat="45.7521098" lon="9.1562938"><ele>368.5</ele><time>2026-05-01T14:54:16.338Z</time></trkpt><trkpt lat="45.7521753" lon="9.1563046"><ele>368.6666666666667</ele><time>2026-05-01T14:54:19.335Z</time></trkpt><trkpt lat="45.7522372" lon="9.1563551"><ele>368.8333333333333</ele><time>2026-05-01T14:54:21.338Z</time></trkpt><trkpt lat="45.7523293" lon="9.1563947"><ele>369.0</ele><time>2026-05-01T14:54:23.339Z</time></trkpt><trkpt lat="45.7524219" lon="9.1564419"><ele>369.0</ele><time>2026-05-01T14:54:25.367Z</time></trkpt><trkpt lat="45.7525092" lon="9.1564483"><ele>369.0</ele><time>2026-05-01T14:54:27.345Z</time></trkpt><trkpt lat="45.7525767" lon="9.1563771"><ele>369.0</ele><time>2026-05-01T14:54:29.347Z</time></trkpt><trkpt lat="45.7526525" lon="9.1562578"><ele>369.0</ele><time>2026-05-01T14:54:31.341Z</time></trkpt><trkpt lat="45.7527277" lon="9.1561491"><ele>369.0</ele><time>2026-05-01T14:54:33.35Z</time></trkpt><trkpt lat="45.7527786" lon="9.1560939"><ele>370.6</ele><time>2026-05-01T14:54:34.342Z</time></trkpt><trkpt lat="45.7528621" lon="9.155986"><ele>372.2</ele><time>2026-05-01T14:54:36.338Z</time></trkpt><trkpt lat="45.7529349" lon="9.1559052"><ele>373.8</ele><time>2026-05-01T14:54:38.346Z</time></trkpt><trkpt lat="45.7530088" lon="9.1558402"><ele>375.40000000000003</ele><time>2026-05-01T14:54:40.342Z</time></trkpt><trkpt lat="45.7531122" lon="9.1557524"><ele>377.0</ele><time>2026-05-01T14:54:42.336Z</time></trkpt><trkpt lat="45.7531932" lon="9.1557036"><ele>376.20000000000005</ele><time>2026-05-01T14:54:44.338Z</time></trkpt><trkpt lat="45.7532915" lon="9.1556357"><ele>375.4</ele><time>2026-05-01T14:54:46.335Z</time></trkpt><trkpt lat="45.7533502" lon="9.1556029"><ele>374.6</ele><time>2026-05-01T14:54:47.34Z</time></trkpt><trkpt lat="45.7534403" lon="9.1555631"><ele>373.79999999999995</ele><time>2026-05-01T14:54:49.34Z</time></trkpt><trkpt lat="45.7535563" lon="9.155634"><ele>373.0</ele><time>2026-05-01T14:55:03.358Z</time></trkpt><trkpt lat="45.753555" lon="9.1557337"><ele>375.3333333333333</ele><time>2026-05-01T14:55:05.334Z</time></trkpt><trkpt lat="45.7535657" lon="9.1558308"><ele>377.66666666666663</ele><time>2026-05-01T14:55:07.348Z</time></trkpt><trkpt lat="45.7535806" lon="9.1559725"><ele>380.0</ele><time>2026-05-01T14:55:09.34Z</time></trkpt><trkpt lat="45.7535998" lon="9.1560608"><ele>382.3333333333333</ele><time>2026-05-01T14:55:10.342Z</time></trkpt><trkpt lat="45.7536269" lon="9.1562002"><ele>384.6666666666667</ele><time>2026-05-01T14:55:12.348Z</time></trkpt><trkpt lat="45.753648" lon="9.1563183"><ele>387.0</ele><time>2026-05-01T14:55:14.345Z</time></trkpt><trkpt lat="45.7536517" lon="9.1564302"><ele>388.20000000000005</ele><time>2026-05-01T14:55:16.347Z</time></trkpt><trkpt lat="45.7536562" lon="9.1565778"><ele>389.4</ele><time>2026-05-01T14:55:18.356Z</time></trkpt><trkpt lat="45.7536638" lon="9.1567123"><ele>390.6</ele><time>2026-05-01T14:55:20.337Z</time></trkpt><trkpt lat="45.753688" lon="9.1568483"><ele>391.79999999999995</ele><time>2026-05-01T14:55:22.33Z</time></trkpt><trkpt lat="45.7537026" lon="9.1569373"><ele>393.0</ele><time>2026-05-01T14:55:23.335Z</time></trkpt><trkpt lat="45.753718" lon="9.1570958"><ele>393.0</ele><time>2026-05-01T14:55:25.342Z</time></trkpt><trkpt lat="45.7537262" lon="9.1571875"><ele>393.0</ele><time>2026-05-01T14:55:26.34Z</time></trkpt><trkpt lat="45.7537436" lon="9.1573685"><ele>393.0</ele><time>2026-05-01T14:55:28.338Z</time></trkpt><trkpt lat="45.7537531" lon="9.1574749"><ele>393.0</ele><time>2026-05-01T14:55:29.346Z</time></trkpt><trkpt lat="45.7537605" lon="9.1575733"><ele>393.0</ele><time>2026-05-01T14:55:30.337Z</time></trkpt><trkpt lat="45.7537656" lon="9.1576738"><ele>393.0</ele><time>2026-05-01T14:55:31.341Z</time></trkpt><trkpt lat="45.7537824" lon="9.1578366"><ele>392.8333333333333</ele><time>2026-05-01T14:55:33.342Z</time></trkpt><trkpt lat="45.7537821" lon="9.1579747"><ele>392.66666666666663</ele><time>2026-05-01T14:55:35.333Z</time></trkpt><trkpt lat="45.7537785" lon="9.1581052"><ele>392.5</ele><time>2026-05-01T14:55:37.336Z</time></trkpt><trkpt lat="45.7537922" lon="9.1582336"><ele>392.3333333333333</ele><time>2026-05-01T14:55:39.347Z</time></trkpt><trkpt lat="45.7537902" lon="9.1583339"><ele>392.16666666666663</ele><time>2026-05-01T14:55:41.341Z</time></trkpt><trkpt lat="45.7537928" lon="9.1584688"><ele>392.0</ele><time>2026-05-01T14:55:43.35Z</time></trkpt><trkpt lat="45.753798" lon="9.1586566"><ele>391.66666666666663</ele><time>2026-05-01T14:55:45.348Z</time></trkpt><trkpt lat="45.7537904" lon="9.1588067"><ele>391.3333333333333</ele><time>2026-05-01T14:55:47.328Z</time></trkpt><trkpt lat="45.7537885" lon="9.1589308"><ele>391.0</ele><time>2026-05-01T14:55:49.343Z</time></trkpt><trkpt lat="45.7537836" lon="9.1590496"><ele>390.66666666666663</ele><time>2026-05-01T14:55:51.328Z</time></trkpt><trkpt lat="45.7537952" lon="9.1591538"><ele>390.3333333333333</ele><time>2026-05-01T14:55:53.333Z</time></trkpt><trkpt lat="45.753807" lon="9.1592517"><ele>390.0</ele><time>2026-05-01T14:55:55.333Z</time></trkpt><trkpt lat="45.753807" lon="9.1593758"><ele>389.6</ele><time>2026-05-01T14:55:57.324Z</time></trkpt><trkpt lat="45.7537962" lon="9.1595239"><ele>389.2</ele><time>2026-05-01T14:55:59.344Z</time></trkpt><trkpt lat="45.7538057" lon="9.1596892"><ele>388.79999999999995</ele><time>2026-05-01T14:56:01.362Z</time></trkpt><trkpt lat="45.7538244" lon="9.1598014"><ele>388.4</ele><time>2026-05-01T14:56:02.327Z</time></trkpt><trkpt lat="45.753849" lon="9.1599386"><ele>388.0</ele><time>2026-05-01T14:56:03.345Z</time></trkpt><trkpt lat="45.7538593" lon="9.1600293"><ele>388.0</ele><time>2026-05-01T14:56:04.332Z</time></trkpt><trkpt lat="45.7538661" lon="9.160189"><ele>388.0</ele><time>2026-05-01T14:56:06.343Z</time></trkpt><trkpt lat="45.7538769" lon="9.1603082"><ele>388.0</ele><time>2026-05-01T14:56:08.333Z</time></trkpt><trkpt lat="45.7538692" lon="9.1605384"><ele>388.0</ele><time>2026-05-01T14:56:28.349Z</time></trkpt><trkpt lat="45.7538765" lon="9.1606957"><ele>388.5</ele><time>2026-05-01T14:56:30.328Z</time></trkpt><trkpt lat="45.7538828" lon="9.1608694"><ele>389.0</ele><time>2026-05-01T14:56:31.345Z</time></trkpt><trkpt lat="45.7538873" lon="9.161026"><ele>389.5</ele><time>2026-05-01T14:56:32.322Z</time></trkpt><trkpt lat="45.7538883" lon="9.1611911"><ele>390.0</ele><time>2026-05-01T14:56:33.337Z</time></trkpt><trkpt lat="45.7538907" lon="9.1613403"><ele>390.0</ele><time>2026-05-01T14:56:34.346Z</time></trkpt><trkpt lat="45.7538965" lon="9.1614709"><ele>390.0</ele><time>2026-05-01T14:56:35.336Z</time></trkpt><trkpt lat="45.7539094" lon="9.1616394"><ele>390.0</ele><time>2026-05-01T14:56:36.356Z</time></trkpt><trkpt lat="45.7539095" lon="9.1617855"><ele>390.0</ele><time>2026-05-01T14:56:37.338Z</time></trkpt><trkpt lat="45.7539072" lon="9.1619299"><ele>390.0</ele><time>2026-05-01T14:56:38.339Z</time></trkpt><trkpt lat="45.7538956" lon="9.1620694"><ele>389.8</ele><time>2026-05-01T14:56:39.336Z</time></trkpt><trkpt lat="45.7538901" lon="9.1622132"><ele>389.6</ele><time>2026-05-01T14:56:40.322Z</time></trkpt><trkpt lat="45.7538867" lon="9.1623576"><ele>389.4</ele><time>2026-05-01T14:56:41.344Z</time></trkpt><trkpt lat="45.7538853" lon="9.1624895"><ele>389.2</ele><time>2026-05-01T14:56:42.346Z</time></trkpt><trkpt lat="45.7538848" lon="9.1626343"><ele>389.0</ele><time>2026-05-01T14:56:43.339Z</time></trkpt><trkpt lat="45.7538964" lon="9.1627767"><ele>388.6</ele><time>2026-05-01T14:56:44.334Z</time></trkpt><trkpt lat="45.7539017" lon="9.1629061"><ele>388.2</ele><time>2026-05-01T14:56:45.354Z</time></trkpt><trkpt lat="45.7539041" lon="9.163026"><ele>387.8</ele><time>2026-05-01T14:56:46.341Z</time></trkpt><trkpt lat="45.7539099" lon="9.1631804"><ele>387.40000000000003</ele><time>2026-05-01T14:56:47.349Z</time></trkpt><trkpt lat="45.7539119" lon="9.1633295"><ele>387.0</ele><time>2026-05-01T14:56:48.341Z</time></trkpt><trkpt lat="45.7539156" lon="9.163465"><ele>386.6666666666667</ele><time>2026-05-01T14:56:49.343Z</time></trkpt><trkpt lat="45.7539169" lon="9.1635922"><ele>386.33333333333337</ele><time>2026-05-01T14:56:50.331Z</time></trkpt><trkpt lat="45.753909" lon="9.1637127"><ele>386.0</ele><time>2026-05-01T14:56:51.336Z</time></trkpt><trkpt lat="45.7539078" lon="9.1638323"><ele>385.6666666666667</ele><time>2026-05-01T14:56:52.342Z</time></trkpt><trkpt lat="45.7539088" lon="9.1639546"><ele>385.33333333333337</ele><time>2026-05-01T14:56:53.331Z</time></trkpt><trkpt lat="45.7539099" lon="9.1640795"><ele>385.0</ele><time>2026-05-01T14:56:54.328Z</time></trkpt><trkpt lat="45.7539166" lon="9.1642041"><ele>384.33333333333337</ele><time>2026-05-01T14:56:55.333Z</time></trkpt><trkpt lat="45.7539191" lon="9.1643321"><ele>383.6666666666667</ele><time>2026-05-01T14:56:56.336Z</time></trkpt><trkpt lat="45.7539273" lon="9.1644523"><ele>383.0</ele><time>2026-05-01T14:56:57.341Z</time></trkpt><trkpt lat="45.7539302" lon="9.1645441"><ele>382.33333333333337</ele><time>2026-05-01T14:56:58.344Z</time></trkpt><trkpt lat="45.7539297" lon="9.1646471"><ele>381.6666666666667</ele><time>2026-05-01T14:56:59.336Z</time></trkpt><trkpt lat="45.7539181" lon="9.1647418"><ele>381.0</ele><time>2026-05-01T14:57:00.334Z</time></trkpt><trkpt lat="45.7539224" lon="9.1648515"><ele>380.0</ele><time>2026-05-01T14:57:01.331Z</time></trkpt><trkpt lat="45.7539276" lon="9.1649687"><ele>379.0</ele><time>2026-05-01T14:57:02.339Z</time></trkpt><trkpt lat="45.7539418" lon="9.1650959"><ele>378.0</ele><time>2026-05-01T14:57:03.338Z</time></trkpt><trkpt lat="45.7539922" lon="9.1653773"><ele>377.0</ele><time>2026-05-01T14:57:05.361Z</time></trkpt><trkpt lat="45.7539988" lon="9.1655747"><ele>376.0</ele><time>2026-05-01T14:57:06.338Z</time></trkpt><trkpt lat="45.7540005" lon="9.1657509"><ele>375.0</ele><time>2026-05-01T14:57:07.347Z</time></trkpt><trkpt lat="45.7539985" lon="9.1659159"><ele>374.0</ele><time>2026-05-01T14:57:08.337Z</time></trkpt><trkpt lat="45.7539966" lon="9.166049"><ele>373.0</ele><time>2026-05-01T14:57:09.346Z</time></trkpt><trkpt lat="45.754001" lon="9.1661569"><ele>372.0</ele><time>2026-05-01T14:57:10.334Z</time></trkpt><trkpt lat="45.7539847" lon="9.166312"><ele>372.0</ele><time>2026-05-01T14:57:12.333Z</time></trkpt><trkpt lat="45.7539712" lon="9.1664677"><ele>372.0</ele><time>2026-05-01T14:57:14.338Z</time></trkpt><trkpt lat="45.7539703" lon="9.1665984"><ele>372.0</ele><time>2026-05-01T14:57:16.338Z</time></trkpt><trkpt lat="45.7539511" lon="9.1667019"><ele>372.0</ele><time>2026-05-01T14:57:18.372Z</time></trkpt><trkpt lat="45.7539308" lon="9.1668314"><ele>372.0</ele><time>2026-05-01T14:57:20.328Z</time></trkpt><trkpt lat="45.753915" lon="9.1670142"><ele>370.8333333333333</ele><time>2026-05-01T14:57:22.345Z</time></trkpt><trkpt lat="45.7538911" lon="9.1671248"><ele>369.6666666666667</ele><time>2026-05-01T14:57:23.35Z</time></trkpt><trkpt lat="45.7538815" lon="9.16722"><ele>368.5</ele><time>2026-05-01T14:57:24.338Z</time></trkpt><trkpt lat="45.7538814" lon="9.1673255"><ele>367.33333333333337</ele><time>2026-05-01T14:57:25.347Z</time></trkpt><trkpt lat="45.7538783" lon="9.1674868"><ele>366.1666666666667</ele><time>2026-05-01T14:57:27.346Z</time></trkpt><trkpt lat="45.7538774" lon="9.1675958"><ele>365.0</ele><time>2026-05-01T14:57:29.335Z</time></trkpt><trkpt lat="45.7538863" lon="9.1677885"><ele>364.14285714285717</ele><time>2026-05-01T14:58:33.355Z</time></trkpt><trkpt lat="45.7539627" lon="9.1677639"><ele>363.2857142857143</ele><time>2026-05-01T14:58:40.339Z</time></trkpt><trkpt lat="45.754008" lon="9.1676954"><ele>362.42857142857144</ele><time>2026-05-01T14:58:42.343Z</time></trkpt><trkpt lat="45.7540591" lon="9.1676295"><ele>361.57142857142856</ele><time>2026-05-01T14:58:44.325Z</time></trkpt><trkpt lat="45.7541306" lon="9.1675583"><ele>360.7142857142857</ele><time>2026-05-01T14:58:46.325Z</time></trkpt><trkpt lat="45.7542008" lon="9.1674945"><ele>359.8571428571429</ele><time>2026-05-01T14:58:48.328Z</time></trkpt><trkpt lat="45.7542525" lon="9.1674415"><ele>359.0</ele><time>2026-05-01T14:58:50.337Z</time></trkpt><trkpt lat="45.7543325" lon="9.1673915"><ele>359.33333333333337</ele><time>2026-05-01T14:58:53.35Z</time></trkpt><trkpt lat="45.7544019" lon="9.1673553"><ele>359.6666666666667</ele><time>2026-05-01T14:58:55.33Z</time></trkpt><trkpt lat="45.754477" lon="9.1673284"><ele>360.0</ele><time>2026-05-01T14:58:57.356Z</time></trkpt><trkpt lat="45.7545424" lon="9.1672775"><ele>360.3333333333333</ele><time>2026-05-01T14:58:59.342Z</time></trkpt><trkpt lat="45.7546131" lon="9.1672123"><ele>360.66666666666663</ele><time>2026-05-01T14:59:02.335Z</time></trkpt><trkpt lat="45.7546815" lon="9.1671645"><ele>361.0</ele><time>2026-05-01T14:59:05.336Z</time></trkpt><trkpt lat="45.7547458" lon="9.1671217"><ele>361.0</ele><time>2026-05-01T14:59:07.339Z</time></trkpt><trkpt lat="45.7547987" lon="9.1670696"><ele>361.0</ele><time>2026-05-01T14:59:09.343Z</time></trkpt><trkpt lat="45.7548523" lon="9.1670068"><ele>361.0</ele><time>2026-05-01T14:59:11.343Z</time></trkpt><trkpt lat="45.7549353" lon="9.1669024"><ele>361.0</ele><time>2026-05-01T14:59:13.329Z</time></trkpt><trkpt lat="45.7550284" lon="9.1667476"><ele>361.0</ele><time>2026-05-01T14:59:15.334Z</time></trkpt><trkpt lat="45.7550765" lon="9.1666668"><ele>361.0</ele><time>2026-05-01T14:59:16.331Z</time></trkpt><trkpt lat="45.7551749" lon="9.166619"><ele>361.0</ele><time>2026-05-01T14:59:17.339Z</time></trkpt><trkpt lat="45.7552507" lon="9.16656"><ele>361.0</ele><time>2026-05-01T14:59:18.348Z</time></trkpt><trkpt lat="45.7553076" lon="9.1664906"><ele>361.0</ele><time>2026-05-01T14:59:19.338Z</time></trkpt><trkpt lat="45.7553523" lon="9.1664114"><ele>361.0</ele><time>2026-05-01T14:59:20.33Z</time></trkpt><trkpt lat="45.755408" lon="9.1663525"><ele>361.0</ele><time>2026-05-01T14:59:21.347Z</time></trkpt><trkpt lat="45.7554765" lon="9.166302"><ele>361.3333333333333</ele><time>2026-05-01T14:59:22.339Z</time></trkpt><trkpt lat="45.7555301" lon="9.1662427"><ele>361.66666666666663</ele><time>2026-05-01T14:59:23.338Z</time></trkpt><trkpt lat="45.7555867" lon="9.1661662"><ele>362.0</ele><time>2026-05-01T14:59:24.335Z</time></trkpt><trkpt lat="45.7556529" lon="9.1660931"><ele>362.3333333333333</ele><time>2026-05-01T14:59:25.34Z</time></trkpt><trkpt lat="45.7557065" lon="9.1660201"><ele>362.6666666666667</ele><time>2026-05-01T14:59:26.334Z</time></trkpt><trkpt lat="45.7557564" lon="9.1659598"><ele>363.0</ele><time>2026-05-01T14:59:27.34Z</time></trkpt><trkpt lat="45.755879" lon="9.1658283"><ele>363.0</ele><time>2026-05-01T14:59:29.334Z</time></trkpt><trkpt lat="45.7559773" lon="9.1657552"><ele>363.0</ele><time>2026-05-01T14:59:30.332Z</time></trkpt><trkpt lat="45.7560749" lon="9.1657247"><ele>363.0</ele><time>2026-05-01T14:59:31.337Z</time></trkpt><trkpt lat="45.756142" lon="9.1656754"><ele>363.0</ele><time>2026-05-01T14:59:32.331Z</time></trkpt><trkpt lat="45.7562085" lon="9.1656138"><ele>363.0</ele><time>2026-05-01T14:59:33.338Z</time></trkpt><trkpt lat="45.7562704" lon="9.16556"><ele>363.0</ele><time>2026-05-01T14:59:34.339Z</time></trkpt><trkpt lat="45.7563406" lon="9.165508"><ele>363.99999999999994</ele><time>2026-05-01T14:59:35.331Z</time></trkpt><trkpt lat="45.7563985" lon="9.1654543"><ele>365.0</ele><time>2026-05-01T14:59:36.334Z</time></trkpt><trkpt lat="45.7564552" lon="9.1653895"><ele>366.0</ele><time>2026-05-01T14:59:37.331Z</time></trkpt><trkpt lat="45.756511" lon="9.165328"><ele>367.0</ele><time>2026-05-01T14:59:38.328Z</time></trkpt><trkpt lat="45.7565726" lon="9.1652807"><ele>368.0</ele><time>2026-05-01T14:59:39.338Z</time></trkpt><trkpt lat="45.756669" lon="9.1652466"><ele>368.99999999999994</ele><time>2026-05-01T14:59:41.332Z</time></trkpt><trkpt lat="45.7567305" lon="9.1652255"><ele>370.0</ele><time>2026-05-01T14:59:43.338Z</time></trkpt><trkpt lat="45.7566033" lon="9.1652928"><ele>370.0</ele><time>2026-05-01T15:00:26.333Z</time></trkpt><trkpt lat="45.7565275" lon="9.1653746"><ele>370.0</ele><time>2026-05-01T15:00:27.334Z</time></trkpt><trkpt lat="45.7564398" lon="9.1654006"><ele>370.0</ele><time>2026-05-01T15:00:28.342Z</time></trkpt><trkpt lat="45.7563652" lon="9.1653941"><ele>370.0</ele><time>2026-05-01T15:00:29.328Z</time></trkpt><trkpt lat="45.7562405" lon="9.1654134"><ele>370.0</ele><time>2026-05-01T15:00:31.33Z</time></trkpt><trkpt lat="45.7560964" lon="9.1654465"><ele>370.57142857142856</ele><time>2026-05-01T15:00:33.344Z</time></trkpt><trkpt lat="45.7560267" lon="9.1654662"><ele>371.1428571428571</ele><time>2026-05-01T15:00:34.331Z</time></trkpt><trkpt lat="45.7559562" lon="9.1654747"><ele>371.71428571428567</ele><time>2026-05-01T15:00:35.335Z</time></trkpt><trkpt lat="45.7558864" lon="9.1654632"><ele>372.2857142857143</ele><time>2026-05-01T15:00:36.327Z</time></trkpt><trkpt lat="45.7558222" lon="9.1654528"><ele>372.8571428571429</ele><time>2026-05-01T15:00:37.323Z</time></trkpt><trkpt lat="45.7557579" lon="9.1654451"><ele>373.4285714285714</ele><time>2026-05-01T15:00:38.328Z</time></trkpt><trkpt lat="45.7556599" lon="9.1654405"><ele>374.0</ele><time>2026-05-01T15:00:40.344Z</time></trkpt><trkpt lat="45.7555986" lon="9.1654118"><ele>374.0</ele><time>2026-05-01T15:00:51.341Z</time></trkpt><trkpt lat="45.7555319" lon="9.1654092"><ele>374.0</ele><time>2026-05-01T15:00:53.343Z</time></trkpt><trkpt lat="45.7554163" lon="9.1653789"><ele>374.0</ele><time>2026-05-01T15:01:00.335Z</time></trkpt><trkpt lat="45.7554838" lon="9.1653964"><ele>374.0</ele><time>2026-05-01T15:01:09.332Z</time></trkpt><trkpt lat="45.7555627" lon="9.1654006"><ele>374.0</ele><time>2026-05-01T15:01:11.336Z</time></trkpt><trkpt lat="45.7556401" lon="9.1653867"><ele>374.0</ele><time>2026-05-01T15:01:13.331Z</time></trkpt><trkpt lat="45.7557284" lon="9.165377"><ele>374.0</ele><time>2026-05-01T15:01:15.327Z</time></trkpt><trkpt lat="45.755821" lon="9.1653661"><ele>374.0</ele><time>2026-05-01T15:01:17.335Z</time></trkpt><trkpt lat="45.7559136" lon="9.1653482"><ele>374.0</ele><time>2026-05-01T15:01:19.338Z</time></trkpt><trkpt lat="45.7559836" lon="9.1653465"><ele>374.0</ele><time>2026-05-01T15:01:24.326Z</time></trkpt><trkpt lat="45.7560835" lon="9.1653332"><ele>374.0</ele><time>2026-05-01T15:01:27.339Z</time></trkpt><trkpt lat="45.7561576" lon="9.1653238"><ele>374.0</ele><time>2026-05-01T15:01:29.339Z</time></trkpt><trkpt lat="45.7562471" lon="9.1653108"><ele>373.2</ele><time>2026-05-01T15:01:31.339Z</time></trkpt><trkpt lat="45.756354" lon="9.1652983"><ele>372.4</ele><time>2026-05-01T15:01:33.332Z</time></trkpt><trkpt lat="45.7564657" lon="9.1652784"><ele>371.6</ele><time>2026-05-01T15:01:35.347Z</time></trkpt><trkpt lat="45.7565533" lon="9.165284"><ele>370.8</ele><time>2026-05-01T15:01:37.338Z</time></trkpt><trkpt lat="45.756634" lon="9.1652858"><ele>370.0</ele><time>2026-05-01T15:01:39.329Z</time></trkpt><trkpt lat="45.7567101" lon="9.1652678"><ele>370.0</ele><time>2026-05-01T15:01:46.329Z</time></trkpt><trkpt lat="45.7568133" lon="9.165242"><ele>370.0</ele><time>2026-05-01T15:01:54.335Z</time></trkpt><trkpt lat="45.756891" lon="9.1652123"><ele>370.0</ele><time>2026-05-01T15:01:57.339Z</time></trkpt><trkpt lat="45.7569767" lon="9.1652011"><ele>370.0</ele><time>2026-05-01T15:02:07.333Z</time></trkpt><trkpt lat="45.7570647" lon="9.165133"><ele>370.0</ele><time>2026-05-01T15:02:42.348Z</time></trkpt><trkpt lat="45.7570034" lon="9.1651659"><ele>370.0</ele><time>2026-05-01T15:02:47.332Z</time></trkpt><trkpt lat="45.7569323" lon="9.1652048"><ele>369.16666666666663</ele><time>2026-05-01T15:02:52.327Z</time></trkpt><trkpt lat="45.75688" lon="9.1652924"><ele>368.3333333333333</ele><time>2026-05-01T15:03:59.341Z</time></trkpt><trkpt lat="45.7569503" lon="9.165305"><ele>367.5</ele><time>2026-05-01T15:04:05.327Z</time></trkpt><trkpt lat="45.7570429" lon="9.1653452"><ele>366.6666666666667</ele><time>2026-05-01T15:04:07.335Z</time></trkpt><trkpt lat="45.7571133" lon="9.1653832"><ele>365.83333333333337</ele><time>2026-05-01T15:04:08.33Z</time></trkpt><trkpt lat="45.7572283" lon="9.1654122"><ele>365.0</ele><time>2026-05-01T15:04:10.332Z</time></trkpt><trkpt lat="45.7573252" lon="9.1654254"><ele>365.0</ele><time>2026-05-01T15:04:12.334Z</time></trkpt><trkpt lat="45.7574168" lon="9.1653645"><ele>365.0</ele><time>2026-05-01T15:04:14.331Z</time></trkpt><trkpt lat="45.7575332" lon="9.1652783"><ele>365.0</ele><time>2026-05-01T15:04:16.331Z</time></trkpt><trkpt lat="45.7576511" lon="9.1652148"><ele>365.0</ele><time>2026-05-01T15:04:18.324Z</time></trkpt><trkpt lat="45.7577058" lon="9.1651693"><ele>365.0</ele><time>2026-05-01T15:04:19.348Z</time></trkpt><trkpt lat="45.7577702" lon="9.1651258"><ele>364.6</ele><time>2026-05-01T15:04:20.33Z</time></trkpt><trkpt lat="45.757843" lon="9.165096"><ele>364.2</ele><time>2026-05-01T15:04:21.339Z</time></trkpt><trkpt lat="45.7579041" lon="9.1650665"><ele>363.79999999999995</ele><time>2026-05-01T15:04:22.329Z</time></trkpt><trkpt lat="45.7579873" lon="9.1649883"><ele>363.4</ele><time>2026-05-01T15:04:24.327Z</time></trkpt><trkpt lat="45.7580667" lon="9.1648681"><ele>363.0</ele><time>2026-05-01T15:04:26.328Z</time></trkpt><trkpt lat="45.7581316" lon="9.164727"><ele>363.0</ele><time>2026-05-01T15:04:28.334Z</time></trkpt><trkpt lat="45.7581969" lon="9.1646241"><ele>363.0</ele><time>2026-05-01T15:04:30.322Z</time></trkpt><trkpt lat="45.7582701" lon="9.1645019"><ele>363.0</ele><time>2026-05-01T15:04:32.331Z</time></trkpt><trkpt lat="45.7583068" lon="9.1644215"><ele>363.0</ele><time>2026-05-01T15:04:33.334Z</time></trkpt><trkpt lat="45.7583437" lon="9.1643409"><ele>363.0</ele><time>2026-05-01T15:04:34.325Z</time></trkpt><trkpt lat="45.7583814" lon="9.1642621"><ele>363.0</ele><time>2026-05-01T15:04:35.332Z</time></trkpt><trkpt lat="45.7584269" lon="9.1641759"><ele>363.4</ele><time>2026-05-01T15:04:36.33Z</time></trkpt><trkpt lat="45.7585404" lon="9.1640875"><ele>363.79999999999995</ele><time>2026-05-01T15:04:38.337Z</time></trkpt><trkpt lat="45.7585965" lon="9.164019"><ele>364.2</ele><time>2026-05-01T15:04:39.341Z</time></trkpt><trkpt lat="45.7586533" lon="9.1639416"><ele>364.6</ele><time>2026-05-01T15:04:40.334Z</time></trkpt><trkpt lat="45.7587113" lon="9.1638502"><ele>365.0</ele><time>2026-05-01T15:04:41.34Z</time></trkpt><trkpt lat="45.7587739" lon="9.1637564"><ele>365.6</ele><time>2026-05-01T15:04:42.33Z</time></trkpt><trkpt lat="45.7588627" lon="9.1636554"><ele>366.2</ele><time>2026-05-01T15:04:43.34Z</time></trkpt><trkpt lat="45.7589188" lon="9.163579"><ele>366.79999999999995</ele><time>2026-05-01T15:04:44.335Z</time></trkpt><trkpt lat="45.759011" lon="9.1634911"><ele>367.4</ele><time>2026-05-01T15:04:45.334Z</time></trkpt><trkpt lat="45.7590728" lon="9.1634141"><ele>368.0</ele><time>2026-05-01T15:04:46.33Z</time></trkpt><trkpt lat="45.7591519" lon="9.1633289"><ele>368.0</ele><time>2026-05-01T15:04:47.332Z</time></trkpt><trkpt lat="45.7592209" lon="9.1632535"><ele>368.0</ele><time>2026-05-01T15:04:48.333Z</time></trkpt><trkpt lat="45.7592877" lon="9.1631589"><ele>368.0</ele><time>2026-05-01T15:04:49.334Z</time></trkpt><trkpt lat="45.7593598" lon="9.1630541"><ele>368.0</ele><time>2026-05-01T15:04:50.342Z</time></trkpt><trkpt lat="45.759415" lon="9.1629434"><ele>368.0</ele><time>2026-05-01T15:04:51.348Z</time></trkpt><trkpt lat="45.7594693" lon="9.1628307"><ele>367.83333333333337</ele><time>2026-05-01T15:04:52.339Z</time></trkpt><trkpt lat="45.759518" lon="9.1627314"><ele>367.6666666666667</ele><time>2026-05-01T15:04:53.34Z</time></trkpt><trkpt lat="45.7595672" lon="9.1626334"><ele>367.5</ele><time>2026-05-01T15:04:54.327Z</time></trkpt><trkpt lat="45.7596202" lon="9.1625471"><ele>367.3333333333333</ele><time>2026-05-01T15:04:55.33Z</time></trkpt><trkpt lat="45.7596639" lon="9.1624721"><ele>367.16666666666663</ele><time>2026-05-01T15:04:56.333Z</time></trkpt><trkpt lat="45.7597502" lon="9.1623715"><ele>367.0</ele><time>2026-05-01T15:04:58.335Z</time></trkpt><trkpt lat="45.7598048" lon="9.1623112"><ele>367.0</ele><time>2026-05-01T15:04:59.324Z</time></trkpt><trkpt lat="45.7598973" lon="9.1622442"><ele>367.0</ele><time>2026-05-01T15:05:01.325Z</time></trkpt><trkpt lat="45.7599596" lon="9.1622142"><ele>367.0</ele><time>2026-05-01T15:05:02.329Z</time></trkpt><trkpt lat="45.760035" lon="9.1621581"><ele>367.0</ele><time>2026-05-01T15:05:04.341Z</time></trkpt><trkpt lat="45.7601168" lon="9.1620941"><ele>367.0</ele><time>2026-05-01T15:05:07.326Z</time></trkpt><trkpt lat="45.7601952" lon="9.1620684"><ele>367.0</ele><time>2026-05-01T15:05:10.342Z</time></trkpt><trkpt lat="45.7602438" lon="9.1621313"><ele>367.0</ele><time>2026-05-01T15:05:12.343Z</time></trkpt><trkpt lat="45.7602915" lon="9.1622005"><ele>367.0</ele><time>2026-05-01T15:05:16.337Z</time></trkpt><trkpt lat="45.7603033" lon="9.1621118"><ele>367.0</ele><time>2026-05-01T15:05:22.337Z</time></trkpt><trkpt lat="45.7602567" lon="9.1620097"><ele>367.0</ele><time>2026-05-01T15:05:25.337Z</time></trkpt><trkpt lat="45.7602209" lon="9.1619289"><ele>367.0</ele><time>2026-05-01T15:05:27.332Z</time></trkpt><trkpt lat="45.7601468" lon="9.1618492"><ele>367.0</ele><time>2026-05-01T15:05:29.331Z</time></trkpt><trkpt lat="45.7600693" lon="9.1618589"><ele>367.0</ele><time>2026-05-01T15:05:31.336Z</time></trkpt><trkpt lat="45.7599855" lon="9.1619295"><ele>367.0</ele><time>2026-05-01T15:05:33.34Z</time></trkpt><trkpt lat="45.7599217" lon="9.1619363"><ele>367.0</ele><time>2026-05-01T15:05:35.337Z</time></trkpt><trkpt lat="45.7599058" lon="9.1618214"><ele>367.0</ele><time>2026-05-01T15:05:38.339Z</time></trkpt><trkpt lat="45.759943" lon="9.1617174"><ele>367.0</ele><time>2026-05-01T15:05:39.337Z</time></trkpt><trkpt lat="45.7599526" lon="9.161617"><ele>367.0</ele><time>2026-05-01T15:05:40.332Z</time></trkpt><trkpt lat="45.7599288" lon="9.16149"><ele>369.0</ele><time>2026-05-01T15:05:42.341Z</time></trkpt><trkpt lat="45.7598811" lon="9.1613423"><ele>371.0</ele><time>2026-05-01T15:05:55.341Z</time></trkpt><trkpt lat="45.7598412" lon="9.1612224"><ele>373.0</ele><time>2026-05-01T15:05:58.328Z</time></trkpt><trkpt lat="45.7597382" lon="9.1611165"><ele>375.0</ele><time>2026-05-01T15:06:00.336Z</time></trkpt><trkpt lat="45.7596848" lon="9.1610685"><ele>377.0</ele><time>2026-05-01T15:06:01.334Z</time></trkpt><trkpt lat="45.7596312" lon="9.1610172"><ele>377.0</ele><time>2026-05-01T15:06:02.343Z</time></trkpt><trkpt lat="45.7595316" lon="9.1609275"><ele>377.0</ele><time>2026-05-01T15:06:04.328Z</time></trkpt><trkpt lat="45.7594861" lon="9.160832"><ele>377.0</ele><time>2026-05-01T15:06:07.342Z</time></trkpt><trkpt lat="45.7594143" lon="9.160789"><ele>377.0</ele><time>2026-05-01T15:06:42.335Z</time></trkpt><trkpt lat="45.7593527" lon="9.1607261"><ele>377.0</ele><time>2026-05-01T15:06:44.332Z</time></trkpt><trkpt lat="45.7592615" lon="9.1606501"><ele>379.40000000000003</ele><time>2026-05-01T15:06:46.329Z</time></trkpt><trkpt lat="45.7591599" lon="9.160568"><ele>381.8</ele><time>2026-05-01T15:06:48.331Z</time></trkpt><trkpt lat="45.7590637" lon="9.1604875"><ele>384.2</ele><time>2026-05-01T15:06:50.329Z</time></trkpt><trkpt lat="45.7589589" lon="9.1603831"><ele>386.6</ele><time>2026-05-01T15:06:52.331Z</time></trkpt><trkpt lat="45.7589021" lon="9.1603202"><ele>389.0</ele><time>2026-05-01T15:06:53.331Z</time></trkpt><trkpt lat="45.7588458" lon="9.1602527"><ele>388.99999999999994</ele><time>2026-05-01T15:06:54.325Z</time></trkpt><trkpt lat="45.7587974" lon="9.1601857"><ele>389.0</ele><time>2026-05-01T15:06:55.329Z</time></trkpt><trkpt lat="45.7587488" lon="9.1601003"><ele>389.0</ele><time>2026-05-01T15:06:56.327Z</time></trkpt><trkpt lat="45.7586997" lon="9.1599984"><ele>389.0</ele><time>2026-05-01T15:06:57.335Z</time></trkpt><trkpt lat="45.7586574" lon="9.1599037"><ele>388.99999999999994</ele><time>2026-05-01T15:06:58.331Z</time></trkpt><trkpt lat="45.7586161" lon="9.159821"><ele>389.0</ele><time>2026-05-01T15:06:59.34Z</time></trkpt><trkpt lat="45.7585731" lon="9.1597309"><ele>390.3333333333333</ele><time>2026-05-01T15:07:00.338Z</time></trkpt><trkpt lat="45.7585317" lon="9.1596401"><ele>391.66666666666663</ele><time>2026-05-01T15:07:01.334Z</time></trkpt><trkpt lat="45.7584967" lon="9.1595505"><ele>393.0</ele><time>2026-05-01T15:07:02.335Z</time></trkpt><trkpt lat="45.7584497" lon="9.1594596"><ele>394.33333333333337</ele><time>2026-05-01T15:07:03.331Z</time></trkpt><trkpt lat="45.758415" lon="9.1593738"><ele>395.6666666666667</ele><time>2026-05-01T15:07:04.335Z</time></trkpt><trkpt lat="45.7583522" lon="9.1592404"><ele>397.0</ele><time>2026-05-01T15:07:06.322Z</time></trkpt><trkpt lat="45.7582886" lon="9.1591084"><ele>397.0</ele><time>2026-05-01T15:07:08.344Z</time></trkpt><trkpt lat="45.7582323" lon="9.1589826"><ele>397.0</ele><time>2026-05-01T15:07:10.331Z</time></trkpt><trkpt lat="45.7581485" lon="9.1588169"><ele>397.0</ele><time>2026-05-01T15:07:12.336Z</time></trkpt><trkpt lat="45.7581037" lon="9.1587303"><ele>397.0</ele><time>2026-05-01T15:07:13.335Z</time></trkpt><trkpt lat="45.7580628" lon="9.1586548"><ele>397.0</ele><time>2026-05-01T15:07:14.337Z</time></trkpt><trkpt lat="45.757987" lon="9.1585122"><ele>397.00000000000006</ele><time>2026-05-01T15:07:16.322Z</time></trkpt><trkpt lat="45.7579155" lon="9.1583861"><ele>397.0</ele><time>2026-05-01T15:07:18.332Z</time></trkpt><trkpt lat="45.7578541" lon="9.1582921"><ele>397.0</ele><time>2026-05-01T15:07:20.332Z</time></trkpt><trkpt lat="45.757792" lon="9.1582768"><ele>397.0</ele><time>2026-05-01T15:07:22.343Z</time></trkpt><trkpt lat="45.7578597" lon="9.1583318"><ele>397.00000000000006</ele><time>2026-05-01T15:07:34.336Z</time></trkpt><trkpt lat="45.7579395" lon="9.158424"><ele>397.0</ele><time>2026-05-01T15:07:37.332Z</time></trkpt><trkpt lat="45.7579729" lon="9.1585098"><ele>397.00000000000006</ele><time>2026-05-01T15:07:38.339Z</time></trkpt><trkpt lat="45.7580095" lon="9.1585954"><ele>397.0</ele><time>2026-05-01T15:07:39.336Z</time></trkpt><trkpt lat="45.758052" lon="9.1586914"><ele>397.0</ele><time>2026-05-01T15:07:40.337Z</time></trkpt><trkpt lat="45.7580957" lon="9.1587899"><ele>397.0</ele><time>2026-05-01T15:07:41.335Z</time></trkpt><trkpt lat="45.75815" lon="9.1589107"><ele>397.00000000000006</ele><time>2026-05-01T15:07:42.322Z</time></trkpt><trkpt lat="45.7582104" lon="9.1590368"><ele>397.0</ele><time>2026-05-01T15:07:43.333Z</time></trkpt><trkpt lat="45.758273" lon="9.1591667"><ele>397.0</ele><time>2026-05-01T15:07:44.323Z</time></trkpt><trkpt lat="45.7583339" lon="9.1592978"><ele>397.0</ele><time>2026-05-01T15:07:45.333Z</time></trkpt><trkpt lat="45.7583965" lon="9.1594304"><ele>397.0</ele><time>2026-05-01T15:07:46.33Z</time></trkpt><trkpt lat="45.7584537" lon="9.1595547"><ele>397.0</ele><time>2026-05-01T15:07:47.34Z</time></trkpt><trkpt lat="45.7585093" lon="9.1596795"><ele>397.0</ele><time>2026-05-01T15:07:48.332Z</time></trkpt><trkpt lat="45.758569" lon="9.1597992"><ele>395.40000000000003</ele><time>2026-05-01T15:07:49.34Z</time></trkpt><trkpt lat="45.7586262" lon="9.159925"><ele>393.8</ele><time>2026-05-01T15:07:50.339Z</time></trkpt><trkpt lat="45.7586868" lon="9.1600518"><ele>392.2</ele><time>2026-05-01T15:07:51.343Z</time></trkpt><trkpt lat="45.7587616" lon="9.1601837"><ele>390.6</ele><time>2026-05-01T15:07:52.334Z</time></trkpt><trkpt lat="45.7588507" lon="9.1602946"><ele>389.0</ele><time>2026-05-01T15:07:53.341Z</time></trkpt><trkpt lat="45.7589491" lon="9.1604022"><ele>389.0</ele><time>2026-05-01T15:07:54.333Z</time></trkpt><trkpt lat="45.7590447" lon="9.1605065"><ele>389.0</ele><time>2026-05-01T15:07:55.336Z</time></trkpt><trkpt lat="45.7591444" lon="9.1606074"><ele>389.0</ele><time>2026-05-01T15:07:56.333Z</time></trkpt><trkpt lat="45.7592457" lon="9.160709"><ele>389.0</ele><time>2026-05-01T15:07:57.336Z</time></trkpt><trkpt lat="45.759344" lon="9.1608108"><ele>386.0</ele><time>2026-05-01T15:07:58.33Z</time></trkpt><trkpt lat="45.759448" lon="9.1609229"><ele>383.0</ele><time>2026-05-01T15:07:59.336Z</time></trkpt><trkpt lat="45.7595508" lon="9.1610324"><ele>380.0</ele><time>2026-05-01T15:08:00.338Z</time></trkpt><trkpt lat="45.7596713" lon="9.1611373"><ele>377.0</ele><time>2026-05-01T15:08:01.339Z</time></trkpt><trkpt lat="45.7597906" lon="9.1612469"><ele>377.0</ele><time>2026-05-01T15:08:02.331Z</time></trkpt><trkpt lat="45.7599053" lon="9.1613513"><ele>377.0</ele><time>2026-05-01T15:08:03.337Z</time></trkpt><trkpt lat="45.7600214" lon="9.1614644"><ele>377.0</ele><time>2026-05-01T15:08:04.338Z</time></trkpt><trkpt lat="45.760127" lon="9.1615751"><ele>377.0</ele><time>2026-05-01T15:08:05.333Z</time></trkpt><trkpt lat="45.7602324" lon="9.1616831"><ele>374.75</ele><time>2026-05-01T15:08:06.335Z</time></trkpt><trkpt lat="45.7603378" lon="9.1617899"><ele>372.5</ele><time>2026-05-01T15:08:07.339Z</time></trkpt><trkpt lat="45.7604349" lon="9.1619032"><ele>370.25</ele><time>2026-05-01T15:08:08.336Z</time></trkpt><trkpt lat="45.7605216" lon="9.1620248"><ele>368.0</ele><time>2026-05-01T15:08:09.335Z</time></trkpt><trkpt lat="45.7605956" lon="9.1621567"><ele>368.0</ele><time>2026-05-01T15:08:10.341Z</time></trkpt><trkpt lat="45.760644" lon="9.1622842"><ele>368.0</ele><time>2026-05-01T15:08:11.333Z</time></trkpt><trkpt lat="45.7606886" lon="9.1624066"><ele>368.0</ele><time>2026-05-01T15:08:12.331Z</time></trkpt><trkpt lat="45.7606798" lon="9.1625123"><ele>368.0</ele><time>2026-05-01T15:08:13.328Z</time></trkpt><trkpt lat="45.7606678" lon="9.1626048"><ele>368.0</ele><time>2026-05-01T15:08:14.338Z</time></trkpt><trkpt lat="45.7606335" lon="9.1627469"><ele>368.0</ele><time>2026-05-01T15:08:16.335Z</time></trkpt><trkpt lat="45.7605917" lon="9.1628384"><ele>368.33333333333337</ele><time>2026-05-01T15:08:19.338Z</time></trkpt><trkpt lat="45.7606556" lon="9.1627683"><ele>368.6666666666667</ele><time>2026-05-01T15:08:58.345Z</time></trkpt><trkpt lat="45.7607369" lon="9.1627584"><ele>369.0</ele><time>2026-05-01T15:09:01.337Z</time></trkpt><trkpt lat="45.7608252" lon="9.1627384"><ele>369.3333333333333</ele><time>2026-05-01T15:09:04.332Z</time></trkpt><trkpt lat="45.7608811" lon="9.1626958"><ele>369.66666666666663</ele><time>2026-05-01T15:09:06.343Z</time></trkpt><trkpt lat="45.760947" lon="9.1626521"><ele>370.0</ele><time>2026-05-01T15:09:08.348Z</time></trkpt><trkpt lat="45.7610236" lon="9.1626339"><ele>372.5</ele><time>2026-05-01T15:09:11.34Z</time></trkpt><trkpt lat="45.7611167" lon="9.1626759"><ele>375.0</ele><time>2026-05-01T15:09:15.336Z</time></trkpt><trkpt lat="45.7611843" lon="9.1627144"><ele>377.5</ele><time>2026-05-01T15:09:17.343Z</time></trkpt><trkpt lat="45.7612421" lon="9.1627844"><ele>380.0</ele><time>2026-05-01T15:09:19.327Z</time></trkpt><trkpt lat="45.7612988" lon="9.1628481"><ele>382.50000000000006</ele><time>2026-05-01T15:09:21.33Z</time></trkpt><trkpt lat="45.7613728" lon="9.1629597"><ele>385.0</ele><time>2026-05-01T15:09:29.34Z</time></trkpt><trkpt lat="45.7614012" lon="9.1630497"><ele>385.00000000000006</ele><time>2026-05-01T15:09:31.342Z</time></trkpt><trkpt lat="45.7614569" lon="9.1631412"><ele>385.0</ele><time>2026-05-01T15:09:34.335Z</time></trkpt><trkpt lat="45.7615087" lon="9.163194"><ele>385.0</ele><time>2026-05-01T15:09:36.34Z</time></trkpt><trkpt lat="45.7615449" lon="9.1632741"><ele>385.0</ele><time>2026-05-01T15:09:38.337Z</time></trkpt><trkpt lat="45.7615805" lon="9.1633581"><ele>385.00000000000006</ele><time>2026-05-01T15:09:41.338Z</time></trkpt><trkpt lat="45.7616353" lon="9.1634476"><ele>385.0</ele><time>2026-05-01T15:09:46.342Z</time></trkpt><trkpt lat="45.7617357" lon="9.1634825"><ele>385.83333333333337</ele><time>2026-05-01T15:09:51.338Z</time></trkpt><trkpt lat="45.7618006" lon="9.1634757"><ele>386.6666666666667</ele><time>2026-05-01T15:09:53.325Z</time></trkpt><trkpt lat="45.7618625" lon="9.1634186"><ele>387.5</ele><time>2026-05-01T15:09:55.342Z</time></trkpt><trkpt lat="45.7619332" lon="9.1633547"><ele>388.33333333333337</ele><time>2026-05-01T15:09:57.342Z</time></trkpt><trkpt lat="45.7620197" lon="9.1632441"><ele>389.1666666666667</ele><time>2026-05-01T15:09:59.321Z</time></trkpt><trkpt lat="45.7620786" lon="9.1631815"><ele>390.0</ele><time>2026-05-01T15:10:01.336Z</time></trkpt><trkpt lat="45.7621652" lon="9.1631056"><ele>390.6666666666667</ele><time>2026-05-01T15:10:04.341Z</time></trkpt><trkpt lat="45.7622256" lon="9.1630659"><ele>391.33333333333337</ele><time>2026-05-01T15:10:06.337Z</time></trkpt><trkpt lat="45.7622533" lon="9.1629838"><ele>392.0</ele><time>2026-05-01T15:10:11.34Z</time></trkpt><trkpt lat="45.7622342" lon="9.1628726"><ele>392.6666666666667</ele><time>2026-05-01T15:10:13.324Z</time></trkpt><trkpt lat="45.7621943" lon="9.1627129"><ele>393.33333333333337</ele><time>2026-05-01T15:10:15.324Z</time></trkpt><trkpt lat="45.7621591" lon="9.1625934"><ele>394.0</ele><time>2026-05-01T15:10:16.328Z</time></trkpt><trkpt lat="45.7621348" lon="9.1624729"><ele>394.00000000000006</ele><time>2026-05-01T15:10:17.332Z</time></trkpt><trkpt lat="45.7621154" lon="9.1623757"><ele>394.0</ele><time>2026-05-01T15:10:18.327Z</time></trkpt><trkpt lat="45.7620956" lon="9.1622354"><ele>394.0</ele><time>2026-05-01T15:10:20.329Z</time></trkpt><trkpt lat="45.7620938" lon="9.1621018"><ele>394.0</ele><time>2026-05-01T15:10:22.328Z</time></trkpt><trkpt lat="45.7620977" lon="9.162007"><ele>394.00000000000006</ele><time>2026-05-01T15:10:23.337Z</time></trkpt><trkpt lat="45.7621157" lon="9.1618584"><ele>394.0</ele><time>2026-05-01T15:10:25.332Z</time></trkpt><trkpt lat="45.7621531" lon="9.1617065"><ele>393.1666666666667</ele><time>2026-05-01T15:10:27.328Z</time></trkpt><trkpt lat="45.7621915" lon="9.1615756"><ele>392.33333333333337</ele><time>2026-05-01T15:10:28.347Z</time></trkpt><trkpt lat="45.7622227" lon="9.1614913"><ele>391.5</ele><time>2026-05-01T15:10:29.341Z</time></trkpt><trkpt lat="45.7622834" lon="9.1614057"><ele>390.66666666666663</ele><time>2026-05-01T15:10:31.356Z</time></trkpt><trkpt lat="45.7623383" lon="9.1613083"><ele>389.8333333333333</ele><time>2026-05-01T15:10:33.34Z</time></trkpt><trkpt lat="45.7623915" lon="9.1612508"><ele>389.0</ele><time>2026-05-01T15:10:35.341Z</time></trkpt><trkpt lat="45.7624494" lon="9.1612028"><ele>387.79999999999995</ele><time>2026-05-01T15:10:37.335Z</time></trkpt><trkpt lat="45.7625199" lon="9.1611459"><ele>386.59999999999997</ele><time>2026-05-01T15:10:39.337Z</time></trkpt><trkpt lat="45.7626009" lon="9.1610901"><ele>385.4</ele><time>2026-05-01T15:10:41.327Z</time></trkpt><trkpt lat="45.7626787" lon="9.1610358"><ele>384.2</ele><time>2026-05-01T15:10:43.347Z</time></trkpt><trkpt lat="45.7627678" lon="9.1609821"><ele>383.0</ele><time>2026-05-01T15:10:45.326Z</time></trkpt><trkpt lat="45.7628659" lon="9.1609218"><ele>383.0</ele><time>2026-05-01T15:10:47.341Z</time></trkpt><trkpt lat="45.76296" lon="9.1608812"><ele>383.0</ele><time>2026-05-01T15:10:49.326Z</time></trkpt><trkpt lat="45.7630569" lon="9.1608141"><ele>383.0</ele><time>2026-05-01T15:10:51.335Z</time></trkpt><trkpt lat="45.7631149" lon="9.1607712"><ele>383.0</ele><time>2026-05-01T15:10:52.334Z</time></trkpt><trkpt lat="45.7632052" lon="9.160685"><ele>383.0</ele><time>2026-05-01T15:10:54.337Z</time></trkpt><trkpt lat="45.7632631" lon="9.1606157"><ele>381.1666666666667</ele><time>2026-05-01T15:10:55.328Z</time></trkpt><trkpt lat="45.7633419" lon="9.1605137"><ele>379.33333333333337</ele><time>2026-05-01T15:10:57.325Z</time></trkpt><trkpt lat="45.7634174" lon="9.1604424"><ele>377.5</ele><time>2026-05-01T15:10:58.329Z</time></trkpt><trkpt lat="45.7634966" lon="9.1603925"><ele>375.6666666666667</ele><time>2026-05-01T15:10:59.336Z</time></trkpt><trkpt lat="45.7635667" lon="9.1603684"><ele>373.8333333333333</ele><time>2026-05-01T15:11:00.336Z</time></trkpt><trkpt lat="45.7636452" lon="9.1603174"><ele>372.0</ele><time>2026-05-01T15:11:01.336Z</time></trkpt><trkpt lat="45.7637504" lon="9.160279"><ele>371.8</ele><time>2026-05-01T15:11:03.342Z</time></trkpt><trkpt lat="45.7638598" lon="9.1602389"><ele>371.6</ele><time>2026-05-01T15:11:05.337Z</time></trkpt><trkpt lat="45.7639717" lon="9.1601901"><ele>371.40000000000003</ele><time>2026-05-01T15:11:07.343Z</time></trkpt><trkpt lat="45.7640508" lon="9.1601545"><ele>371.20000000000005</ele><time>2026-05-01T15:11:09.346Z</time></trkpt><trkpt lat="45.7641395" lon="9.1601533"><ele>371.0</ele><time>2026-05-01T15:11:13.345Z</time></trkpt><trkpt lat="45.764209" lon="9.1601096"><ele>371.0</ele><time>2026-05-01T15:11:16.338Z</time></trkpt><trkpt lat="45.7642846" lon="9.1600493"><ele>371.0</ele><time>2026-05-01T15:11:19.341Z</time></trkpt><trkpt lat="45.7643466" lon="9.160031"><ele>371.0</ele><time>2026-05-01T15:11:21.349Z</time></trkpt><trkpt lat="45.7644108" lon="9.1600155"><ele>371.0</ele><time>2026-05-01T15:11:22.33Z</time></trkpt><trkpt lat="45.764532" lon="9.1599862"><ele>371.0</ele><time>2026-05-01T15:11:24.332Z</time></trkpt><trkpt lat="45.7646025" lon="9.1599746"><ele>371.0</ele><time>2026-05-01T15:11:25.34Z</time></trkpt><trkpt lat="45.7646943" lon="9.1599608"><ele>371.5</ele><time>2026-05-01T15:11:26.353Z</time></trkpt><trkpt lat="45.7647752" lon="9.159953"><ele>372.0</ele><time>2026-05-01T15:11:27.336Z</time></trkpt><trkpt lat="45.7648455" lon="9.1599463"><ele>372.5</ele><time>2026-05-01T15:11:28.335Z</time></trkpt><trkpt lat="45.7649166" lon="9.1599415"><ele>373.0</ele><time>2026-05-01T15:11:29.331Z</time></trkpt><trkpt lat="45.7650008" lon="9.1599222"><ele>373.5</ele><time>2026-05-01T15:11:30.334Z</time></trkpt><trkpt lat="45.7650764" lon="9.1599022"><ele>374.0</ele><time>2026-05-01T15:11:31.337Z</time></trkpt><trkpt lat="45.7651823" lon="9.1598719"><ele>373.79999999999995</ele><time>2026-05-01T15:11:32.341Z</time></trkpt><trkpt lat="45.7652773" lon="9.1598488"><ele>373.59999999999997</ele><time>2026-05-01T15:11:33.341Z</time></trkpt><trkpt lat="45.7653655" lon="9.159843"><ele>373.4</ele><time>2026-05-01T15:11:34.336Z</time></trkpt><trkpt lat="45.7654703" lon="9.1598548"><ele>373.2</ele><time>2026-05-01T15:11:35.333Z</time></trkpt><trkpt lat="45.7655392" lon="9.1598706"><ele>373.0</ele><time>2026-05-01T15:11:36.323Z</time></trkpt><trkpt lat="45.7656479" lon="9.1599293"><ele>373.0</ele><time>2026-05-01T15:11:38.323Z</time></trkpt><trkpt lat="45.7657339" lon="9.1600395"><ele>373.0</ele><time>2026-05-01T15:12:35.338Z</time></trkpt><trkpt lat="45.7658112" lon="9.1600941"><ele>373.0</ele><time>2026-05-01T15:12:50.34Z</time></trkpt><trkpt lat="45.7659059" lon="9.1601744"><ele>373.0</ele><time>2026-05-01T15:12:52.336Z</time></trkpt><trkpt lat="45.7659897" lon="9.1602302"><ele>373.0</ele><time>2026-05-01T15:12:54.336Z</time></trkpt><trkpt lat="45.7660502" lon="9.1601443"><ele>372.8333333333333</ele><time>2026-05-01T15:12:57.33Z</time></trkpt><trkpt lat="45.766127" lon="9.1600818"><ele>372.66666666666663</ele><time>2026-05-01T15:13:00.347Z</time></trkpt><trkpt lat="45.766177" lon="9.160025"><ele>372.5</ele><time>2026-05-01T15:13:02.343Z</time></trkpt><trkpt lat="45.7662259" lon="9.1599553"><ele>372.3333333333333</ele><time>2026-05-01T15:13:04.328Z</time></trkpt><trkpt lat="45.7662772" lon="9.1599021"><ele>372.1666666666667</ele><time>2026-05-01T15:13:07.336Z</time></trkpt><trkpt lat="45.7663725" lon="9.1599026"><ele>372.0</ele><time>2026-05-01T15:13:09.327Z</time></trkpt><trkpt lat="45.7664758" lon="9.1598886"><ele>373.3333333333333</ele><time>2026-05-01T15:13:11.328Z</time></trkpt><trkpt lat="45.7665382" lon="9.1598386"><ele>374.6666666666667</ele><time>2026-05-01T15:13:13.329Z</time></trkpt><trkpt lat="45.7666071" lon="9.1598197"><ele>376.0</ele><time>2026-05-01T15:13:15.34Z</time></trkpt><trkpt lat="45.7666853" lon="9.1598025"><ele>377.33333333333337</ele><time>2026-05-01T15:13:17.342Z</time></trkpt><trkpt lat="45.7667642" lon="9.159826"><ele>378.6666666666667</ele><time>2026-05-01T15:13:19.343Z</time></trkpt><trkpt lat="45.7668409" lon="9.1597957"><ele>380.0</ele><time>2026-05-01T15:13:21.329Z</time></trkpt><trkpt lat="45.7669541" lon="9.1597473"><ele>380.0</ele><time>2026-05-01T15:13:23.327Z</time></trkpt><trkpt lat="45.7670318" lon="9.159764"><ele>380.0</ele><time>2026-05-01T15:13:24.348Z</time></trkpt><trkpt lat="45.7671513" lon="9.1597532"><ele>380.0</ele><time>2026-05-01T15:13:26.336Z</time></trkpt><trkpt lat="45.76722" lon="9.1597369"><ele>380.0</ele><time>2026-05-01T15:13:27.332Z</time></trkpt><trkpt lat="45.7672827" lon="9.1597019"><ele>380.0</ele><time>2026-05-01T15:13:28.338Z</time></trkpt><trkpt lat="45.7674034" lon="9.1596689"><ele>380.0</ele><time>2026-05-01T15:13:30.33Z</time></trkpt><trkpt lat="45.7674817" lon="9.1596043"><ele>380.0</ele><time>2026-05-01T15:13:32.331Z</time></trkpt><trkpt lat="45.7676483" lon="9.1595539"><ele>380.0</ele><time>2026-05-01T15:13:43.325Z</time></trkpt><trkpt lat="45.7676679" lon="9.1594172"><ele>380.0</ele><time>2026-05-01T15:13:49.326Z</time></trkpt><trkpt lat="45.7676803" lon="9.1592958"><ele>380.0</ele><time>2026-05-01T15:13:51.334Z</time></trkpt><trkpt lat="45.7676211" lon="9.1591775"><ele>380.0</ele><time>2026-05-01T15:13:54.327Z</time></trkpt><trkpt lat="45.7675739" lon="9.1590195"><ele>380.0</ele><time>2026-05-01T15:13:56.336Z</time></trkpt><trkpt lat="45.7675467" lon="9.1588586"><ele>380.0</ele><time>2026-05-01T15:13:58.346Z</time></trkpt><trkpt lat="45.7675735" lon="9.1586975"><ele>380.0</ele><time>2026-05-01T15:14:00.326Z</time></trkpt><trkpt lat="45.7676041" lon="9.1585992"><ele>380.0</ele><time>2026-05-01T15:14:02.337Z</time></trkpt><trkpt lat="45.7677057" lon="9.1585123"><ele>380.0</ele><time>2026-05-01T15:14:13.348Z</time></trkpt><trkpt lat="45.7677837" lon="9.1585205"><ele>380.0</ele><time>2026-05-01T15:14:16.326Z</time></trkpt><trkpt lat="45.7678777" lon="9.1584762"><ele>380.0</ele><time>2026-05-01T15:14:18.331Z</time></trkpt><trkpt lat="45.767954" lon="9.158366"><ele>380.0</ele><time>2026-05-01T15:14:20.343Z</time></trkpt><trkpt lat="45.7680454" lon="9.1582857"><ele>380.0</ele><time>2026-05-01T15:14:22.342Z</time></trkpt><trkpt lat="45.7681025" lon="9.1582344"><ele>380.5</ele><time>2026-05-01T15:14:23.341Z</time></trkpt><trkpt lat="45.7681854" lon="9.1581535"><ele>381.0</ele><time>2026-05-01T15:14:25.321Z</time></trkpt><trkpt lat="45.768267" lon="9.1580915"><ele>381.5</ele><time>2026-05-01T15:14:27.339Z</time></trkpt><trkpt lat="45.7684832" lon="9.1581339"><ele>382.0</ele><time>2026-05-01T15:14:33.329Z</time></trkpt><trkpt lat="45.768545" lon="9.1581752"><ele>382.5</ele><time>2026-05-01T15:14:37.345Z</time></trkpt><trkpt lat="45.7686086" lon="9.1582505"><ele>383.0</ele><time>2026-05-01T15:14:40.336Z</time></trkpt><trkpt lat="45.7686762" lon="9.1583427"><ele>383.5</ele><time>2026-05-01T15:14:42.328Z</time></trkpt><trkpt lat="45.768761" lon="9.158451"><ele>384.0</ele><time>2026-05-01T15:14:44.332Z</time></trkpt><trkpt lat="45.7688232" lon="9.1585209"><ele>384.50000000000006</ele><time>2026-05-01T15:14:45.329Z</time></trkpt><trkpt lat="45.7688786" lon="9.158571"><ele>385.0</ele><time>2026-05-01T15:14:46.345Z</time></trkpt><trkpt lat="45.7689812" lon="9.1586772"><ele>385.0</ele><time>2026-05-01T15:14:48.329Z</time></trkpt><trkpt lat="45.7690769" lon="9.1587638"><ele>385.0</ele><time>2026-05-01T15:14:50.333Z</time></trkpt><trkpt lat="45.7691435" lon="9.1588203"><ele>385.0</ele><time>2026-05-01T15:14:51.33Z</time></trkpt><trkpt lat="45.769219" lon="9.158898"><ele>385.0</ele><time>2026-05-01T15:14:52.342Z</time></trkpt><trkpt lat="45.7693006" lon="9.1589773"><ele>385.0</ele><time>2026-05-01T15:14:53.353Z</time></trkpt><trkpt lat="45.7693861" lon="9.1590574"><ele>384.6666666666667</ele><time>2026-05-01T15:14:54.346Z</time></trkpt><trkpt lat="45.7694596" lon="9.1591269"><ele>384.33333333333337</ele><time>2026-05-01T15:14:55.328Z</time></trkpt><trkpt lat="45.7695517" lon="9.1591959"><ele>384.0</ele><time>2026-05-01T15:14:57.338Z</time></trkpt><trkpt lat="45.7696175" lon="9.1592366"><ele>383.6666666666667</ele><time>2026-05-01T15:15:01.333Z</time></trkpt><trkpt lat="45.7696741" lon="9.1593391"><ele>383.33333333333337</ele><time>2026-05-01T15:15:04.33Z</time></trkpt><trkpt lat="45.7696636" lon="9.159461"><ele>383.0</ele><time>2026-05-01T15:15:06.33Z</time></trkpt><trkpt lat="45.7696447" lon="9.1595936"><ele>383.0</ele><time>2026-05-01T15:15:08.33Z</time></trkpt><trkpt lat="45.7696287" lon="9.1597745"><ele>383.0</ele><time>2026-05-01T15:15:10.341Z</time></trkpt><trkpt lat="45.7696229" lon="9.1598834"><ele>383.0</ele><time>2026-05-01T15:15:12.34Z</time></trkpt><trkpt lat="45.7697029" lon="9.1599803"><ele>383.0</ele><time>2026-05-01T15:15:15.347Z</time></trkpt><trkpt lat="45.769776" lon="9.160025"><ele>383.0</ele><time>2026-05-01T15:15:17.335Z</time></trkpt><trkpt lat="45.7698584" lon="9.1600409"><ele>383.0</ele><time>2026-05-01T15:15:29.322Z</time></trkpt><trkpt lat="45.7699193" lon="9.1600657"><ele>383.0</ele><time>2026-05-01T15:15:32.345Z</time></trkpt><trkpt lat="45.7699539" lon="9.1602049"><ele>383.0</ele><time>2026-05-01T15:15:35.339Z</time></trkpt><trkpt lat="45.7699726" lon="9.1603505"><ele>383.0</ele><time>2026-05-01T15:15:37.336Z</time></trkpt><trkpt lat="45.7699836" lon="9.1604665"><ele>383.0</ele><time>2026-05-01T15:15:38.342Z</time></trkpt><trkpt lat="45.769999" lon="9.1605713"><ele>383.0</ele><time>2026-05-01T15:15:39.334Z</time></trkpt><trkpt lat="45.770014" lon="9.1607031"><ele>383.4</ele><time>2026-05-01T15:15:41.335Z</time></trkpt><trkpt lat="45.7700472" lon="9.1608283"><ele>383.79999999999995</ele><time>2026-05-01T15:15:43.332Z</time></trkpt><trkpt lat="45.7701021" lon="9.1609619"><ele>384.2</ele><time>2026-05-01T15:15:45.321Z</time></trkpt><trkpt lat="45.7701818" lon="9.1610776"><ele>384.6</ele><time>2026-05-01T15:15:47.336Z</time></trkpt><trkpt lat="45.7702958" lon="9.1611575"><ele>385.0</ele><time>2026-05-01T15:15:49.336Z</time></trkpt><trkpt lat="45.7703929" lon="9.1612038"><ele>385.0</ele><time>2026-05-01T15:15:50.337Z</time></trkpt><trkpt lat="45.7704974" lon="9.1612471"><ele>385.0</ele><time>2026-05-01T15:15:51.338Z</time></trkpt><trkpt lat="45.770586" lon="9.1612774"><ele>385.0</ele><time>2026-05-01T15:15:52.339Z</time></trkpt><trkpt lat="45.7706645" lon="9.1613044"><ele>385.0</ele><time>2026-05-01T15:15:53.324Z</time></trkpt><trkpt lat="45.7707452" lon="9.1613304"><ele>385.0</ele><time>2026-05-01T15:15:54.343Z</time></trkpt><trkpt lat="45.770845" lon="9.1613599"><ele>385.0</ele><time>2026-05-01T15:15:55.338Z</time></trkpt><trkpt lat="45.7709523" lon="9.1613952"><ele>385.0</ele><time>2026-05-01T15:15:56.344Z</time></trkpt><trkpt lat="45.7710752" lon="9.1614331"><ele>385.0</ele><time>2026-05-01T15:15:57.328Z</time></trkpt><trkpt lat="45.7711841" lon="9.1614623"><ele>385.0</ele><time>2026-05-01T15:15:58.326Z</time></trkpt><trkpt lat="45.7712816" lon="9.1614917"><ele>385.0</ele><time>2026-05-01T15:15:59.335Z</time></trkpt><trkpt lat="45.7713816" lon="9.1615238"><ele>385.6</ele><time>2026-05-01T15:16:00.341Z</time></trkpt><trkpt lat="45.7714849" lon="9.1615608"><ele>386.2</ele><time>2026-05-01T15:16:01.334Z</time></trkpt><trkpt lat="45.771619" lon="9.1616344"><ele>386.79999999999995</ele><time>2026-05-01T15:16:02.349Z</time></trkpt><trkpt lat="45.7716879" lon="9.1616688"><ele>387.4</ele><time>2026-05-01T15:16:03.343Z</time></trkpt><trkpt lat="45.7717757" lon="9.1616917"><ele>388.0</ele><time>2026-05-01T15:16:04.335Z</time></trkpt><trkpt lat="45.7718608" lon="9.1616947"><ele>388.1666666666667</ele><time>2026-05-01T15:16:10.339Z</time></trkpt><trkpt lat="45.7719321" lon="9.1616567"><ele>388.33333333333337</ele><time>2026-05-01T15:16:14.332Z</time></trkpt><trkpt lat="45.7720056" lon="9.1616276"><ele>388.5</ele><time>2026-05-01T15:16:23.336Z</time></trkpt><trkpt lat="45.7720495" lon="9.1615313"><ele>388.66666666666663</ele><time>2026-05-01T15:16:26.343Z</time></trkpt><trkpt lat="45.7719882" lon="9.1615685"><ele>388.8333333333333</ele><time>2026-05-01T15:16:37.329Z</time></trkpt><trkpt lat="45.7719161" lon="9.1615085"><ele>389.0</ele><time>2026-05-01T15:16:44.337Z</time></trkpt><trkpt lat="45.7718398" lon="9.1614156"><ele>389.0</ele><time>2026-05-01T15:16:46.336Z</time></trkpt><trkpt lat="45.7717341" lon="9.1612689"><ele>389.0</ele><time>2026-05-01T15:16:49.334Z</time></trkpt><trkpt lat="45.7716532" lon="9.1611954"><ele>389.0</ele><time>2026-05-01T15:16:52.324Z</time></trkpt><trkpt lat="45.7715944" lon="9.1611287"><ele>389.0</ele><time>2026-05-01T15:16:54.344Z</time></trkpt><trkpt lat="45.7715006" lon="9.1609904"><ele>389.0</ele><time>2026-05-01T15:17:14.332Z</time></trkpt><trkpt lat="45.7715355" lon="9.1610972"><ele>389.0</ele><time>2026-05-01T15:17:28.334Z</time></trkpt><trkpt lat="45.7716051" lon="9.1612462"><ele>389.0</ele><time>2026-05-01T15:17:30.329Z</time></trkpt><trkpt lat="45.7716532" lon="9.1613199"><ele>389.0</ele><time>2026-05-01T15:17:31.347Z</time></trkpt><trkpt lat="45.7717554" lon="9.161447"><ele>389.0</ele><time>2026-05-01T15:17:33.331Z</time></trkpt><trkpt lat="45.7717993" lon="9.1615595"><ele>388.79999999999995</ele><time>2026-05-01T15:17:35.336Z</time></trkpt><trkpt lat="45.7718504" lon="9.1616275"><ele>388.59999999999997</ele><time>2026-05-01T15:17:37.332Z</time></trkpt><trkpt lat="45.7719634" lon="9.1615368"><ele>388.4</ele><time>2026-05-01T15:17:56.334Z</time></trkpt><trkpt lat="45.771997" lon="9.1614511"><ele>388.2</ele><time>2026-05-01T15:17:58.324Z</time></trkpt><trkpt lat="45.7720244" lon="9.1612913"><ele>388.0</ele><time>2026-05-01T15:18:00.337Z</time></trkpt><trkpt lat="45.772035" lon="9.1611739"><ele>389.59999999999997</ele><time>2026-05-01T15:18:02.336Z</time></trkpt><trkpt lat="45.7720234" lon="9.1610436"><ele>391.2</ele><time>2026-05-01T15:18:06.325Z</time></trkpt><trkpt lat="45.7720198" lon="9.1609534"><ele>392.8</ele><time>2026-05-01T15:18:07.332Z</time></trkpt><trkpt lat="45.7720062" lon="9.1607897"><ele>394.4</ele><time>2026-05-01T15:18:09.342Z</time></trkpt><trkpt lat="45.771988" lon="9.1606476"><ele>396.0</ele><time>2026-05-01T15:18:11.341Z</time></trkpt><trkpt lat="45.7719676" lon="9.160517"><ele>396.0</ele><time>2026-05-01T15:18:13.328Z</time></trkpt><trkpt lat="45.7719442" lon="9.1604302"><ele>396.0</ele><time>2026-05-01T15:18:14.333Z</time></trkpt><trkpt lat="45.7719202" lon="9.1603377"><ele>396.0</ele><time>2026-05-01T15:18:15.333Z</time></trkpt><trkpt lat="45.7718961" lon="9.1602028"><ele>396.0</ele><time>2026-05-01T15:18:17.334Z</time></trkpt><trkpt lat="45.7718857" lon="9.1600692"><ele>396.0</ele><time>2026-05-01T15:18:19.335Z</time></trkpt><trkpt lat="45.7718547" lon="9.1599442"><ele>396.0</ele><time>2026-05-01T15:18:21.342Z</time></trkpt><trkpt lat="45.7718231" lon="9.1598248"><ele>394.0</ele><time>2026-05-01T15:18:23.343Z</time></trkpt><trkpt lat="45.7718037" lon="9.1597049"><ele>392.0</ele><time>2026-05-01T15:18:26.343Z</time></trkpt><trkpt lat="45.7717969" lon="9.1596127"><ele>390.0</ele><time>2026-05-01T15:18:28.335Z</time></trkpt><trkpt lat="45.771763" lon="9.159516"><ele>388.0</ele><time>2026-05-01T15:18:31.337Z</time></trkpt><trkpt lat="45.7716996" lon="9.159442"><ele>386.0</ele><time>2026-05-01T15:18:33.336Z</time></trkpt><trkpt lat="45.7716614" lon="9.1592991"><ele>384.0</ele><time>2026-05-01T15:18:35.344Z</time></trkpt><trkpt lat="45.7716529" lon="9.1591258"><ele>384.5</ele><time>2026-05-01T15:18:37.335Z</time></trkpt><trkpt lat="45.7716388" lon="9.1589748"><ele>385.0</ele><time>2026-05-01T15:18:39.333Z</time></trkpt><trkpt lat="45.7716311" lon="9.1588737"><ele>385.5</ele><time>2026-05-01T15:18:40.335Z</time></trkpt><trkpt lat="45.7716259" lon="9.1587768"><ele>386.0</ele><time>2026-05-01T15:18:41.345Z</time></trkpt><trkpt lat="45.7716207" lon="9.1586855"><ele>386.5</ele><time>2026-05-01T15:18:42.341Z</time></trkpt><trkpt lat="45.7716138" lon="9.1585367"><ele>387.0</ele><time>2026-05-01T15:18:44.34Z</time></trkpt><trkpt lat="45.7715875" lon="9.1584485"><ele>387.0</ele><time>2026-05-01T15:18:45.332Z</time></trkpt><trkpt lat="45.7715325" lon="9.158257"><ele>387.0</ele><time>2026-05-01T15:18:47.331Z</time></trkpt><trkpt lat="45.7714559" lon="9.1578955"><ele>387.0</ele><time>2026-05-01T15:18:50.332Z</time></trkpt><trkpt lat="45.7714277" lon="9.1577651"><ele>386.8</ele><time>2026-05-01T15:18:51.327Z</time></trkpt><trkpt lat="45.7713806" lon="9.1575973"><ele>386.6</ele><time>2026-05-01T15:18:52.332Z</time></trkpt><trkpt lat="45.7713532" lon="9.1574551"><ele>386.40000000000003</ele><time>2026-05-01T15:18:53.332Z</time></trkpt><trkpt lat="45.7712978" lon="9.1573095"><ele>386.20000000000005</ele><time>2026-05-01T15:18:54.333Z</time></trkpt><trkpt lat="45.7712749" lon="9.1571977"><ele>386.0</ele><time>2026-05-01T15:18:55.329Z</time></trkpt><trkpt lat="45.7712332" lon="9.157075"><ele>386.0</ele><time>2026-05-01T15:18:56.326Z</time></trkpt><trkpt lat="45.7711972" lon="9.1569525"><ele>386.0</ele><time>2026-05-01T15:18:57.327Z</time></trkpt><trkpt lat="45.7711673" lon="9.1568313"><ele>386.0</ele><time>2026-05-01T15:18:58.33Z</time></trkpt><trkpt lat="45.7711502" lon="9.156728"><ele>386.0</ele><time>2026-05-01T15:18:59.33Z</time></trkpt><trkpt lat="45.7711228" lon="9.1566055"><ele>386.0</ele><time>2026-05-01T15:19:00.336Z</time></trkpt><trkpt lat="45.7710883" lon="9.1564622"><ele>385.20000000000005</ele><time>2026-05-01T15:19:01.339Z</time></trkpt><trkpt lat="45.7710513" lon="9.156302"><ele>384.40000000000003</ele><time>2026-05-01T15:19:02.342Z</time></trkpt><trkpt lat="45.7710383" lon="9.1561685"><ele>383.6</ele><time>2026-05-01T15:19:03.347Z</time></trkpt><trkpt lat="45.7710242" lon="9.1560245"><ele>382.8</ele><time>2026-05-01T15:19:04.339Z</time></trkpt><trkpt lat="45.7710131" lon="9.1558885"><ele>382.0</ele><time>2026-05-01T15:19:05.34Z</time></trkpt><trkpt lat="45.7710092" lon="9.1557551"><ele>381.8</ele><time>2026-05-01T15:19:06.349Z</time></trkpt><trkpt lat="45.7710098" lon="9.1556258"><ele>381.6</ele><time>2026-05-01T15:19:07.337Z</time></trkpt><trkpt lat="45.7710133" lon="9.155497"><ele>381.40000000000003</ele><time>2026-05-01T15:19:08.333Z</time></trkpt><trkpt lat="45.7710231" lon="9.1553677"><ele>381.20000000000005</ele><time>2026-05-01T15:19:09.345Z</time></trkpt><trkpt lat="45.7710309" lon="9.155239"><ele>381.0</ele><time>2026-05-01T15:19:10.332Z</time></trkpt><trkpt lat="45.7710403" lon="9.1551095"><ele>381.0</ele><time>2026-05-01T15:19:11.34Z</time></trkpt><trkpt lat="45.7710485" lon="9.154985"><ele>381.0</ele><time>2026-05-01T15:19:12.34Z</time></trkpt><trkpt lat="45.7710613" lon="9.1548684"><ele>381.0</ele><time>2026-05-01T15:19:13.341Z</time></trkpt><trkpt lat="45.7710819" lon="9.1547651"><ele>381.0</ele><time>2026-05-01T15:19:14.336Z</time></trkpt><trkpt lat="45.7711064" lon="9.1546703"><ele>381.0</ele><time>2026-05-01T15:19:15.336Z</time></trkpt><trkpt lat="45.7711412" lon="9.1545791"><ele>381.0</ele><time>2026-05-01T15:19:16.345Z</time></trkpt><trkpt lat="45.7711897" lon="9.1544964"><ele>381.3333333333333</ele><time>2026-05-01T15:19:17.34Z</time></trkpt><trkpt lat="45.7712551" lon="9.154426"><ele>381.6666666666667</ele><time>2026-05-01T15:19:18.324Z</time></trkpt><trkpt lat="45.7713315" lon="9.1543605"><ele>382.0</ele><time>2026-05-01T15:19:19.337Z</time></trkpt><trkpt lat="45.7714059" lon="9.1543051"><ele>382.33333333333337</ele><time>2026-05-01T15:19:20.347Z</time></trkpt><trkpt lat="45.7714663" lon="9.1542562"><ele>382.6666666666667</ele><time>2026-05-01T15:19:21.344Z</time></trkpt><trkpt lat="45.7715425" lon="9.1541829"><ele>383.0</ele><time>2026-05-01T15:19:23.341Z</time></trkpt><trkpt lat="45.7716288" lon="9.1541702"><ele>383.0</ele><time>2026-05-01T15:19:55.329Z</time></trkpt><trkpt lat="45.7717037" lon="9.1542097"><ele>383.0</ele><time>2026-05-01T15:19:57.343Z</time></trkpt><trkpt lat="45.7717774" lon="9.1542713"><ele>383.0</ele><time>2026-05-01T15:19:59.338Z</time></trkpt><trkpt lat="45.7718567" lon="9.1543582"><ele>383.0</ele><time>2026-05-01T15:20:01.33Z</time></trkpt><trkpt lat="45.7719033" lon="9.1544215"><ele>383.0</ele><time>2026-05-01T15:20:02.333Z</time></trkpt><trkpt lat="45.7719537" lon="9.1544919"><ele>383.0</ele><time>2026-05-01T15:20:03.33Z</time></trkpt><trkpt lat="45.7719998" lon="9.1545643"><ele>384.2</ele><time>2026-05-01T15:20:04.342Z</time></trkpt><trkpt lat="45.7720605" lon="9.1546815"><ele>385.4</ele><time>2026-05-01T15:20:06.348Z</time></trkpt><trkpt lat="45.7720965" lon="9.1547556"><ele>386.59999999999997</ele><time>2026-05-01T15:20:08.35Z</time></trkpt><trkpt lat="45.7720644" lon="9.1546631"><ele>387.79999999999995</ele><time>2026-05-01T15:20:20.331Z</time></trkpt><trkpt lat="45.7719955" lon="9.1545564"><ele>389.0</ele><time>2026-05-01T15:20:22.33Z</time></trkpt><trkpt lat="45.7719134" lon="9.1544462"><ele>387.79999999999995</ele><time>2026-05-01T15:20:24.337Z</time></trkpt><trkpt lat="45.7718237" lon="9.1543406"><ele>386.59999999999997</ele><time>2026-05-01T15:20:26.336Z</time></trkpt><trkpt lat="45.7717397" lon="9.1542489"><ele>385.4</ele><time>2026-05-01T15:20:28.338Z</time></trkpt><trkpt lat="45.7716677" lon="9.1541695"><ele>384.2</ele><time>2026-05-01T15:20:30.343Z</time></trkpt><trkpt lat="45.7715976" lon="9.1541225"><ele>383.0</ele><time>2026-05-01T15:20:32.334Z</time></trkpt><trkpt lat="45.7715345" lon="9.1540944"><ele>384.33333333333337</ele><time>2026-05-01T15:20:34.335Z</time></trkpt><trkpt lat="45.7715044" lon="9.1540076"><ele>385.6666666666667</ele><time>2026-05-01T15:20:40.346Z</time></trkpt><trkpt lat="45.771583" lon="9.1538976"><ele>387.0</ele><time>2026-05-01T15:20:42.351Z</time></trkpt><trkpt lat="45.7716304" lon="9.153824"><ele>388.33333333333337</ele><time>2026-05-01T15:20:43.33Z</time></trkpt><trkpt lat="45.7717145" lon="9.1537084"><ele>389.6666666666667</ele><time>2026-05-01T15:20:45.335Z</time></trkpt><trkpt lat="45.771747" lon="9.1536255"><ele>391.0</ele><time>2026-05-01T15:20:46.33Z</time></trkpt><trkpt lat="45.7717747" lon="9.1535329"><ele>391.00000000000006</ele><time>2026-05-01T15:20:47.336Z</time></trkpt><trkpt lat="45.7718077" lon="9.1533836"><ele>391.0</ele><time>2026-05-01T15:20:49.353Z</time></trkpt><trkpt lat="45.7718368" lon="9.1532585"><ele>391.0</ele><time>2026-05-01T15:20:51.342Z</time></trkpt><trkpt lat="45.7718521" lon="9.1531301"><ele>391.0</ele><time>2026-05-01T15:20:53.34Z</time></trkpt><trkpt lat="45.7718546" lon="9.1530267"><ele>391.00000000000006</ele><time>2026-05-01T15:20:56.337Z</time></trkpt><trkpt lat="45.7718461" lon="9.1529198"><ele>391.0</ele><time>2026-05-01T15:20:58.345Z</time></trkpt><trkpt lat="45.7718004" lon="9.1528302"><ele>391.71428571428567</ele><time>2026-05-01T15:21:14.348Z</time></trkpt><trkpt lat="45.7717407" lon="9.1527691"><ele>392.42857142857144</ele><time>2026-05-01T15:21:17.34Z</time></trkpt><trkpt lat="45.7716978" lon="9.1526751"><ele>393.1428571428571</ele><time>2026-05-01T15:21:20.338Z</time></trkpt><trkpt lat="45.7716909" lon="9.1525545"><ele>393.85714285714283</ele><time>2026-05-01T15:21:23.34Z</time></trkpt><trkpt lat="45.7716825" lon="9.1524542"><ele>394.57142857142856</ele><time>2026-05-01T15:21:26.334Z</time></trkpt><trkpt lat="45.7716781" lon="9.1523641"><ele>395.2857142857143</ele><time>2026-05-01T15:21:28.337Z</time></trkpt><trkpt lat="45.7716813" lon="9.1522544"><ele>396.0</ele><time>2026-05-01T15:21:30.335Z</time></trkpt><trkpt lat="45.7717039" lon="9.1521504"><ele>396.5</ele><time>2026-05-01T15:21:33.333Z</time></trkpt><trkpt lat="45.7717278" lon="9.1519825"><ele>397.0</ele><time>2026-05-01T15:21:51.345Z</time></trkpt><trkpt lat="45.771752" lon="9.1518859"><ele>397.5</ele><time>2026-05-01T15:21:53.343Z</time></trkpt><trkpt lat="45.7717707" lon="9.1517556"><ele>398.0</ele><time>2026-05-01T15:21:55.341Z</time></trkpt><trkpt lat="45.7718114" lon="9.1516837"><ele>398.5</ele><time>2026-05-01T15:21:57.337Z</time></trkpt><trkpt lat="45.7718643" lon="9.1516098"><ele>399.0</ele><time>2026-05-01T15:22:00.338Z</time></trkpt><trkpt lat="45.7719023" lon="9.1514867"><ele>397.8333333333333</ele><time>2026-05-01T15:22:03.336Z</time></trkpt><trkpt lat="45.7719558" lon="9.1513933"><ele>396.66666666666663</ele><time>2026-05-01T15:22:05.355Z</time></trkpt><trkpt lat="45.772025" lon="9.1513531"><ele>395.5</ele><time>2026-05-01T15:22:07.334Z</time></trkpt><trkpt lat="45.7720843" lon="9.1512832"><ele>394.3333333333333</ele><time>2026-05-01T15:22:09.35Z</time></trkpt><trkpt lat="45.7721352" lon="9.1511717"><ele>393.16666666666663</ele><time>2026-05-01T15:22:12.343Z</time></trkpt><trkpt lat="45.7721339" lon="9.1510673"><ele>392.0</ele><time>2026-05-01T15:22:14.335Z</time></trkpt><trkpt lat="45.7721179" lon="9.150967"><ele>391.99999999999994</ele><time>2026-05-01T15:22:16.343Z</time></trkpt><trkpt lat="45.7721012" lon="9.1508153"><ele>392.0</ele><time>2026-05-01T15:22:19.334Z</time></trkpt><trkpt lat="45.7721054" lon="9.1506723"><ele>392.0</ele><time>2026-05-01T15:22:21.338Z</time></trkpt><trkpt lat="45.7721191" lon="9.1505686"><ele>392.0</ele><time>2026-05-01T15:22:24.336Z</time></trkpt><trkpt lat="45.7720696" lon="9.150491"><ele>391.99999999999994</ele><time>2026-05-01T15:22:27.339Z</time></trkpt><trkpt lat="45.7719966" lon="9.1504348"><ele>392.0</ele><time>2026-05-01T15:22:30.336Z</time></trkpt><trkpt lat="45.7719297" lon="9.1504335"><ele>392.66666666666663</ele><time>2026-05-01T15:22:32.337Z</time></trkpt><trkpt lat="45.7718597" lon="9.1504024"><ele>393.3333333333333</ele><time>2026-05-01T15:22:35.341Z</time></trkpt><trkpt lat="45.7718049" lon="9.1503244"><ele>394.0</ele><time>2026-05-01T15:22:38.33Z</time></trkpt><trkpt lat="45.7717623" lon="9.1502352"><ele>394.66666666666663</ele><time>2026-05-01T15:22:40.334Z</time></trkpt><trkpt lat="45.7717526" lon="9.1501329"><ele>395.3333333333333</ele><time>2026-05-01T15:22:42.34Z</time></trkpt><trkpt lat="45.7717489" lon="9.1500106"><ele>396.0</ele><time>2026-05-01T15:22:44.335Z</time></trkpt><trkpt lat="45.7717852" lon="9.149895"><ele>396.6666666666667</ele><time>2026-05-01T15:22:47.346Z</time></trkpt><trkpt lat="45.7717837" lon="9.1497981"><ele>397.33333333333337</ele><time>2026-05-01T15:22:50.347Z</time></trkpt><trkpt lat="45.7717918" lon="9.1497042"><ele>398.0</ele><time>2026-05-01T15:22:52.333Z</time></trkpt><trkpt lat="45.7717889" lon="9.1496034"><ele>398.6666666666667</ele><time>2026-05-01T15:22:54.343Z</time></trkpt><trkpt lat="45.7718251" lon="9.1494701"><ele>399.33333333333337</ele><time>2026-05-01T15:22:57.338Z</time></trkpt><trkpt lat="45.7718448" lon="9.1493732"><ele>400.0</ele><time>2026-05-01T15:22:59.332Z</time></trkpt><trkpt lat="45.771848" lon="9.1492578"><ele>400.00000000000006</ele><time>2026-05-01T15:23:04.338Z</time></trkpt><trkpt lat="45.7718088" lon="9.1491716"><ele>400.0</ele><time>2026-05-01T15:23:07.347Z</time></trkpt><trkpt lat="45.7717593" lon="9.1491018"><ele>400.0</ele><time>2026-05-01T15:23:10.338Z</time></trkpt><trkpt lat="45.7717268" lon="9.1489869"><ele>400.0</ele><time>2026-05-01T15:23:12.341Z</time></trkpt><trkpt lat="45.7717393" lon="9.1488898"><ele>400.00000000000006</ele><time>2026-05-01T15:23:14.34Z</time></trkpt><trkpt lat="45.7718015" lon="9.1487038"><ele>400.0</ele><time>2026-05-01T15:23:16.333Z</time></trkpt><trkpt lat="45.77185" lon="9.1484858"><ele>399.0</ele><time>2026-05-01T15:23:17.342Z</time></trkpt><trkpt lat="45.7718669" lon="9.1483195"><ele>398.0</ele><time>2026-05-01T15:23:19.339Z</time></trkpt><trkpt lat="45.7718811" lon="9.148158"><ele>397.0</ele><time>2026-05-01T15:23:20.351Z</time></trkpt><trkpt lat="45.7718913" lon="9.1480679"><ele>396.0</ele><time>2026-05-01T15:23:21.346Z</time></trkpt><trkpt lat="45.7719053" lon="9.1478906"><ele>395.0</ele><time>2026-05-01T15:23:23.357Z</time></trkpt><trkpt lat="45.7719315" lon="9.1477929"><ele>395.0</ele><time>2026-05-01T15:23:24.347Z</time></trkpt><trkpt lat="45.7719444" lon="9.1476441"><ele>395.0</ele><time>2026-05-01T15:23:26.333Z</time></trkpt><trkpt lat="45.7719612" lon="9.1474933"><ele>395.0</ele><time>2026-05-01T15:23:28.342Z</time></trkpt><trkpt lat="45.7719743" lon="9.1473151"><ele>395.0</ele><time>2026-05-01T15:23:30.326Z</time></trkpt><trkpt lat="45.7719764" lon="9.1472228"><ele>395.0</ele><time>2026-05-01T15:23:31.344Z</time></trkpt><trkpt lat="45.7719738" lon="9.147061"><ele>394.8333333333333</ele><time>2026-05-01T15:23:33.343Z</time></trkpt><trkpt lat="45.77198" lon="9.1469042"><ele>394.66666666666663</ele><time>2026-05-01T15:23:35.345Z</time></trkpt><trkpt lat="45.7719744" lon="9.1467565"><ele>394.5</ele><time>2026-05-01T15:23:37.334Z</time></trkpt><trkpt lat="45.77199" lon="9.1466588"><ele>394.33333333333337</ele><time>2026-05-01T15:23:45.35Z</time></trkpt><trkpt lat="45.7720428" lon="9.1465996"><ele>394.1666666666667</ele><time>2026-05-01T15:23:48.345Z</time></trkpt><trkpt lat="45.7721153" lon="9.1465139"><ele>394.0</ele><time>2026-05-01T15:23:51.336Z</time></trkpt><trkpt lat="45.7721917" lon="9.1464815"><ele>394.33333333333337</ele><time>2026-05-01T15:23:54.335Z</time></trkpt><trkpt lat="45.7722615" lon="9.1463932"><ele>394.6666666666667</ele><time>2026-05-01T15:23:56.346Z</time></trkpt><trkpt lat="45.7723332" lon="9.1463048"><ele>395.0</ele><time>2026-05-01T15:23:58.336Z</time></trkpt><trkpt lat="45.7724169" lon="9.1463121"><ele>395.33333333333337</ele><time>2026-05-01T15:24:01.343Z</time></trkpt><trkpt lat="45.7724768" lon="9.1463596"><ele>395.6666666666667</ele><time>2026-05-01T15:24:03.338Z</time></trkpt><trkpt lat="45.7725433" lon="9.1464126"><ele>396.0</ele><time>2026-05-01T15:24:05.338Z</time></trkpt><trkpt lat="45.7726154" lon="9.1464253"><ele>396.0</ele><time>2026-05-01T15:24:07.348Z</time></trkpt><trkpt lat="45.7726839" lon="9.1463987"><ele>396.0</ele><time>2026-05-01T15:24:10.337Z</time></trkpt><trkpt lat="45.7727591" lon="9.1464141"><ele>396.0</ele><time>2026-05-01T15:24:12.341Z</time></trkpt><trkpt lat="45.7728301" lon="9.1464403"><ele>396.0</ele><time>2026-05-01T15:24:14.332Z</time></trkpt><trkpt lat="45.7729181" lon="9.1464527"><ele>396.0</ele><time>2026-05-01T15:24:16.33Z</time></trkpt><trkpt lat="45.7730323" lon="9.1464427"><ele>396.0</ele><time>2026-05-01T15:24:18.343Z</time></trkpt><trkpt lat="45.7731563" lon="9.1464221"><ele>395.6666666666667</ele><time>2026-05-01T15:24:20.336Z</time></trkpt><trkpt lat="45.7732828" lon="9.146396"><ele>395.33333333333337</ele><time>2026-05-01T15:24:22.332Z</time></trkpt><trkpt lat="45.773348" lon="9.1463836"><ele>395.0</ele><time>2026-05-01T15:24:23.34Z</time></trkpt><trkpt lat="45.7734111" lon="9.1463716"><ele>394.6666666666667</ele><time>2026-05-01T15:24:24.334Z</time></trkpt><trkpt lat="45.7734764" lon="9.1463535"><ele>394.33333333333337</ele><time>2026-05-01T15:24:25.334Z</time></trkpt><trkpt lat="45.7735974" lon="9.1463138"><ele>394.0</ele><time>2026-05-01T15:24:27.344Z</time></trkpt><trkpt lat="45.7736603" lon="9.1462993"><ele>394.00000000000006</ele><time>2026-05-01T15:24:28.344Z</time></trkpt><trkpt lat="45.7737273" lon="9.14628"><ele>394.0</ele><time>2026-05-01T15:24:29.339Z</time></trkpt><trkpt lat="45.7737972" lon="9.1462598"><ele>394.0</ele><time>2026-05-01T15:24:30.339Z</time></trkpt><trkpt lat="45.7738751" lon="9.1462486"><ele>394.0</ele><time>2026-05-01T15:24:31.331Z</time></trkpt><trkpt lat="45.773959" lon="9.1462284"><ele>394.00000000000006</ele><time>2026-05-01T15:24:32.341Z</time></trkpt><trkpt lat="45.7740401" lon="9.1462053"><ele>394.0</ele><time>2026-05-01T15:24:33.337Z</time></trkpt><trkpt lat="45.774123" lon="9.1461792"><ele>394.0</ele><time>2026-05-01T15:24:34.331Z</time></trkpt><trkpt lat="45.7742103" lon="9.1461533"><ele>394.0</ele><time>2026-05-01T15:24:35.335Z</time></trkpt><trkpt lat="45.7743008" lon="9.1461291"><ele>394.0</ele><time>2026-05-01T15:24:36.346Z</time></trkpt><trkpt lat="45.7743907" lon="9.1461016"><ele>394.0</ele><time>2026-05-01T15:24:37.34Z</time></trkpt><trkpt lat="45.7744832" lon="9.1460762"><ele>394.0</ele><time>2026-05-01T15:24:38.343Z</time></trkpt><trkpt lat="45.7745778" lon="9.1460533"><ele>394.33333333333337</ele><time>2026-05-01T15:24:39.351Z</time></trkpt><trkpt lat="45.7746674" lon="9.1460344"><ele>394.6666666666667</ele><time>2026-05-01T15:24:40.332Z</time></trkpt><trkpt lat="45.7747484" lon="9.1460223"><ele>395.0</ele><time>2026-05-01T15:24:41.335Z</time></trkpt><trkpt lat="45.7748291" lon="9.1460037"><ele>395.33333333333337</ele><time>2026-05-01T15:24:42.337Z</time></trkpt><trkpt lat="45.7749112" lon="9.1459709"><ele>395.6666666666667</ele><time>2026-05-01T15:24:43.345Z</time></trkpt><trkpt lat="45.7749852" lon="9.1459399"><ele>396.0</ele><time>2026-05-01T15:24:44.346Z</time></trkpt><trkpt lat="45.7750464" lon="9.1459099"><ele>396.0</ele><time>2026-05-01T15:24:45.334Z</time></trkpt><trkpt lat="45.7751178" lon="9.1458991"><ele>396.0</ele><time>2026-05-01T15:24:46.339Z</time></trkpt><trkpt lat="45.775191" lon="9.1458893"><ele>396.0</ele><time>2026-05-01T15:24:47.336Z</time></trkpt><trkpt lat="45.775262" lon="9.1458853"><ele>396.0</ele><time>2026-05-01T15:24:48.333Z</time></trkpt><trkpt lat="45.7753846" lon="9.1458883"><ele>396.0</ele><time>2026-05-01T15:24:50.331Z</time></trkpt><trkpt lat="45.7755154" lon="9.1458642"><ele>395.8</ele><time>2026-05-01T15:24:52.341Z</time></trkpt><trkpt lat="45.7755929" lon="9.1458312"><ele>395.6</ele><time>2026-05-01T15:24:53.339Z</time></trkpt><trkpt lat="45.7756828" lon="9.1458035"><ele>395.4</ele><time>2026-05-01T15:24:54.344Z</time></trkpt><trkpt lat="45.7757905" lon="9.1457747"><ele>395.2</ele><time>2026-05-01T15:24:55.34Z</time></trkpt><trkpt lat="45.7759031" lon="9.1457428"><ele>395.0</ele><time>2026-05-01T15:24:56.335Z</time></trkpt><trkpt lat="45.7760094" lon="9.1457142"><ele>396.8333333333333</ele><time>2026-05-01T15:24:57.333Z</time></trkpt><trkpt lat="45.7761074" lon="9.1456942"><ele>398.66666666666663</ele><time>2026-05-01T15:24:58.343Z</time></trkpt><trkpt lat="45.7761986" lon="9.145673"><ele>400.5</ele><time>2026-05-01T15:24:59.332Z</time></trkpt><trkpt lat="45.7762833" lon="9.1456537"><ele>402.33333333333337</ele><time>2026-05-01T15:25:00.345Z</time></trkpt><trkpt lat="45.7763639" lon="9.1456175"><ele>404.1666666666667</ele><time>2026-05-01T15:25:01.332Z</time></trkpt><trkpt lat="45.776446" lon="9.1455777"><ele>406.0</ele><time>2026-05-01T15:25:02.332Z</time></trkpt><trkpt lat="45.7765355" lon="9.1455327"><ele>406.00000000000006</ele><time>2026-05-01T15:25:03.334Z</time></trkpt><trkpt lat="45.7766264" lon="9.1454977"><ele>406.0</ele><time>2026-05-01T15:25:04.34Z</time></trkpt><trkpt lat="45.7767116" lon="9.1454817"><ele>406.0</ele><time>2026-05-01T15:25:05.342Z</time></trkpt><trkpt lat="45.7767958" lon="9.1454872"><ele>406.0</ele><time>2026-05-01T15:25:06.336Z</time></trkpt><trkpt lat="45.7768749" lon="9.1454938"><ele>406.00000000000006</ele><time>2026-05-01T15:25:07.348Z</time></trkpt><trkpt lat="45.7769441" lon="9.1455182"><ele>406.0</ele><time>2026-05-01T15:25:08.334Z</time></trkpt><trkpt lat="45.7770079" lon="9.145551"><ele>406.20000000000005</ele><time>2026-05-01T15:25:09.341Z</time></trkpt><trkpt lat="45.7770656" lon="9.1456063"><ele>406.40000000000003</ele><time>2026-05-01T15:25:10.331Z</time></trkpt><trkpt lat="45.7771523" lon="9.145718"><ele>406.6</ele><time>2026-05-01T15:25:12.33Z</time></trkpt><trkpt lat="45.7772069" lon="9.1458713"><ele>406.8</ele><time>2026-05-01T15:25:14.33Z</time></trkpt><trkpt lat="45.7772684" lon="9.1460371"><ele>407.0</ele><time>2026-05-01T15:25:16.332Z</time></trkpt><trkpt lat="45.7772977" lon="9.1461372"><ele>406.3333333333333</ele><time>2026-05-01T15:25:17.334Z</time></trkpt><trkpt lat="45.777327" lon="9.1462388"><ele>405.66666666666663</ele><time>2026-05-01T15:25:18.333Z</time></trkpt><trkpt lat="45.7773501" lon="9.1463458"><ele>405.0</ele><time>2026-05-01T15:25:19.343Z</time></trkpt><trkpt lat="45.7773703" lon="9.1464388"><ele>404.33333333333337</ele><time>2026-05-01T15:25:20.335Z</time></trkpt><trkpt lat="45.7773971" lon="9.1465318"><ele>403.6666666666667</ele><time>2026-05-01T15:25:21.336Z</time></trkpt><trkpt lat="45.777427" lon="9.1466345"><ele>403.0</ele><time>2026-05-01T15:25:22.334Z</time></trkpt><trkpt lat="45.7774696" lon="9.1467599"><ele>403.00000000000006</ele><time>2026-05-01T15:25:23.344Z</time></trkpt><trkpt lat="45.7775184" lon="9.1468676"><ele>403.0</ele><time>2026-05-01T15:25:24.327Z</time></trkpt><trkpt lat="45.7775843" lon="9.1469753"><ele>403.0</ele><time>2026-05-01T15:25:25.35Z</time></trkpt><trkpt lat="45.777656" lon="9.1470592"><ele>403.0</ele><time>2026-05-01T15:25:26.342Z</time></trkpt><trkpt lat="45.777735" lon="9.1471195"><ele>403.00000000000006</ele><time>2026-05-01T15:25:27.334Z</time></trkpt><trkpt lat="45.7778113" lon="9.1471409"><ele>403.0</ele><time>2026-05-01T15:25:28.336Z</time></trkpt><trkpt lat="45.7779578" lon="9.1471261"><ele>403.0</ele><time>2026-05-01T15:25:33.354Z</time></trkpt><trkpt lat="45.7780054" lon="9.1470629"><ele>403.0</ele><time>2026-05-01T15:26:01.328Z</time></trkpt><trkpt lat="45.7779873" lon="9.1469638"><ele>403.0</ele><time>2026-05-01T15:26:03.348Z</time></trkpt><trkpt lat="45.7779489" lon="9.1468917"><ele>403.0</ele><time>2026-05-01T15:26:04.335Z</time></trkpt><trkpt lat="45.7779165" lon="9.1467932"><ele>403.0</ele><time>2026-05-01T15:26:05.351Z</time></trkpt><trkpt lat="45.777906" lon="9.1466899"><ele>403.0</ele><time>2026-05-01T15:26:06.352Z</time></trkpt><trkpt lat="45.7778929" lon="9.1465857"><ele>403.0</ele><time>2026-05-01T15:26:07.337Z</time></trkpt><trkpt lat="45.7778852" lon="9.1464686"><ele>403.33333333333337</ele><time>2026-05-01T15:26:08.33Z</time></trkpt><trkpt lat="45.7778745" lon="9.1463549"><ele>403.6666666666667</ele><time>2026-05-01T15:26:09.346Z</time></trkpt><trkpt lat="45.7778549" lon="9.1462561"><ele>404.0</ele><time>2026-05-01T15:26:10.338Z</time></trkpt><trkpt lat="45.7778407" lon="9.1461435"><ele>404.33333333333337</ele><time>2026-05-01T15:26:11.34Z</time></trkpt><trkpt lat="45.7778384" lon="9.1460293"><ele>404.6666666666667</ele><time>2026-05-01T15:26:12.343Z</time></trkpt><trkpt lat="45.7778547" lon="9.1459181"><ele>405.0</ele><time>2026-05-01T15:26:13.338Z</time></trkpt><trkpt lat="45.7778819" lon="9.1457976"><ele>406.2</ele><time>2026-05-01T15:26:14.325Z</time></trkpt><trkpt lat="45.7779055" lon="9.1456652"><ele>407.4</ele><time>2026-05-01T15:26:15.328Z</time></trkpt><trkpt lat="45.7779319" lon="9.145545"><ele>408.6</ele><time>2026-05-01T15:26:16.33Z</time></trkpt><trkpt lat="45.7779601" lon="9.1454189"><ele>409.8</ele><time>2026-05-01T15:26:17.352Z</time></trkpt><trkpt lat="45.7779894" lon="9.145305"><ele>411.0</ele><time>2026-05-01T15:26:18.342Z</time></trkpt><trkpt lat="45.7780077" lon="9.1451793"><ele>411.0</ele><time>2026-05-01T15:26:19.342Z</time></trkpt><trkpt lat="45.7780243" lon="9.1450466"><ele>411.0</ele><time>2026-05-01T15:26:20.334Z</time></trkpt><trkpt lat="45.7780596" lon="9.1449222"><ele>411.0</ele><time>2026-05-01T15:26:21.348Z</time></trkpt><trkpt lat="45.7781124" lon="9.1447992"><ele>411.0</ele><time>2026-05-01T15:26:22.341Z</time></trkpt><trkpt lat="45.7781571" lon="9.1446725"><ele>411.0</ele><time>2026-05-01T15:26:23.334Z</time></trkpt><trkpt lat="45.7782048" lon="9.144553"><ele>412.5</ele><time>2026-05-01T15:26:24.341Z</time></trkpt><trkpt lat="45.7782571" lon="9.1444524"><ele>414.0</ele><time>2026-05-01T15:26:25.342Z</time></trkpt><trkpt lat="45.7783074" lon="9.1443564"><ele>415.5</ele><time>2026-05-01T15:26:26.351Z</time></trkpt><trkpt lat="45.7783452" lon="9.1442548"><ele>417.0</ele><time>2026-05-01T15:26:27.34Z</time></trkpt><trkpt lat="45.7783842" lon="9.1441488"><ele>418.5</ele><time>2026-05-01T15:26:28.335Z</time></trkpt><trkpt lat="45.7784217" lon="9.1440373"><ele>420.0</ele><time>2026-05-01T15:26:29.332Z</time></trkpt><trkpt lat="45.7784587" lon="9.1439288"><ele>419.6666666666667</ele><time>2026-05-01T15:26:30.332Z</time></trkpt><trkpt lat="45.7784967" lon="9.1438323"><ele>419.33333333333337</ele><time>2026-05-01T15:26:31.343Z</time></trkpt><trkpt lat="45.7785363" lon="9.1437409"><ele>419.0</ele><time>2026-05-01T15:26:32.343Z</time></trkpt><trkpt lat="45.7785696" lon="9.1436623"><ele>418.6666666666667</ele><time>2026-05-01T15:26:33.339Z</time></trkpt><trkpt lat="45.7786166" lon="9.1435207"><ele>418.33333333333337</ele><time>2026-05-01T15:26:35.329Z</time></trkpt><trkpt lat="45.778673" lon="9.1433631"><ele>418.0</ele><time>2026-05-01T15:26:37.337Z</time></trkpt><trkpt lat="45.7787143" lon="9.1432811"><ele>417.83333333333337</ele><time>2026-05-01T15:26:38.329Z</time></trkpt><trkpt lat="45.7787695" lon="9.1432088"><ele>417.6666666666667</ele><time>2026-05-01T15:26:39.331Z</time></trkpt><trkpt lat="45.7788364" lon="9.1431262"><ele>417.5</ele><time>2026-05-01T15:26:40.336Z</time></trkpt><trkpt lat="45.7789038" lon="9.1430451"><ele>417.33333333333337</ele><time>2026-05-01T15:26:41.343Z</time></trkpt><trkpt lat="45.7789689" lon="9.1429637"><ele>417.1666666666667</ele><time>2026-05-01T15:26:42.328Z</time></trkpt><trkpt lat="45.7790364" lon="9.1428802"><ele>417.0</ele><time>2026-05-01T15:26:43.342Z</time></trkpt><trkpt lat="45.7791019" lon="9.1428001"><ele>417.0</ele><time>2026-05-01T15:26:44.347Z</time></trkpt><trkpt lat="45.7791642" lon="9.1427234"><ele>417.0</ele><time>2026-05-01T15:26:45.349Z</time></trkpt><trkpt lat="45.7792272" lon="9.1426654"><ele>417.0</ele><time>2026-05-01T15:26:46.339Z</time></trkpt><trkpt lat="45.7793102" lon="9.1425964"><ele>417.0</ele><time>2026-05-01T15:26:48.341Z</time></trkpt><trkpt lat="45.7793981" lon="9.1425919"><ele>417.0</ele><time>2026-05-01T15:26:56.335Z</time></trkpt><trkpt lat="45.7795059" lon="9.142679"><ele>416.0</ele><time>2026-05-01T15:26:58.33Z</time></trkpt><trkpt lat="45.7795768" lon="9.1427396"><ele>415.0</ele><time>2026-05-01T15:26:59.34Z</time></trkpt><trkpt lat="45.7796571" lon="9.1428072"><ele>414.0</ele><time>2026-05-01T15:27:00.337Z</time></trkpt><trkpt lat="45.779744" lon="9.1428788"><ele>413.0</ele><time>2026-05-01T15:27:01.337Z</time></trkpt><trkpt lat="45.7798374" lon="9.142955"><ele>412.0</ele><time>2026-05-01T15:27:02.339Z</time></trkpt><trkpt lat="45.7799319" lon="9.1430315"><ele>412.0</ele><time>2026-05-01T15:27:03.344Z</time></trkpt><trkpt lat="45.7800415" lon="9.1431126"><ele>412.0</ele><time>2026-05-01T15:27:04.334Z</time></trkpt><trkpt lat="45.7801483" lon="9.1431884"><ele>412.0</ele><time>2026-05-01T15:27:05.332Z</time></trkpt><trkpt lat="45.7802513" lon="9.143262"><ele>412.0</ele><time>2026-05-01T15:27:06.33Z</time></trkpt><trkpt lat="45.7803569" lon="9.1433375"><ele>410.75</ele><time>2026-05-01T15:27:07.348Z</time></trkpt><trkpt lat="45.7804645" lon="9.1434137"><ele>409.5</ele><time>2026-05-01T15:27:08.333Z</time></trkpt><trkpt lat="45.7805724" lon="9.1434875"><ele>408.25</ele><time>2026-05-01T15:27:09.339Z</time></trkpt><trkpt lat="45.7806795" lon="9.1435545"><ele>407.0</ele><time>2026-05-01T15:27:10.35Z</time></trkpt><trkpt lat="45.7807768" lon="9.1436127"><ele>407.0</ele><time>2026-05-01T15:27:11.331Z</time></trkpt><trkpt lat="45.7808778" lon="9.143682"><ele>407.0</ele><time>2026-05-01T15:27:12.331Z</time></trkpt><trkpt lat="45.7809766" lon="9.1437556"><ele>407.0</ele><time>2026-05-01T15:27:13.338Z</time></trkpt><trkpt lat="45.7810773" lon="9.1438332"><ele>407.0</ele><time>2026-05-01T15:27:14.338Z</time></trkpt><trkpt lat="45.7811759" lon="9.1439096"><ele>407.0</ele><time>2026-05-01T15:27:15.33Z</time></trkpt><trkpt lat="45.78127" lon="9.1439813"><ele>407.0</ele><time>2026-05-01T15:27:16.336Z</time></trkpt><trkpt lat="45.7813709" lon="9.1440361"><ele>407.0</ele><time>2026-05-01T15:27:17.34Z</time></trkpt><trkpt lat="45.7814665" lon="9.1440901"><ele>407.0</ele><time>2026-05-01T15:27:18.354Z</time></trkpt><trkpt lat="45.7815603" lon="9.1441429"><ele>407.0</ele><time>2026-05-01T15:27:19.341Z</time></trkpt><trkpt lat="45.781646" lon="9.144188"><ele>406.66666666666663</ele><time>2026-05-01T15:27:20.333Z</time></trkpt><trkpt lat="45.7817224" lon="9.144244"><ele>406.3333333333333</ele><time>2026-05-01T15:27:21.338Z</time></trkpt><trkpt lat="45.7817885" lon="9.1443032"><ele>406.0</ele><time>2026-05-01T15:27:22.33Z</time></trkpt><trkpt lat="45.7818481" lon="9.1443533"><ele>405.66666666666663</ele><time>2026-05-01T15:27:23.339Z</time></trkpt><trkpt lat="45.7819282" lon="9.1443654"><ele>405.3333333333333</ele><time>2026-05-01T15:27:25.341Z</time></trkpt><trkpt lat="45.7819392" lon="9.1442215"><ele>405.0</ele><time>2026-05-01T15:27:28.344Z</time></trkpt><trkpt lat="45.7819338" lon="9.1440083"><ele>404.0</ele><time>2026-05-01T15:27:30.333Z</time></trkpt><trkpt lat="45.7819253" lon="9.1438674"><ele>403.0</ele><time>2026-05-01T15:27:31.335Z</time></trkpt><trkpt lat="45.7819326" lon="9.1437213"><ele>402.0</ele><time>2026-05-01T15:27:32.331Z</time></trkpt><trkpt lat="45.7819296" lon="9.1435736"><ele>401.0</ele><time>2026-05-01T15:27:33.346Z</time></trkpt><trkpt lat="45.7819116" lon="9.1433989"><ele>400.0</ele><time>2026-05-01T15:27:34.329Z</time></trkpt><trkpt lat="45.7818908" lon="9.1432399"><ele>399.8</ele><time>2026-05-01T15:27:35.335Z</time></trkpt><trkpt lat="45.7818867" lon="9.1430906"><ele>399.6</ele><time>2026-05-01T15:27:36.345Z</time></trkpt><trkpt lat="45.7818881" lon="9.1429329"><ele>399.4</ele><time>2026-05-01T15:27:37.336Z</time></trkpt><trkpt lat="45.7818834" lon="9.1427778"><ele>399.2</ele><time>2026-05-01T15:27:38.337Z</time></trkpt><trkpt lat="45.781885" lon="9.1426344"><ele>399.0</ele><time>2026-05-01T15:27:39.343Z</time></trkpt><trkpt lat="45.7818839" lon="9.1425127"><ele>399.0</ele><time>2026-05-01T15:27:40.347Z</time></trkpt><trkpt lat="45.7818843" lon="9.1424034"><ele>399.0</ele><time>2026-05-01T15:27:41.339Z</time></trkpt><trkpt lat="45.7818815" lon="9.1423059"><ele>399.0</ele><time>2026-05-01T15:27:42.342Z</time></trkpt><trkpt lat="45.7818614" lon="9.1422168"><ele>399.0</ele><time>2026-05-01T15:27:43.34Z</time></trkpt><trkpt lat="45.7817615" lon="9.142108"><ele>399.0</ele><time>2026-05-01T15:27:45.333Z</time></trkpt><trkpt lat="45.781693" lon="9.1420494"><ele>399.0</ele><time>2026-05-01T15:27:46.33Z</time></trkpt><trkpt lat="45.78162" lon="9.1419833"><ele>399.6666666666667</ele><time>2026-05-01T15:27:47.351Z</time></trkpt><trkpt lat="45.7815624" lon="9.1419176"><ele>400.33333333333337</ele><time>2026-05-01T15:27:48.334Z</time></trkpt><trkpt lat="45.7815017" lon="9.1418609"><ele>401.0</ele><time>2026-05-01T15:27:49.335Z</time></trkpt><trkpt lat="45.7814467" lon="9.141805"><ele>401.6666666666667</ele><time>2026-05-01T15:27:50.339Z</time></trkpt><trkpt lat="45.7813826" lon="9.1417536"><ele>402.33333333333337</ele><time>2026-05-01T15:27:51.333Z</time></trkpt><trkpt lat="45.7813168" lon="9.1416899"><ele>403.0</ele><time>2026-05-01T15:27:52.338Z</time></trkpt><trkpt lat="45.7812389" lon="9.1416123"><ele>403.83333333333337</ele><time>2026-05-01T15:27:53.344Z</time></trkpt><trkpt lat="45.7811631" lon="9.1415375"><ele>404.6666666666667</ele><time>2026-05-01T15:27:54.336Z</time></trkpt><trkpt lat="45.7810902" lon="9.1414682"><ele>405.5</ele><time>2026-05-01T15:27:55.356Z</time></trkpt><trkpt lat="45.7810236" lon="9.1413987"><ele>406.33333333333337</ele><time>2026-05-01T15:27:56.344Z</time></trkpt><trkpt lat="45.7809605" lon="9.1413363"><ele>407.1666666666667</ele><time>2026-05-01T15:27:57.329Z</time></trkpt><trkpt lat="45.780902" lon="9.1412643"><ele>408.0</ele><time>2026-05-01T15:27:58.334Z</time></trkpt><trkpt lat="45.780843" lon="9.141198"><ele>408.0</ele><time>2026-05-01T15:27:59.328Z</time></trkpt><trkpt lat="45.7807827" lon="9.1411329"><ele>408.0</ele><time>2026-05-01T15:28:00.345Z</time></trkpt><trkpt lat="45.7807301" lon="9.1410749"><ele>408.0</ele><time>2026-05-01T15:28:01.33Z</time></trkpt><trkpt lat="45.7806793" lon="9.1410114"><ele>408.0</ele><time>2026-05-01T15:28:02.337Z</time></trkpt><trkpt lat="45.7805949" lon="9.1408997"><ele>408.0</ele><time>2026-05-01T15:28:04.352Z</time></trkpt><trkpt lat="45.7805206" lon="9.1408215"><ele>408.0</ele><time>2026-05-01T15:28:06.346Z</time></trkpt><trkpt lat="45.7804503" lon="9.1407512"><ele>408.5</ele><time>2026-05-01T15:28:08.342Z</time></trkpt><trkpt lat="45.7803805" lon="9.1407007"><ele>409.0</ele><time>2026-05-01T15:28:10.334Z</time></trkpt><trkpt lat="45.7803222" lon="9.1406531"><ele>409.5</ele><time>2026-05-01T15:28:12.35Z</time></trkpt><trkpt lat="45.7802583" lon="9.1405912"><ele>410.0</ele><time>2026-05-01T15:28:14.333Z</time></trkpt><trkpt lat="45.7801848" lon="9.1405103"><ele>410.5</ele><time>2026-05-01T15:28:17.333Z</time></trkpt><trkpt lat="45.7801226" lon="9.140448"><ele>411.0</ele><time>2026-05-01T15:28:20.341Z</time></trkpt><trkpt lat="45.7800658" lon="9.1403992"><ele>411.0</ele><time>2026-05-01T15:28:36.349Z</time></trkpt><trkpt lat="45.7800053" lon="9.1403415"><ele>411.0</ele><time>2026-05-01T15:28:40.345Z</time></trkpt><trkpt lat="45.7799373" lon="9.140276"><ele>411.0</ele><time>2026-05-01T15:28:43.337Z</time></trkpt><trkpt lat="45.7798967" lon="9.1401534"><ele>411.0</ele><time>2026-05-01T15:28:46.342Z</time></trkpt><trkpt lat="45.7798682" lon="9.1400217"><ele>411.0</ele><time>2026-05-01T15:28:49.34Z</time></trkpt><trkpt lat="45.7798588" lon="9.1399118"><ele>411.0</ele><time>2026-05-01T15:28:51.34Z</time></trkpt><trkpt lat="45.7798526" lon="9.1398133"><ele>401.0</ele><time>2026-05-01T15:28:58.349Z</time></trkpt></trkseg></trk></gpx>